<?xml version="1.0" encoding="UTF-8" standalone="no" ?><gpx xmlns="http://www.topografix.com/GPX/1/1" xmlns:gpxx="http://www.garmin.com/xmlschemas/GpxExtensions/v3" xmlns:gpxtrkx="http://www.garmin.com/xmlschemas/TrackStatsExtension/v1" xmlns:wptx1="http://www.garmin.com/xmlschemas/WaypointExtension/v1" xmlns:gpxtpx="http://www.garmin.com/xmlschemas/TrackPointExtension/v1" creator="GPSMAP 62s" version="1.1" xmlns:xsi="http://www.w3.org/2001/XMLSchema-instance" xsi:schemaLocation="http://www.topografix.com/GPX/1/1 http://www.topografix.com/GPX/1/1/gpx.xsd http://www.garmin.com/xmlschemas/GpxExtensions/v3 http://www8.garmin.com/xmlschemas/GpxExtensionsv3.xsd http://www.garmin.com/xmlschemas/TrackStatsExtension/v1 http://www8.garmin.com/xmlschemas/TrackStatsExtension.xsd http://www.garmin.com/xmlschemas/WaypointExtension/v1 http://www8.garmin.com/xmlschemas/WaypointExtensionv1.xsd http://www.garmin.com/xmlschemas/TrackPointExtension/v1 http://www.garmin.com/xmlschemas/TrackPointExtensionv1.xsd"><metadata><link href="http://www.garmin.com"><text>Garmin International</text></link><time>2026-08-16T17:39:01Z</time></metadata><trk><name>2026-08-16 20:38:57</name><extensions><gpxx:TrackExtension><gpxx:DisplayColor>Red</gpxx:DisplayColor></gpxx:TrackExtension><gpxtrkx:TrackStatsExtension><gpxtrkx:Distance>13098</gpxtrkx:Distance><gpxtrkx:TotalElapsedTime>25604</gpxtrkx:TotalElapsedTime><gpxtrkx:MovingTime>12734</gpxtrkx:MovingTime><gpxtrkx:StoppedTime>12859</gpxtrkx:StoppedTime><gpxtrkx:MovingSpeed>1</gpxtrkx:MovingSpeed><gpxtrkx:MaxSpeed>2</gpxtrkx:MaxSpeed><gpxtrkx:MaxElevation>223</gpxtrkx:MaxElevation><gpxtrkx:MinElevation>128</gpxtrkx:MinElevation><gpxtrkx:Ascent>195</gpxtrkx:Ascent><gpxtrkx:Descent>147</gpxtrkx:Descent><gpxtrkx:AvgAscentRate>0</gpxtrkx:AvgAscentRate><gpxtrkx:MaxAscentRate>1</gpxtrkx:MaxAscentRate><gpxtrkx:AvgDescentRate>0</gpxtrkx:AvgDescentRate><gpxtrkx:MaxDescentRate>-1</gpxtrkx:MaxDescentRate></gpxtrkx:TrackStatsExtension></extensions><trkseg><trkpt lat="59.3183747772" lon="34.6590954345"><ele>172.21</ele><time>2026-08-16T10:32:17Z</time></trkpt><trkpt lat="59.3183726817" lon="34.6590974461"><ele>172.21</ele><time>2026-08-16T10:32:18Z</time></trkpt><trkpt lat="59.3183668144" lon="34.6591014694"><ele>182.31</ele><time>2026-08-16T10:32:21Z</time></trkpt><trkpt lat="59.3183663115" lon="34.6591034811"><ele>182.31</ele><time>2026-08-16T10:32:22Z</time></trkpt><trkpt lat="59.3183610309" lon="34.6590943448"><ele>175.10</ele><time>2026-08-16T10:32:26Z</time></trkpt><trkpt lat="59.3183650542" lon="34.6590857115"><ele>169.81</ele><time>2026-08-16T10:32:28Z</time></trkpt><trkpt lat="59.3183688261" lon="34.6590865497"><ele>170.29</ele><time>2026-08-16T10:32:29Z</time></trkpt><trkpt lat="59.3183699995" lon="34.6590895671"><ele>161.64</ele><time>2026-08-16T10:32:30Z</time></trkpt><trkpt lat="59.3183694966" lon="34.6590933390"><ele>164.04</ele><time>2026-08-16T10:32:31Z</time></trkpt><trkpt lat="59.3183756992" lon="34.6590994578"><ele>168.37</ele><time>2026-08-16T10:32:33Z</time></trkpt><trkpt lat="59.3183634616" lon="34.6590868849"><ele>167.89</ele><time>2026-08-16T10:32:43Z</time></trkpt><trkpt lat="59.3183607794" lon="34.6590832807"><ele>168.85</ele><time>2026-08-16T10:32:45Z</time></trkpt><trkpt lat="59.3183518946" lon="34.6590299718"><ele>165.96</ele><time>2026-08-16T10:33:01Z</time></trkpt><trkpt lat="59.3183625396" lon="34.6590256132"><ele>162.60</ele><time>2026-08-16T10:33:17Z</time></trkpt><trkpt lat="59.3183716759" lon="34.6590375993"><ele>159.72</ele><time>2026-08-16T10:33:35Z</time></trkpt><trkpt lat="59.3183715083" lon="34.6590614039"><ele>156.35</ele><time>2026-08-16T10:33:57Z</time></trkpt><trkpt lat="59.3183848355" lon="34.6590120345"><ele>153.47</ele><time>2026-08-16T10:34:23Z</time></trkpt><trkpt lat="59.3183757830" lon="34.6590243559"><ele>150.58</ele><time>2026-08-16T10:34:51Z</time></trkpt><trkpt lat="59.3183713406" lon="34.6590173990"><ele>148.18</ele><time>2026-08-16T10:35:26Z</time></trkpt><trkpt lat="59.3183688261" lon="34.6590232663"><ele>145.78</ele><time>2026-08-16T10:36:01Z</time></trkpt><trkpt lat="59.3183453567" lon="34.6590349171"><ele>143.85</ele><time>2026-08-16T10:36:38Z</time></trkpt><trkpt lat="59.3183591031" lon="34.6590499207"><ele>141.93</ele><time>2026-08-16T10:37:15Z</time></trkpt><trkpt lat="59.3183720112" lon="34.6590738930"><ele>140.97</ele><time>2026-08-16T10:37:46Z</time></trkpt><trkpt lat="59.3183685746" lon="34.6590796765"><ele>140.97</ele><time>2026-08-16T10:37:59Z</time></trkpt><trkpt lat="59.3183699157" lon="34.6590942610"><ele>140.01</ele><time>2026-08-16T10:38:04Z</time></trkpt><trkpt lat="59.3183686584" lon="34.6590881422"><ele>139.53</ele><time>2026-08-16T10:38:21Z</time></trkpt><trkpt lat="59.3183798064" lon="34.6590882260"><ele>138.09</ele><time>2026-08-16T10:38:33Z</time></trkpt><trkpt lat="59.3183820695" lon="34.6590867173"><ele>140.01</ele><time>2026-08-16T10:38:57Z</time></trkpt><trkpt lat="59.3183826562" lon="34.6591062471"><ele>139.05</ele><time>2026-08-16T10:39:27Z</time></trkpt><trkpt lat="59.3183791358" lon="34.6590855438"><ele>138.57</ele><time>2026-08-16T10:40:03Z</time></trkpt><trkpt lat="59.3183747772" lon="34.6590935905"><ele>137.61</ele><time>2026-08-16T10:40:47Z</time></trkpt><trkpt lat="59.3183892779" lon="34.6590996254"><ele>136.64</ele><time>2026-08-16T10:41:20Z</time></trkpt><trkpt lat="59.3183689937" lon="34.6590892319"><ele>135.68</ele><time>2026-08-16T10:41:54Z</time></trkpt><trkpt lat="59.3183657248" lon="34.6590905730"><ele>136.16</ele><time>2026-08-16T10:42:26Z</time></trkpt><trkpt lat="59.3183673173" lon="34.6590903215"><ele>135.68</ele><time>2026-08-16T10:43:08Z</time></trkpt><trkpt lat="59.3183772080" lon="34.6590909921"><ele>135.20</ele><time>2026-08-16T10:43:43Z</time></trkpt><trkpt lat="59.3183855060" lon="34.6590820234"><ele>135.20</ele><time>2026-08-16T10:44:27Z</time></trkpt><trkpt lat="59.3183775432" lon="34.6590852924"><ele>134.72</ele><time>2026-08-16T10:44:58Z</time></trkpt><trkpt lat="59.3183755316" lon="34.6590702888"><ele>134.72</ele><time>2026-08-16T10:45:36Z</time></trkpt><trkpt lat="59.3183887750" lon="34.6590510942"><ele>134.24</ele><time>2026-08-16T10:46:10Z</time></trkpt><trkpt lat="59.3183754478" lon="34.6590464003"><ele>134.24</ele><time>2026-08-16T10:46:43Z</time></trkpt><trkpt lat="59.3183964025" lon="34.6590689477"><ele>133.76</ele><time>2026-08-16T10:47:17Z</time></trkpt><trkpt lat="59.3183839973" lon="34.6590662654"><ele>133.28</ele><time>2026-08-16T10:47:29Z</time></trkpt><trkpt lat="59.3183924630" lon="34.6590674389"><ele>133.76</ele><time>2026-08-16T10:47:48Z</time></trkpt><trkpt lat="59.3183767051" lon="34.6590759885"><ele>133.28</ele><time>2026-08-16T10:48:20Z</time></trkpt><trkpt lat="59.3183842488" lon="34.6590880584"><ele>133.28</ele><time>2026-08-16T10:48:31Z</time></trkpt><trkpt lat="59.3183879368" lon="34.6591070015"><ele>132.80</ele><time>2026-08-16T10:48:53Z</time></trkpt><trkpt lat="59.3183572590" lon="34.6591070853"><ele>132.32</ele><time>2026-08-16T10:49:07Z</time></trkpt><trkpt lat="59.3183628749" lon="34.6591355838"><ele>132.80</ele><time>2026-08-16T10:49:43Z</time></trkpt><trkpt lat="59.3183374777" lon="34.6591181494"><ele>132.32</ele><time>2026-08-16T10:49:59Z</time></trkpt><trkpt lat="59.3182862643" lon="34.6591969393"><ele>132.32</ele><time>2026-08-16T10:50:06Z</time></trkpt><trkpt lat="59.3182528205" lon="34.6592049021"><ele>132.32</ele><time>2026-08-16T10:50:10Z</time></trkpt><trkpt lat="59.3182394095" lon="34.6591294650"><ele>132.32</ele><time>2026-08-16T10:50:15Z</time></trkpt><trkpt lat="59.3182288483" lon="34.6589826979"><ele>132.32</ele><time>2026-08-16T10:50:22Z</time></trkpt><trkpt lat="59.3182327878" lon="34.6589282155"><ele>131.84</ele><time>2026-08-16T10:50:25Z</time></trkpt><trkpt lat="59.3182145990" lon="34.6585289016"><ele>131.84</ele><time>2026-08-16T10:50:42Z</time></trkpt><trkpt lat="59.3181943148" lon="34.6581287496"><ele>131.84</ele><time>2026-08-16T10:50:59Z</time></trkpt><trkpt lat="59.3181009404" lon="34.6577854268"><ele>131.36</ele><time>2026-08-16T10:51:16Z</time></trkpt><trkpt lat="59.3180270121" lon="34.6574474685"><ele>131.36</ele><time>2026-08-16T10:51:32Z</time></trkpt><trkpt lat="59.3180028722" lon="34.6571111027"><ele>130.88</ele><time>2026-08-16T10:51:49Z</time></trkpt><trkpt lat="59.3179778941" lon="34.6570183989"><ele>130.88</ele><time>2026-08-16T10:52:02Z</time></trkpt><trkpt lat="59.3179538380" lon="34.6569761541"><ele>130.88</ele><time>2026-08-16T10:52:07Z</time></trkpt><trkpt lat="59.3178566918" lon="34.6565966215"><ele>130.88</ele><time>2026-08-16T10:52:26Z</time></trkpt><trkpt lat="59.3177810870" lon="34.6562935319"><ele>130.88</ele><time>2026-08-16T10:52:39Z</time></trkpt><trkpt lat="59.3177581206" lon="34.6561876684"><ele>130.88</ele><time>2026-08-16T10:52:44Z</time></trkpt><trkpt lat="59.3176846951" lon="34.6558200382"><ele>130.88</ele><time>2026-08-16T10:53:00Z</time></trkpt><trkpt lat="59.3176712003" lon="34.6554209758"><ele>130.40</ele><time>2026-08-16T10:53:16Z</time></trkpt><trkpt lat="59.3176271114" lon="34.6550792456"><ele>130.40</ele><time>2026-08-16T10:53:30Z</time></trkpt><trkpt lat="59.3175338209" lon="34.6546454821"><ele>130.40</ele><time>2026-08-16T10:53:48Z</time></trkpt><trkpt lat="59.3174689449" lon="34.6542247105"><ele>130.40</ele><time>2026-08-16T10:54:05Z</time></trkpt><trkpt lat="59.3174270354" lon="34.6540236287"><ele>129.92</ele><time>2026-08-16T10:54:21Z</time></trkpt><trkpt lat="59.3174307235" lon="34.6538437530"><ele>130.40</ele><time>2026-08-16T10:54:36Z</time></trkpt><trkpt lat="59.3174236827" lon="34.6535430942"><ele>129.92</ele><time>2026-08-16T10:54:51Z</time></trkpt><trkpt lat="59.3174218386" lon="34.6535642166"><ele>129.92</ele><time>2026-08-16T10:55:06Z</time></trkpt><trkpt lat="59.3174049910" lon="34.6535790525"><ele>129.92</ele><time>2026-08-16T10:55:24Z</time></trkpt><trkpt lat="59.3174187373" lon="34.6535881050"><ele>129.43</ele><time>2026-08-16T10:55:58Z</time></trkpt><trkpt lat="59.3174148817" lon="34.6535674017"><ele>128.95</ele><time>2026-08-16T10:56:27Z</time></trkpt><trkpt lat="59.3174088467" lon="34.6533900406"><ele>128.95</ele><time>2026-08-16T10:56:41Z</time></trkpt><trkpt lat="59.3173928373" lon="34.6532203909"><ele>128.95</ele><time>2026-08-16T10:56:48Z</time></trkpt><trkpt lat="59.3173832819" lon="34.6531131025"><ele>128.95</ele><time>2026-08-16T10:56:53Z</time></trkpt><trkpt lat="59.3173764087" lon="34.6529638208"><ele>128.95</ele><time>2026-08-16T10:57:07Z</time></trkpt><trkpt lat="59.3173813540" lon="34.6529157087"><ele>128.95</ele><time>2026-08-16T10:57:20Z</time></trkpt><trkpt lat="59.3173683621" lon="34.6528863721"><ele>128.95</ele><time>2026-08-16T10:57:23Z</time></trkpt><trkpt lat="59.3173623271" lon="34.6526353341"><ele>128.95</ele><time>2026-08-16T10:57:38Z</time></trkpt><trkpt lat="59.3173592258" lon="34.6525923349"><ele>128.95</ele><time>2026-08-16T10:57:41Z</time></trkpt><trkpt lat="59.3173469882" lon="34.6524378564"><ele>128.95</ele><time>2026-08-16T10:57:50Z</time></trkpt><trkpt lat="59.3173186574" lon="34.6521546319"><ele>128.95</ele><time>2026-08-16T10:58:06Z</time></trkpt><trkpt lat="59.3172986247" lon="34.6519597527"><ele>128.95</ele><time>2026-08-16T10:58:18Z</time></trkpt><trkpt lat="59.3172798492" lon="34.6518697310"><ele>128.95</ele><time>2026-08-16T10:58:30Z</time></trkpt><trkpt lat="59.3172918353" lon="34.6518559847"><ele>128.95</ele><time>2026-08-16T10:58:36Z</time></trkpt><trkpt lat="59.3173246924" lon="34.6518403105"><ele>128.95</ele><time>2026-08-16T10:58:49Z</time></trkpt><trkpt lat="59.3172937632" lon="34.6518079564"><ele>128.95</ele><time>2026-08-16T10:59:02Z</time></trkpt><trkpt lat="59.3172943499" lon="34.6517331060"><ele>129.43</ele><time>2026-08-16T10:59:08Z</time></trkpt><trkpt lat="59.3172834534" lon="34.6514098160"><ele>128.95</ele><time>2026-08-16T10:59:26Z</time></trkpt><trkpt lat="59.3172751553" lon="34.6511679981"><ele>128.95</ele><time>2026-08-16T10:59:40Z</time></trkpt><trkpt lat="59.3172694556" lon="34.6508015413"><ele>129.43</ele><time>2026-08-16T10:59:57Z</time></trkpt><trkpt lat="59.3172669411" lon="34.6505166404"><ele>129.43</ele><time>2026-08-16T11:00:12Z</time></trkpt><trkpt lat="59.3172686175" lon="34.6503686998"><ele>129.43</ele><time>2026-08-16T11:00:20Z</time></trkpt><trkpt lat="59.3172964454" lon="34.6500947792"><ele>129.43</ele><time>2026-08-16T11:00:37Z</time></trkpt><trkpt lat="59.3172415439" lon="34.6499423962"><ele>129.92</ele><time>2026-08-16T11:00:59Z</time></trkpt><trkpt lat="59.3172609899" lon="34.6499607526"><ele>129.92</ele><time>2026-08-16T11:01:24Z</time></trkpt><trkpt lat="59.3173155561" lon="34.6500512771"><ele>130.40</ele><time>2026-08-16T11:01:57Z</time></trkpt><trkpt lat="59.3173592258" lon="34.6499305777"><ele>130.88</ele><time>2026-08-16T11:02:10Z</time></trkpt><trkpt lat="59.3173572142" lon="34.6498726588"><ele>130.88</ele><time>2026-08-16T11:02:13Z</time></trkpt><trkpt lat="59.3173821922" lon="34.6497308370"><ele>130.88</ele><time>2026-08-16T11:02:27Z</time></trkpt><trkpt lat="59.3173529394" lon="34.6496550646"><ele>131.36</ele><time>2026-08-16T11:02:43Z</time></trkpt><trkpt lat="59.3173492514" lon="34.6496905200"><ele>131.36</ele><time>2026-08-16T11:02:56Z</time></trkpt><trkpt lat="59.3173589744" lon="34.6496592555"><ele>131.36</ele><time>2026-08-16T11:02:59Z</time></trkpt><trkpt lat="59.3174067512" lon="34.6493422519"><ele>131.36</ele><time>2026-08-16T11:03:13Z</time></trkpt><trkpt lat="59.3174712081" lon="34.6491938084"><ele>131.84</ele><time>2026-08-16T11:03:26Z</time></trkpt><trkpt lat="59.3175539374" lon="34.6489756275"><ele>131.84</ele><time>2026-08-16T11:03:41Z</time></trkpt><trkpt lat="59.3176158797" lon="34.6487787366"><ele>131.84</ele><time>2026-08-16T11:03:55Z</time></trkpt><trkpt lat="59.3176608905" lon="34.6486970969"><ele>131.84</ele><time>2026-08-16T11:04:07Z</time></trkpt><trkpt lat="59.3177206535" lon="34.6485041454"><ele>132.32</ele><time>2026-08-16T11:04:22Z</time></trkpt><trkpt lat="59.3177716993" lon="34.6482678596"><ele>132.80</ele><time>2026-08-16T11:04:37Z</time></trkpt><trkpt lat="59.3177701067" lon="34.6481775865"><ele>132.80</ele><time>2026-08-16T11:04:51Z</time></trkpt><trkpt lat="59.3178447057" lon="34.6479951125"><ele>132.80</ele><time>2026-08-16T11:05:04Z</time></trkpt><trkpt lat="59.3179209810" lon="34.6477624308"><ele>133.28</ele><time>2026-08-16T11:05:21Z</time></trkpt><trkpt lat="59.3179402594" lon="34.6475157514"><ele>133.76</ele><time>2026-08-16T11:05:36Z</time></trkpt><trkpt lat="59.3179478031" lon="34.6474848222"><ele>133.76</ele><time>2026-08-16T11:05:37Z</time></trkpt><trkpt lat="59.3180032913" lon="34.6473883465"><ele>134.24</ele><time>2026-08-16T11:05:57Z</time></trkpt><trkpt lat="59.3180697598" lon="34.6472233906"><ele>133.76</ele><time>2026-08-16T11:06:13Z</time></trkpt><trkpt lat="59.3180803210" lon="34.6471930481"><ele>134.72</ele><time>2026-08-16T11:06:44Z</time></trkpt><trkpt lat="59.3179909699" lon="34.6471018530"><ele>135.20</ele><time>2026-08-16T11:07:09Z</time></trkpt><trkpt lat="59.3179219030" lon="34.6471048705"><ele>135.68</ele><time>2026-08-16T11:07:31Z</time></trkpt><trkpt lat="59.3180064764" lon="34.6470169444"><ele>136.16</ele><time>2026-08-16T11:07:56Z</time></trkpt><trkpt lat="59.3180201389" lon="34.6470750310"><ele>136.64</ele><time>2026-08-16T11:08:23Z</time></trkpt><trkpt lat="59.3180679996" lon="34.6469384898"><ele>137.13</ele><time>2026-08-16T11:08:41Z</time></trkpt><trkpt lat="59.3180928938" lon="34.6468097437"><ele>137.61</ele><time>2026-08-16T11:08:56Z</time></trkpt><trkpt lat="59.3181490526" lon="34.6466834284"><ele>137.61</ele><time>2026-08-16T11:09:11Z</time></trkpt><trkpt lat="59.3181518186" lon="34.6466338914"><ele>137.61</ele><time>2026-08-16T11:09:16Z</time></trkpt><trkpt lat="59.3182024453" lon="34.6463409439"><ele>138.09</ele><time>2026-08-16T11:09:33Z</time></trkpt><trkpt lat="59.3183862604" lon="34.6460662689"><ele>138.57</ele><time>2026-08-16T11:09:52Z</time></trkpt><trkpt lat="59.3184899446" lon="34.6458894946"><ele>139.05</ele><time>2026-08-16T11:10:07Z</time></trkpt><trkpt lat="59.3185374700" lon="34.6458138060"><ele>139.05</ele><time>2026-08-16T11:10:22Z</time></trkpt><trkpt lat="59.3186533917" lon="34.6456994768"><ele>139.53</ele><time>2026-08-16T11:10:35Z</time></trkpt><trkpt lat="59.3187231291" lon="34.6455345210"><ele>140.01</ele><time>2026-08-16T11:10:48Z</time></trkpt><trkpt lat="59.3187665474" lon="34.6453332715"><ele>140.01</ele><time>2026-08-16T11:11:04Z</time></trkpt><trkpt lat="59.3188048527" lon="34.6452248096"><ele>140.49</ele><time>2026-08-16T11:11:22Z</time></trkpt><trkpt lat="59.3188490253" lon="34.6447649784"><ele>140.97</ele><time>2026-08-16T11:11:41Z</time></trkpt><trkpt lat="59.3189563137" lon="34.6444654930"><ele>140.97</ele><time>2026-08-16T11:11:57Z</time></trkpt><trkpt lat="59.3190280627" lon="34.6442115214"><ele>140.97</ele><time>2026-08-16T11:12:14Z</time></trkpt><trkpt lat="59.3190158252" lon="34.6441316418"><ele>141.45</ele><time>2026-08-16T11:12:28Z</time></trkpt><trkpt lat="59.3189453334" lon="34.6440475713"><ele>140.97</ele><time>2026-08-16T11:12:43Z</time></trkpt><trkpt lat="59.3189202715" lon="34.6440044045"><ele>141.45</ele><time>2026-08-16T11:12:59Z</time></trkpt><trkpt lat="59.3189391308" lon="34.6440299693"><ele>141.93</ele><time>2026-08-16T11:13:15Z</time></trkpt><trkpt lat="59.3189257197" lon="34.6440168936"><ele>141.93</ele><time>2026-08-16T11:13:31Z</time></trkpt><trkpt lat="59.3189952057" lon="34.6439640876"><ele>142.41</ele><time>2026-08-16T11:13:43Z</time></trkpt><trkpt lat="59.3190314155" lon="34.6439127065"><ele>142.41</ele><time>2026-08-16T11:14:00Z</time></trkpt><trkpt lat="59.3190820422" lon="34.6439300571"><ele>142.89</ele><time>2026-08-16T11:14:23Z</time></trkpt><trkpt lat="59.3190926872" lon="34.6438955236"><ele>142.89</ele><time>2026-08-16T11:14:55Z</time></trkpt><trkpt lat="59.3190979678" lon="34.6438871417"><ele>143.37</ele><time>2026-08-16T11:15:10Z</time></trkpt><trkpt lat="59.3191268854" lon="34.6438534465"><ele>143.37</ele><time>2026-08-16T11:15:30Z</time></trkpt><trkpt lat="59.3191786855" lon="34.6437374409"><ele>143.37</ele><time>2026-08-16T11:15:45Z</time></trkpt><trkpt lat="59.3191951979" lon="34.6437135525"><ele>143.37</ele><time>2026-08-16T11:15:48Z</time></trkpt><trkpt lat="59.3192106206" lon="34.6436067671"><ele>143.37</ele><time>2026-08-16T11:16:02Z</time></trkpt><trkpt lat="59.3192968704" lon="34.6434364468"><ele>143.85</ele><time>2026-08-16T11:16:14Z</time></trkpt><trkpt lat="59.3193102814" lon="34.6434028354"><ele>143.85</ele><time>2026-08-16T11:16:16Z</time></trkpt><trkpt lat="59.3193358462" lon="34.6433127299"><ele>143.85</ele><time>2026-08-16T11:16:22Z</time></trkpt><trkpt lat="59.3193790969" lon="34.6430522203"><ele>143.85</ele><time>2026-08-16T11:16:39Z</time></trkpt><trkpt lat="59.3193525262" lon="34.6430389769"><ele>143.85</ele><time>2026-08-16T11:16:57Z</time></trkpt><trkpt lat="59.3193267100" lon="34.6430139989"><ele>144.34</ele><time>2026-08-16T11:17:16Z</time></trkpt><trkpt lat="59.3193611596" lon="34.6429658029"><ele>144.34</ele><time>2026-08-16T11:17:27Z</time></trkpt><trkpt lat="59.3193950225" lon="34.6428694949"><ele>144.82</ele><time>2026-08-16T11:17:40Z</time></trkpt><trkpt lat="59.3193692900" lon="34.6428754460"><ele>144.34</ele><time>2026-08-16T11:17:54Z</time></trkpt><trkpt lat="59.3194121215" lon="34.6427839156"><ele>144.82</ele><time>2026-08-16T11:18:07Z</time></trkpt><trkpt lat="59.3194244429" lon="34.6426936425"><ele>144.82</ele><time>2026-08-16T11:18:23Z</time></trkpt><trkpt lat="59.3194052484" lon="34.6425421815"><ele>144.82</ele><time>2026-08-16T11:18:37Z</time></trkpt><trkpt lat="59.3193806056" lon="34.6424796525"><ele>145.30</ele><time>2026-08-16T11:19:06Z</time></trkpt><trkpt lat="59.3194018956" lon="34.6425400022"><ele>145.78</ele><time>2026-08-16T11:19:31Z</time></trkpt><trkpt lat="59.3194242753" lon="34.6423745435"><ele>145.78</ele><time>2026-08-16T11:19:51Z</time></trkpt><trkpt lat="59.3194443919" lon="34.6422482282"><ele>145.78</ele><time>2026-08-16T11:20:05Z</time></trkpt><trkpt lat="59.3194350041" lon="34.6422113478"><ele>145.78</ele><time>2026-08-16T11:20:20Z</time></trkpt><trkpt lat="59.3194744829" lon="34.6421794128"><ele>146.26</ele><time>2026-08-16T11:20:36Z</time></trkpt><trkpt lat="59.3194951862" lon="34.6422107611"><ele>146.26</ele><time>2026-08-16T11:21:01Z</time></trkpt><trkpt lat="59.3194939289" lon="34.6421313845"><ele>146.74</ele><time>2026-08-16T11:21:21Z</time></trkpt><trkpt lat="59.3195061665" lon="34.6422597114"><ele>146.74</ele><time>2026-08-16T11:21:36Z</time></trkpt><trkpt lat="59.3195057474" lon="34.6422228310"><ele>147.22</ele><time>2026-08-16T11:21:57Z</time></trkpt><trkpt lat="59.3195276242" lon="34.6422614716"><ele>147.22</ele><time>2026-08-16T11:22:14Z</time></trkpt><trkpt lat="59.3195222598" lon="34.6423079073"><ele>147.22</ele><time>2026-08-16T11:22:35Z</time></trkpt><trkpt lat="59.3195487466" lon="34.6423644852"><ele>147.70</ele><time>2026-08-16T11:23:15Z</time></trkpt><trkpt lat="59.3195016403" lon="34.6424713545"><ele>148.18</ele><time>2026-08-16T11:24:00Z</time></trkpt><trkpt lat="59.3195017241" lon="34.6424522437"><ele>148.66</ele><time>2026-08-16T11:24:37Z</time></trkpt><trkpt lat="59.3195290491" lon="34.6424136870"><ele>148.66</ele><time>2026-08-16T11:24:54Z</time></trkpt><trkpt lat="59.3195634987" lon="34.6423212346"><ele>149.14</ele><time>2026-08-16T11:25:23Z</time></trkpt><trkpt lat="59.3195707910" lon="34.6423789021"><ele>149.14</ele><time>2026-08-16T11:25:55Z</time></trkpt><trkpt lat="59.3196391035" lon="34.6423417702"><ele>149.62</ele><time>2026-08-16T11:26:36Z</time></trkpt><trkpt lat="59.3196120299" lon="34.6422729548"><ele>150.10</ele><time>2026-08-16T11:27:12Z</time></trkpt><trkpt lat="59.3196852878" lon="34.6423495654"><ele>150.58</ele><time>2026-08-16T11:27:45Z</time></trkpt><trkpt lat="59.3195267022" lon="34.6423951630"><ele>150.58</ele><time>2026-08-16T11:28:10Z</time></trkpt><trkpt lat="59.3195069209" lon="34.6422208194"><ele>150.58</ele><time>2026-08-16T11:28:22Z</time></trkpt><trkpt lat="59.3195106927" lon="34.6421208233"><ele>151.06</ele><time>2026-08-16T11:28:33Z</time></trkpt><trkpt lat="59.3196179811" lon="34.6420175582"><ele>150.58</ele><time>2026-08-16T11:28:47Z</time></trkpt><trkpt lat="59.3196961842" lon="34.6418813523"><ele>151.06</ele><time>2026-08-16T11:29:02Z</time></trkpt><trkpt lat="59.3198007066" lon="34.6417267900"><ele>151.06</ele><time>2026-08-16T11:29:16Z</time></trkpt><trkpt lat="59.3199100066" lon="34.6416116226"><ele>151.06</ele><time>2026-08-16T11:29:29Z</time></trkpt><trkpt lat="59.3199592922" lon="34.6415332519"><ele>151.54</ele><time>2026-08-16T11:29:43Z</time></trkpt><trkpt lat="59.3200188875" lon="34.6414390393"><ele>151.54</ele><time>2026-08-16T11:30:00Z</time></trkpt><trkpt lat="59.3200306222" lon="34.6412078664"><ele>152.03</ele><time>2026-08-16T11:30:15Z</time></trkpt><trkpt lat="59.3200986832" lon="34.6411042660"><ele>152.51</ele><time>2026-08-16T11:30:48Z</time></trkpt><trkpt lat="59.3200815003" lon="34.6409965586"><ele>152.99</ele><time>2026-08-16T11:31:10Z</time></trkpt><trkpt lat="59.3201307021" lon="34.6407784615"><ele>153.47</ele><time>2026-08-16T11:31:27Z</time></trkpt><trkpt lat="59.3201351445" lon="34.6405454446"><ele>153.47</ele><time>2026-08-16T11:31:39Z</time></trkpt><trkpt lat="59.3202169519" lon="34.6404308639"><ele>153.95</ele><time>2026-08-16T11:31:58Z</time></trkpt><trkpt lat="59.3202657346" lon="34.6403094940"><ele>154.43</ele><time>2026-08-16T11:32:14Z</time></trkpt><trkpt lat="59.3202612922" lon="34.6403339691"><ele>154.91</ele><time>2026-08-16T11:32:39Z</time></trkpt><trkpt lat="59.3202487193" lon="34.6403267607"><ele>154.91</ele><time>2026-08-16T11:32:57Z</time></trkpt><trkpt lat="59.3201291095" lon="34.6403546724"><ele>155.39</ele><time>2026-08-16T11:33:12Z</time></trkpt><trkpt lat="59.3200949114" lon="34.6403643116"><ele>155.39</ele><time>2026-08-16T11:33:40Z</time></trkpt><trkpt lat="59.3200932350" lon="34.6402712725"><ele>155.39</ele><time>2026-08-16T11:33:50Z</time></trkpt><trkpt lat="59.3201676663" lon="34.6401877888"><ele>155.87</ele><time>2026-08-16T11:34:04Z</time></trkpt><trkpt lat="59.3203188758" lon="34.6399309672"><ele>155.87</ele><time>2026-08-16T11:34:23Z</time></trkpt><trkpt lat="59.3203759566" lon="34.6396541968"><ele>156.35</ele><time>2026-08-16T11:34:39Z</time></trkpt><trkpt lat="59.3204017729" lon="34.6394585632"><ele>156.35</ele><time>2026-08-16T11:34:55Z</time></trkpt><trkpt lat="59.3203920498" lon="34.6394231915"><ele>155.87</ele><time>2026-08-16T11:35:06Z</time></trkpt><trkpt lat="59.3204168603" lon="34.6394091938"><ele>156.35</ele><time>2026-08-16T11:35:23Z</time></trkpt><trkpt lat="59.3204267509" lon="34.6394066792"><ele>156.35</ele><time>2026-08-16T11:35:25Z</time></trkpt><trkpt lat="59.3205036968" lon="34.6395086870"><ele>156.35</ele><time>2026-08-16T11:35:38Z</time></trkpt><trkpt lat="59.3205499649" lon="34.6394898277"><ele>156.83</ele><time>2026-08-16T11:35:48Z</time></trkpt><trkpt lat="59.3205746915" lon="34.6394682024"><ele>156.83</ele><time>2026-08-16T11:36:02Z</time></trkpt><trkpt lat="59.3205044512" lon="34.6392383706"><ele>157.31</ele><time>2026-08-16T11:36:17Z</time></trkpt><trkpt lat="59.3204796407" lon="34.6389850695"><ele>157.31</ele><time>2026-08-16T11:36:32Z</time></trkpt><trkpt lat="59.3204128370" lon="34.6387392282"><ele>157.79</ele><time>2026-08-16T11:36:49Z</time></trkpt><trkpt lat="59.3203605339" lon="34.6385428403"><ele>157.79</ele><time>2026-08-16T11:36:59Z</time></trkpt><trkpt lat="59.3202977534" lon="34.6382557601"><ele>158.27</ele><time>2026-08-16T11:37:14Z</time></trkpt><trkpt lat="59.3201286066" lon="34.6382831689"><ele>158.27</ele><time>2026-08-16T11:37:31Z</time></trkpt><trkpt lat="59.3199804146" lon="34.6382159460"><ele>159.24</ele><time>2026-08-16T11:38:08Z</time></trkpt><trkpt lat="59.3200201448" lon="34.6381431073"><ele>159.24</ele><time>2026-08-16T11:38:37Z</time></trkpt><trkpt lat="59.3200343940" lon="34.6380831767"><ele>159.72</ele><time>2026-08-16T11:38:59Z</time></trkpt><trkpt lat="59.3200669158" lon="34.6377988625"><ele>159.72</ele><time>2026-08-16T11:39:16Z</time></trkpt><trkpt lat="59.3200775608" lon="34.6376619022"><ele>160.20</ele><time>2026-08-16T11:39:29Z</time></trkpt><trkpt lat="59.3200530857" lon="34.6373648476"><ele>160.68</ele><time>2026-08-16T11:39:45Z</time></trkpt><trkpt lat="59.3200311251" lon="34.6371073555"><ele>160.68</ele><time>2026-08-16T11:40:03Z</time></trkpt><trkpt lat="59.3200033810" lon="34.6368559822"><ele>161.64</ele><time>2026-08-16T11:40:25Z</time></trkpt><trkpt lat="59.3200177979" lon="34.6367863286"><ele>161.64</ele><time>2026-08-16T11:40:28Z</time></trkpt><trkpt lat="59.3200582825" lon="34.6364794672"><ele>162.12</ele><time>2026-08-16T11:40:43Z</time></trkpt><trkpt lat="59.3201759644" lon="34.6361216437"><ele>162.60</ele><time>2026-08-16T11:41:00Z</time></trkpt><trkpt lat="59.3201939855" lon="34.6357855294"><ele>163.08</ele><time>2026-08-16T11:41:15Z</time></trkpt><trkpt lat="59.3201879505" lon="34.6355582960"><ele>163.08</ele><time>2026-08-16T11:41:31Z</time></trkpt><trkpt lat="59.3202205561" lon="34.6352742333"><ele>164.52</ele><time>2026-08-16T11:41:46Z</time></trkpt><trkpt lat="59.3202568498" lon="34.6349925175"><ele>164.52</ele><time>2026-08-16T11:41:59Z</time></trkpt><trkpt lat="59.3202989269" lon="34.6347542200"><ele>165.00</ele><time>2026-08-16T11:42:13Z</time></trkpt><trkpt lat="59.3202631362" lon="34.6345159225"><ele>165.48</ele><time>2026-08-16T11:42:28Z</time></trkpt><trkpt lat="59.3203338794" lon="34.6342715900"><ele>165.96</ele><time>2026-08-16T11:42:43Z</time></trkpt><trkpt lat="59.3203757890" lon="34.6341136750"><ele>166.45</ele><time>2026-08-16T11:43:00Z</time></trkpt><trkpt lat="59.3202240765" lon="34.6339229867"><ele>166.93</ele><time>2026-08-16T11:43:26Z</time></trkpt><trkpt lat="59.3203478772" lon="34.6339877788"><ele>167.41</ele><time>2026-08-16T11:44:01Z</time></trkpt><trkpt lat="59.3203161936" lon="34.6339557599"><ele>167.89</ele><time>2026-08-16T11:44:30Z</time></trkpt><trkpt lat="59.3203427643" lon="34.6339264233"><ele>167.89</ele><time>2026-08-16T11:44:34Z</time></trkpt><trkpt lat="59.3204311095" lon="34.6336582024"><ele>168.37</ele><time>2026-08-16T11:44:52Z</time></trkpt><trkpt lat="59.3205555808" lon="34.6334318910"><ele>168.37</ele><time>2026-08-16T11:45:08Z</time></trkpt><trkpt lat="59.3206891883" lon="34.6331855468"><ele>168.37</ele><time>2026-08-16T11:45:27Z</time></trkpt><trkpt lat="59.3207606860" lon="34.6331038233"><ele>168.85</ele><time>2026-08-16T11:45:42Z</time></trkpt><trkpt lat="59.3208149169" lon="34.6329426393"><ele>169.33</ele><time>2026-08-16T11:45:58Z</time></trkpt><trkpt lat="59.3209579960" lon="34.6328233648"><ele>169.33</ele><time>2026-08-16T11:46:16Z</time></trkpt><trkpt lat="59.3211182579" lon="34.6327263862"><ele>169.81</ele><time>2026-08-16T11:46:34Z</time></trkpt><trkpt lat="59.3212513626" lon="34.6325525455"><ele>170.29</ele><time>2026-08-16T11:46:52Z</time></trkpt><trkpt lat="59.3213181663" lon="34.6324352827"><ele>170.29</ele><time>2026-08-16T11:47:06Z</time></trkpt><trkpt lat="59.3214629218" lon="34.6322159283"><ele>170.77</ele><time>2026-08-16T11:47:19Z</time></trkpt><trkpt lat="59.3215512671" lon="34.6319334581"><ele>170.77</ele><time>2026-08-16T11:47:35Z</time></trkpt><trkpt lat="59.3215852138" lon="34.6317985933"><ele>171.25</ele><time>2026-08-16T11:47:54Z</time></trkpt><trkpt lat="59.3216419592" lon="34.6314852778"><ele>171.25</ele><time>2026-08-16T11:48:10Z</time></trkpt><trkpt lat="59.3217002135" lon="34.6314520016"><ele>171.73</ele><time>2026-08-16T11:48:24Z</time></trkpt><trkpt lat="59.3217041530" lon="34.6313074138"><ele>171.73</ele><time>2026-08-16T11:48:52Z</time></trkpt><trkpt lat="59.3217370100" lon="34.6313628182"><ele>172.21</ele><time>2026-08-16T11:49:24Z</time></trkpt><trkpt lat="59.3217298854" lon="34.6312178951"><ele>172.21</ele><time>2026-08-16T11:49:53Z</time></trkpt><trkpt lat="59.3217455596" lon="34.6313498262"><ele>172.69</ele><time>2026-08-16T11:50:32Z</time></trkpt><trkpt lat="59.3217640836" lon="34.6313636564"><ele>172.69</ele><time>2026-08-16T11:51:03Z</time></trkpt><trkpt lat="59.3218671810" lon="34.6312111057"><ele>172.69</ele><time>2026-08-16T11:51:22Z</time></trkpt><trkpt lat="59.3219304644" lon="34.6311318967"><ele>172.69</ele><time>2026-08-16T11:51:39Z</time></trkpt><trkpt lat="59.3219600525" lon="34.6311992034"><ele>172.69</ele><time>2026-08-16T11:52:00Z</time></trkpt><trkpt lat="59.3220198993" lon="34.6310611535"><ele>172.69</ele><time>2026-08-16T11:52:15Z</time></trkpt><trkpt lat="59.3221276067" lon="34.6308521088"><ele>173.17</ele><time>2026-08-16T11:52:32Z</time></trkpt><trkpt lat="59.3222632259" lon="34.6306411363"><ele>173.17</ele><time>2026-08-16T11:52:51Z</time></trkpt><trkpt lat="59.3223761301" lon="34.6304693073"><ele>173.17</ele><time>2026-08-16T11:53:09Z</time></trkpt><trkpt lat="59.3224291038" lon="34.6304077841"><ele>173.66</ele><time>2026-08-16T11:53:25Z</time></trkpt><trkpt lat="59.3225290161" lon="34.6302554011"><ele>173.66</ele><time>2026-08-16T11:53:43Z</time></trkpt><trkpt lat="59.3225955684" lon="34.6301103942"><ele>173.66</ele><time>2026-08-16T11:53:57Z</time></trkpt><trkpt lat="59.3226591032" lon="34.6300251503"><ele>174.14</ele><time>2026-08-16T11:54:15Z</time></trkpt><trkpt lat="59.3226361368" lon="34.6298218891"><ele>174.14</ele><time>2026-08-16T11:54:32Z</time></trkpt><trkpt lat="59.3227126636" lon="34.6297209710"><ele>174.14</ele><time>2026-08-16T11:54:49Z</time></trkpt><trkpt lat="59.3227761146" lon="34.6295712702"><ele>174.62</ele><time>2026-08-16T11:55:08Z</time></trkpt><trkpt lat="59.3228911981" lon="34.6294982638"><ele>175.10</ele><time>2026-08-16T11:55:27Z</time></trkpt><trkpt lat="59.3228068762" lon="34.6292789932"><ele>175.10</ele><time>2026-08-16T11:55:50Z</time></trkpt><trkpt lat="59.3228615262" lon="34.6292902250"><ele>175.10</ele><time>2026-08-16T11:56:24Z</time></trkpt><trkpt lat="59.3230206985" lon="34.6293753013"><ele>176.06</ele><time>2026-08-16T11:57:01Z</time></trkpt><trkpt lat="59.3229926191" lon="34.6292974334"><ele>176.06</ele><time>2026-08-16T11:57:17Z</time></trkpt><trkpt lat="59.3230398092" lon="34.6290731337"><ele>176.06</ele><time>2026-08-16T11:57:37Z</time></trkpt><trkpt lat="59.3231311720" lon="34.6288423799"><ele>176.06</ele><time>2026-08-16T11:57:56Z</time></trkpt><trkpt lat="59.3231312558" lon="34.6287591476"><ele>175.58</ele><time>2026-08-16T11:58:24Z</time></trkpt><trkpt lat="59.3231960479" lon="34.6286000591"><ele>176.06</ele><time>2026-08-16T11:58:46Z</time></trkpt><trkpt lat="59.3232879974" lon="34.6283571515"><ele>176.06</ele><time>2026-08-16T11:59:00Z</time></trkpt><trkpt lat="59.3233705591" lon="34.6282546408"><ele>176.06</ele><time>2026-08-16T11:59:16Z</time></trkpt><trkpt lat="59.3234646879" lon="34.6280048601"><ele>176.54</ele><time>2026-08-16T11:59:36Z</time></trkpt><trkpt lat="59.3235973734" lon="34.6277847514"><ele>177.02</ele><time>2026-08-16T11:59:54Z</time></trkpt><trkpt lat="59.3236767501" lon="34.6277060453"><ele>177.02</ele><time>2026-08-16T12:00:13Z</time></trkpt><trkpt lat="59.3237889837" lon="34.6276308596"><ele>177.02</ele><time>2026-08-16T12:00:30Z</time></trkpt><trkpt lat="59.3239207473" lon="34.6275576856"><ele>177.50</ele><time>2026-08-16T12:00:48Z</time></trkpt><trkpt lat="59.3239509221" lon="34.6274906304"><ele>177.98</ele><time>2026-08-16T12:01:04Z</time></trkpt><trkpt lat="59.3240604736" lon="34.6272423584"><ele>177.98</ele><time>2026-08-16T12:01:19Z</time></trkpt><trkpt lat="59.3240976054" lon="34.6273503173"><ele>178.46</ele><time>2026-08-16T12:01:36Z</time></trkpt><trkpt lat="59.3241561949" lon="34.6272310428"><ele>178.46</ele><time>2026-08-16T12:01:54Z</time></trkpt><trkpt lat="59.3241345696" lon="34.6273404267"><ele>178.94</ele><time>2026-08-16T12:02:22Z</time></trkpt><trkpt lat="59.3244076520" lon="34.6270793304"><ele>179.42</ele><time>2026-08-16T12:02:50Z</time></trkpt><trkpt lat="59.3243513256" lon="34.6270564478"><ele>179.90</ele><time>2026-08-16T12:03:11Z</time></trkpt><trkpt lat="59.3243015371" lon="34.6271651611"><ele>179.90</ele><time>2026-08-16T12:03:39Z</time></trkpt><trkpt lat="59.3243051413" lon="34.6270522568"><ele>179.90</ele><time>2026-08-16T12:04:05Z</time></trkpt><trkpt lat="59.3244406767" lon="34.6267346665"><ele>180.38</ele><time>2026-08-16T12:04:24Z</time></trkpt><trkpt lat="59.3245861027" lon="34.6265313216"><ele>179.90</ele><time>2026-08-16T12:04:40Z</time></trkpt><trkpt lat="59.3246969115" lon="34.6262858994"><ele>180.38</ele><time>2026-08-16T12:04:57Z</time></trkpt><trkpt lat="59.3247041199" lon="34.6260798723"><ele>179.90</ele><time>2026-08-16T12:05:17Z</time></trkpt><trkpt lat="59.3249132484" lon="34.6258860826"><ele>180.87</ele><time>2026-08-16T12:05:37Z</time></trkpt><trkpt lat="59.3248116598" lon="34.6258002520"><ele>180.87</ele><time>2026-08-16T12:05:55Z</time></trkpt><trkpt lat="59.3248329498" lon="34.6258049458"><ele>180.87</ele><time>2026-08-16T12:06:13Z</time></trkpt><trkpt lat="59.3248968199" lon="34.6255533211"><ele>180.87</ele><time>2026-08-16T12:06:30Z</time></trkpt><trkpt lat="59.3249365501" lon="34.6255249064"><ele>180.87</ele><time>2026-08-16T12:06:44Z</time></trkpt><trkpt lat="59.3249222171" lon="34.6254829131"><ele>180.87</ele><time>2026-08-16T12:07:04Z</time></trkpt><trkpt lat="59.3250112329" lon="34.6251804102"><ele>180.87</ele><time>2026-08-16T12:07:22Z</time></trkpt><trkpt lat="59.3250672240" lon="34.6250773128"><ele>181.35</ele><time>2026-08-16T12:07:40Z</time></trkpt><trkpt lat="59.3251646217" lon="34.6249931585"><ele>181.35</ele><time>2026-08-16T12:07:55Z</time></trkpt><trkpt lat="59.3251973111" lon="34.6248986106"><ele>181.35</ele><time>2026-08-16T12:08:13Z</time></trkpt><trkpt lat="59.3252068665" lon="34.6245229337"><ele>181.35</ele><time>2026-08-16T12:08:42Z</time></trkpt><trkpt lat="59.3252149131" lon="34.6247231774"><ele>181.35</ele><time>2026-08-16T12:09:10Z</time></trkpt><trkpt lat="59.3251772784" lon="34.6248259395"><ele>181.35</ele><time>2026-08-16T12:09:30Z</time></trkpt><trkpt lat="59.3252442498" lon="34.6248078346"><ele>181.83</ele><time>2026-08-16T12:09:52Z</time></trkpt><trkpt lat="59.3253118917" lon="34.6246559545"><ele>181.35</ele><time>2026-08-16T12:10:25Z</time></trkpt><trkpt lat="59.3252522964" lon="34.6246210858"><ele>181.83</ele><time>2026-08-16T12:10:51Z</time></trkpt><trkpt lat="59.3253057729" lon="34.6245835349"><ele>181.83</ele><time>2026-08-16T12:11:08Z</time></trkpt><trkpt lat="59.3253556453" lon="34.6244145557"><ele>181.83</ele><time>2026-08-16T12:11:25Z</time></trkpt><trkpt lat="59.3253586628" lon="34.6242385358"><ele>181.83</ele><time>2026-08-16T12:11:41Z</time></trkpt><trkpt lat="59.3253869098" lon="34.6239626035"><ele>181.35</ele><time>2026-08-16T12:11:59Z</time></trkpt><trkpt lat="59.3254709803" lon="34.6237771958"><ele>182.31</ele><time>2026-08-16T12:12:20Z</time></trkpt><trkpt lat="59.3255143147" lon="34.6237207856"><ele>182.31</ele><time>2026-08-16T12:12:37Z</time></trkpt><trkpt lat="59.3255144823" lon="34.6235901117"><ele>182.31</ele><time>2026-08-16T12:12:51Z</time></trkpt><trkpt lat="59.3255029153" lon="34.6233464498"><ele>182.79</ele><time>2026-08-16T12:13:07Z</time></trkpt><trkpt lat="59.3254727405" lon="34.6231478825"><ele>182.31</ele><time>2026-08-16T12:13:22Z</time></trkpt><trkpt lat="59.3254869897" lon="34.6229971759"><ele>182.31</ele><time>2026-08-16T12:13:41Z</time></trkpt><trkpt lat="59.3254770990" lon="34.6228380874"><ele>181.83</ele><time>2026-08-16T12:13:59Z</time></trkpt><trkpt lat="59.3254912645" lon="34.6227704454"><ele>182.79</ele><time>2026-08-16T12:14:03Z</time></trkpt><trkpt lat="59.3254607543" lon="34.6225710399"><ele>182.79</ele><time>2026-08-16T12:14:18Z</time></trkpt><trkpt lat="59.3254617602" lon="34.6224331576"><ele>182.79</ele><time>2026-08-16T12:14:35Z</time></trkpt><trkpt lat="59.3254810385" lon="34.6221288107"><ele>182.79</ele><time>2026-08-16T12:14:51Z</time></trkpt><trkpt lat="59.3254543841" lon="34.6218465921"><ele>183.27</ele><time>2026-08-16T12:15:10Z</time></trkpt><trkpt lat="59.3254020810" lon="34.6215310134"><ele>183.27</ele><time>2026-08-16T12:15:26Z</time></trkpt><trkpt lat="59.3253754266" lon="34.6214815602"><ele>183.27</ele><time>2026-08-16T12:15:49Z</time></trkpt><trkpt lat="59.3252986483" lon="34.6213958133"><ele>183.75</ele><time>2026-08-16T12:16:23Z</time></trkpt><trkpt lat="59.3252732512" lon="34.6213216335"><ele>184.23</ele><time>2026-08-16T12:16:58Z</time></trkpt><trkpt lat="59.3253409769" lon="34.6213601064"><ele>183.27</ele><time>2026-08-16T12:17:15Z</time></trkpt><trkpt lat="59.3254285678" lon="34.6213805582"><ele>182.79</ele><time>2026-08-16T12:17:45Z</time></trkpt><trkpt lat="59.3254200183" lon="34.6213111561"><ele>182.79</ele><time>2026-08-16T12:18:24Z</time></trkpt><trkpt lat="59.3253860716" lon="34.6213181131"><ele>182.31</ele><time>2026-08-16T12:19:04Z</time></trkpt><trkpt lat="59.3253180105" lon="34.6213212144"><ele>182.31</ele><time>2026-08-16T12:19:36Z</time></trkpt><trkpt lat="59.3253439944" lon="34.6213093121"><ele>181.83</ele><time>2026-08-16T12:20:12Z</time></trkpt><trkpt lat="59.3253036775" lon="34.6212444361"><ele>181.35</ele><time>2026-08-16T12:20:47Z</time></trkpt><trkpt lat="59.3252859078" lon="34.6212896146"><ele>181.35</ele><time>2026-08-16T12:21:24Z</time></trkpt><trkpt lat="59.3253219500" lon="34.6213018522"><ele>180.38</ele><time>2026-08-16T12:22:07Z</time></trkpt><trkpt lat="59.3252826389" lon="34.6213537361"><ele>180.38</ele><time>2026-08-16T12:22:54Z</time></trkpt><trkpt lat="59.3252856564" lon="34.6212467831"><ele>179.90</ele><time>2026-08-16T12:23:32Z</time></trkpt><trkpt lat="59.3253010791" lon="34.6212104056"><ele>179.42</ele><time>2026-08-16T12:24:12Z</time></trkpt><trkpt lat="59.3252809625" lon="34.6211882774"><ele>178.94</ele><time>2026-08-16T12:24:52Z</time></trkpt><trkpt lat="59.3253377918" lon="34.6213321108"><ele>178.94</ele><time>2026-08-16T12:25:25Z</time></trkpt><trkpt lat="59.3253491074" lon="34.6213423368"><ele>178.46</ele><time>2026-08-16T12:26:06Z</time></trkpt><trkpt lat="59.3253606744" lon="34.6212926321"><ele>178.46</ele><time>2026-08-16T12:26:40Z</time></trkpt><trkpt lat="59.3253439106" lon="34.6213233098"><ele>179.42</ele><time>2026-08-16T12:27:05Z</time></trkpt><trkpt lat="59.3252972234" lon="34.6213536523"><ele>180.38</ele><time>2026-08-16T12:27:32Z</time></trkpt><trkpt lat="59.3252706528" lon="34.6214228868"><ele>180.38</ele><time>2026-08-16T12:28:13Z</time></trkpt><trkpt lat="59.3252587505" lon="34.6214888524"><ele>180.38</ele><time>2026-08-16T12:28:51Z</time></trkpt><trkpt lat="59.3253128976" lon="34.6214046143"><ele>180.38</ele><time>2026-08-16T12:29:27Z</time></trkpt><trkpt lat="59.3253325950" lon="34.6214048658"><ele>180.38</ele><time>2026-08-16T12:30:03Z</time></trkpt><trkpt lat="59.3252761010" lon="34.6213632077"><ele>180.38</ele><time>2026-08-16T12:30:40Z</time></trkpt><trkpt lat="59.3252560683" lon="34.6212891117"><ele>180.38</ele><time>2026-08-16T12:31:14Z</time></trkpt><trkpt lat="59.3253311701" lon="34.6213432588"><ele>180.38</ele><time>2026-08-16T12:31:52Z</time></trkpt><trkpt lat="59.3252841476" lon="34.6214757767"><ele>180.38</ele><time>2026-08-16T12:32:24Z</time></trkpt><trkpt lat="59.3252300844" lon="34.6215187758"><ele>179.90</ele><time>2026-08-16T12:32:58Z</time></trkpt><trkpt lat="59.3252861593" lon="34.6214934625"><ele>179.90</ele><time>2026-08-16T12:33:37Z</time></trkpt><trkpt lat="59.3252755981" lon="34.6214176062"><ele>179.90</ele><time>2026-08-16T12:34:09Z</time></trkpt><trkpt lat="59.3252650369" lon="34.6213770378"><ele>179.42</ele><time>2026-08-16T12:34:43Z</time></trkpt><trkpt lat="59.3253098801" lon="34.6214705799"><ele>179.42</ele><time>2026-08-16T12:35:18Z</time></trkpt><trkpt lat="59.3253129814" lon="34.6215440892"><ele>179.42</ele><time>2026-08-16T12:35:59Z</time></trkpt><trkpt lat="59.3253527116" lon="34.6214984078"><ele>179.42</ele><time>2026-08-16T12:36:33Z</time></trkpt><trkpt lat="59.3253082875" lon="34.6215949673"><ele>179.42</ele><time>2026-08-16T12:37:08Z</time></trkpt><trkpt lat="59.3253511190" lon="34.6214223839"><ele>178.94</ele><time>2026-08-16T12:37:38Z</time></trkpt><trkpt lat="59.3253679667" lon="34.6214473620"><ele>179.42</ele><time>2026-08-16T12:37:58Z</time></trkpt><trkpt lat="59.3253335170" lon="34.6214637067"><ele>179.42</ele><time>2026-08-16T12:38:25Z</time></trkpt><trkpt lat="59.3252706528" lon="34.6213840786"><ele>179.42</ele><time>2026-08-16T12:38:47Z</time></trkpt><trkpt lat="59.3252383824" lon="34.6212462801"><ele>178.94</ele><time>2026-08-16T12:39:04Z</time></trkpt><trkpt lat="59.3251120672" lon="34.6211400814"><ele>178.94</ele><time>2026-08-16T12:39:19Z</time></trkpt><trkpt lat="59.3249999173" lon="34.6210883651"><ele>179.42</ele><time>2026-08-16T12:39:38Z</time></trkpt><trkpt lat="59.3249107338" lon="34.6210054681"><ele>179.42</ele><time>2026-08-16T12:39:57Z</time></trkpt><trkpt lat="59.3246819917" lon="34.6208229940"><ele>179.90</ele><time>2026-08-16T12:40:18Z</time></trkpt><trkpt lat="59.3246153556" lon="34.6207183879"><ele>179.90</ele><time>2026-08-16T12:40:32Z</time></trkpt><trkpt lat="59.3246056326" lon="34.6205539349"><ele>179.90</ele><time>2026-08-16T12:40:48Z</time></trkpt><trkpt lat="59.3246068060" lon="34.6202749014"><ele>179.90</ele><time>2026-08-16T12:41:03Z</time></trkpt><trkpt lat="59.3245952390" lon="34.6200153138"><ele>180.38</ele><time>2026-08-16T12:41:19Z</time></trkpt><trkpt lat="59.3245841749" lon="34.6198401321"><ele>180.38</ele><time>2026-08-16T12:41:34Z</time></trkpt><trkpt lat="59.3246009387" lon="34.6197517868"><ele>180.87</ele><time>2026-08-16T12:42:05Z</time></trkpt><trkpt lat="59.3246433511" lon="34.6196387988"><ele>180.87</ele><time>2026-08-16T12:42:22Z</time></trkpt><trkpt lat="59.3246376514" lon="34.6195104718"><ele>181.35</ele><time>2026-08-16T12:42:43Z</time></trkpt><trkpt lat="59.3246270064" lon="34.6194720827"><ele>181.35</ele><time>2026-08-16T12:43:11Z</time></trkpt><trkpt lat="59.3246631324" lon="34.6194860805"><ele>181.83</ele><time>2026-08-16T12:43:37Z</time></trkpt><trkpt lat="59.3246427644" lon="34.6195750963"><ele>182.31</ele><time>2026-08-16T12:43:59Z</time></trkpt><trkpt lat="59.3245944846" lon="34.6194694843"><ele>182.31</ele><time>2026-08-16T12:44:18Z</time></trkpt><trkpt lat="59.3246129248" lon="34.6193126589"><ele>182.31</ele><time>2026-08-16T12:44:33Z</time></trkpt><trkpt lat="59.3246166129" lon="34.6190874372"><ele>182.31</ele><time>2026-08-16T12:44:49Z</time></trkpt><trkpt lat="59.3246492185" lon="34.6187984291"><ele>182.31</ele><time>2026-08-16T12:45:05Z</time></trkpt><trkpt lat="59.3247197103" lon="34.6187584475"><ele>182.31</ele><time>2026-08-16T12:45:25Z</time></trkpt><trkpt lat="59.3246789742" lon="34.6185368299"><ele>183.27</ele><time>2026-08-16T12:45:41Z</time></trkpt><trkpt lat="59.3246627133" lon="34.6183049865"><ele>183.27</ele><time>2026-08-16T12:45:58Z</time></trkpt><trkpt lat="59.3247227278" lon="34.6180982050"><ele>183.27</ele><time>2026-08-16T12:46:12Z</time></trkpt><trkpt lat="59.3247295171" lon="34.6178118791"><ele>183.75</ele><time>2026-08-16T12:46:27Z</time></trkpt><trkpt lat="59.3247043714" lon="34.6176349372"><ele>184.23</ele><time>2026-08-16T12:46:40Z</time></trkpt><trkpt lat="59.3247135915" lon="34.6175785270"><ele>183.75</ele><time>2026-08-16T12:47:00Z</time></trkpt><trkpt lat="59.3246805668" lon="34.6175092086"><ele>183.75</ele><time>2026-08-16T12:47:18Z</time></trkpt><trkpt lat="59.3246691674" lon="34.6174326818"><ele>184.71</ele><time>2026-08-16T12:47:33Z</time></trkpt><trkpt lat="59.3246611208" lon="34.6173572447"><ele>184.71</ele><time>2026-08-16T12:47:51Z</time></trkpt><trkpt lat="59.3245984241" lon="34.6172580868"><ele>185.19</ele><time>2026-08-16T12:48:09Z</time></trkpt><trkpt lat="59.3246447761" lon="34.6170900296"><ele>185.19</ele><time>2026-08-16T12:48:32Z</time></trkpt><trkpt lat="59.3247171119" lon="34.6169280075"><ele>185.19</ele><time>2026-08-16T12:48:41Z</time></trkpt><trkpt lat="59.3247254100" lon="34.6166673303"><ele>185.67</ele><time>2026-08-16T12:48:56Z</time></trkpt><trkpt lat="59.3247771263" lon="34.6164590400"><ele>185.19</ele><time>2026-08-16T12:49:11Z</time></trkpt><trkpt lat="59.3248081394" lon="34.6161494963"><ele>185.67</ele><time>2026-08-16T12:49:27Z</time></trkpt><trkpt lat="59.3248878513" lon="34.6157861408"><ele>185.67</ele><time>2026-08-16T12:49:47Z</time></trkpt><trkpt lat="59.3248435948" lon="34.6155658644"><ele>186.15</ele><time>2026-08-16T12:50:06Z</time></trkpt><trkpt lat="59.3247720134" lon="34.6154598333"><ele>186.15</ele><time>2026-08-16T12:50:24Z</time></trkpt><trkpt lat="59.3246824946" lon="34.6152342763"><ele>186.63</ele><time>2026-08-16T12:50:43Z</time></trkpt><trkpt lat="59.3245419301" lon="34.6150663029"><ele>187.11</ele><time>2026-08-16T12:51:03Z</time></trkpt><trkpt lat="59.3244055565" lon="34.6149004251"><ele>187.11</ele><time>2026-08-16T12:51:21Z</time></trkpt><trkpt lat="59.3242672551" lon="34.6147421747"><ele>187.11</ele><time>2026-08-16T12:51:39Z</time></trkpt><trkpt lat="59.3240912352" lon="34.6145306155"><ele>188.08</ele><time>2026-08-16T12:51:59Z</time></trkpt><trkpt lat="59.3240367528" lon="34.6146495547"><ele>188.56</ele><time>2026-08-16T12:52:31Z</time></trkpt><trkpt lat="59.3238779157" lon="34.6143792383"><ele>189.04</ele><time>2026-08-16T12:53:02Z</time></trkpt><trkpt lat="59.3238257803" lon="34.6143815853"><ele>189.04</ele><time>2026-08-16T12:53:37Z</time></trkpt><trkpt lat="59.3238152191" lon="34.6143705212"><ele>188.56</ele><time>2026-08-16T12:53:55Z</time></trkpt><trkpt lat="59.3238184880" lon="34.6143530030"><ele>188.56</ele><time>2026-08-16T12:54:19Z</time></trkpt><trkpt lat="59.3237339146" lon="34.6142361593"><ele>188.56</ele><time>2026-08-16T12:54:36Z</time></trkpt><trkpt lat="59.3236217648" lon="34.6141482331"><ele>188.56</ele><time>2026-08-16T12:54:52Z</time></trkpt><trkpt lat="59.3235552125" lon="34.6141139511"><ele>188.56</ele><time>2026-08-16T12:55:15Z</time></trkpt><trkpt lat="59.3234896660" lon="34.6139607299"><ele>188.56</ele><time>2026-08-16T12:55:31Z</time></trkpt><trkpt lat="59.3234847207" lon="34.6139339078"><ele>188.56</ele><time>2026-08-16T12:55:35Z</time></trkpt><trkpt lat="59.3234461639" lon="34.6139334887"><ele>188.56</ele><time>2026-08-16T12:55:51Z</time></trkpt><trkpt lat="59.3235435616" lon="34.6139461454"><ele>188.56</ele><time>2026-08-16T12:56:06Z</time></trkpt><trkpt lat="59.3236530293" lon="34.6138685290"><ele>188.56</ele><time>2026-08-16T12:56:21Z</time></trkpt><trkpt lat="59.3236854672" lon="34.6138171479"><ele>188.56</ele><time>2026-08-16T12:56:42Z</time></trkpt><trkpt lat="59.3236534484" lon="34.6137339994"><ele>188.56</ele><time>2026-08-16T12:57:12Z</time></trkpt><trkpt lat="59.3237081822" lon="34.6138465684"><ele>189.04</ele><time>2026-08-16T12:57:42Z</time></trkpt><trkpt lat="59.3237658497" lon="34.6136890724"><ele>189.04</ele><time>2026-08-16T12:58:12Z</time></trkpt><trkpt lat="59.3236652669" lon="34.6138237696"><ele>188.56</ele><time>2026-08-16T12:58:29Z</time></trkpt><trkpt lat="59.3235447351" lon="34.6138510946"><ele>189.04</ele><time>2026-08-16T12:58:48Z</time></trkpt><trkpt lat="59.3235007301" lon="34.6138284635"><ele>189.04</ele><time>2026-08-16T12:58:53Z</time></trkpt><trkpt lat="59.3234071042" lon="34.6136970352"><ele>189.04</ele><time>2026-08-16T12:59:08Z</time></trkpt><trkpt lat="59.3233597465" lon="34.6134975459"><ele>189.04</ele><time>2026-08-16T12:59:16Z</time></trkpt><trkpt lat="59.3233094551" lon="34.6132768504"><ele>188.56</ele><time>2026-08-16T12:59:33Z</time></trkpt><trkpt lat="59.3232533801" lon="34.6131538041"><ele>189.04</ele><time>2026-08-16T12:59:48Z</time></trkpt><trkpt lat="59.3231810443" lon="34.6128285024"><ele>189.04</ele><time>2026-08-16T13:00:09Z</time></trkpt><trkpt lat="59.3231710698" lon="34.6126010176"><ele>189.52</ele><time>2026-08-16T13:00:28Z</time></trkpt><trkpt lat="59.3231456727" lon="34.6123234089"><ele>189.52</ele><time>2026-08-16T13:00:45Z</time></trkpt><trkpt lat="59.3230945431" lon="34.6120128594"><ele>190.00</ele><time>2026-08-16T13:01:00Z</time></trkpt><trkpt lat="59.3231467623" lon="34.6118478198"><ele>190.00</ele><time>2026-08-16T13:01:17Z</time></trkpt><trkpt lat="59.3230928667" lon="34.6117204148"><ele>190.48</ele><time>2026-08-16T13:01:36Z</time></trkpt><trkpt lat="59.3230845686" lon="34.6116885636"><ele>190.96</ele><time>2026-08-16T13:02:01Z</time></trkpt><trkpt lat="59.3230169266" lon="34.6116099413"><ele>190.96</ele><time>2026-08-16T13:02:17Z</time></trkpt><trkpt lat="59.3230076227" lon="34.6113511920"><ele>190.96</ele><time>2026-08-16T13:02:33Z</time></trkpt><trkpt lat="59.3229407351" lon="34.6111266408"><ele>190.96</ele><time>2026-08-16T13:02:51Z</time></trkpt><trkpt lat="59.3229317665" lon="34.6110020857"><ele>191.44</ele><time>2026-08-16T13:03:23Z</time></trkpt><trkpt lat="59.3228645436" lon="34.6108365431"><ele>191.44</ele><time>2026-08-16T13:03:40Z</time></trkpt><trkpt lat="59.3228528928" lon="34.6106911171"><ele>191.92</ele><time>2026-08-16T13:03:55Z</time></trkpt><trkpt lat="59.3228238076" lon="34.6104182024"><ele>191.92</ele><time>2026-08-16T13:04:11Z</time></trkpt><trkpt lat="59.3227756955" lon="34.6101621352"><ele>192.40</ele><time>2026-08-16T13:04:29Z</time></trkpt><trkpt lat="59.3227443472" lon="34.6099219099"><ele>192.40</ele><time>2026-08-16T13:04:46Z</time></trkpt><trkpt lat="59.3225809839" lon="34.6098108497"><ele>192.88</ele><time>2026-08-16T13:05:13Z</time></trkpt><trkpt lat="59.3225313630" lon="34.6099101752"><ele>193.36</ele><time>2026-08-16T13:05:50Z</time></trkpt><trkpt lat="59.3224944826" lon="34.6098351572"><ele>193.36</ele><time>2026-08-16T13:06:15Z</time></trkpt><trkpt lat="59.3225215562" lon="34.6098164655"><ele>192.88</ele><time>2026-08-16T13:06:48Z</time></trkpt><trkpt lat="59.3224982545" lon="34.6097205766"><ele>192.88</ele><time>2026-08-16T13:07:03Z</time></trkpt><trkpt lat="59.3224149384" lon="34.6095324866"><ele>193.36</ele><time>2026-08-16T13:07:18Z</time></trkpt><trkpt lat="59.3223711010" lon="34.6093586460"><ele>193.36</ele><time>2026-08-16T13:07:29Z</time></trkpt><trkpt lat="59.3223409262" lon="34.6092794370"><ele>193.36</ele><time>2026-08-16T13:07:47Z</time></trkpt><trkpt lat="59.3222723622" lon="34.6089745034"><ele>193.36</ele><time>2026-08-16T13:08:07Z</time></trkpt><trkpt lat="59.3222538382" lon="34.6087445877"><ele>193.36</ele><time>2026-08-16T13:08:22Z</time></trkpt><trkpt lat="59.3222276866" lon="34.6087118983"><ele>189.52</ele><time>2026-08-16T13:08:27Z</time></trkpt><trkpt lat="59.3222161196" lon="34.6086893510"><ele>192.88</ele><time>2026-08-16T13:08:30Z</time></trkpt><trkpt lat="59.3222142756" lon="34.6085724235"><ele>193.36</ele><time>2026-08-16T13:08:45Z</time></trkpt><trkpt lat="59.3222381640" lon="34.6085891873"><ele>193.36</ele><time>2026-08-16T13:09:04Z</time></trkpt><trkpt lat="59.3222002778" lon="34.6085491218"><ele>193.84</ele><time>2026-08-16T13:09:26Z</time></trkpt><trkpt lat="59.3221660797" lon="34.6083487943"><ele>193.84</ele><time>2026-08-16T13:09:45Z</time></trkpt><trkpt lat="59.3221967574" lon="34.6080623008"><ele>193.36</ele><time>2026-08-16T13:09:58Z</time></trkpt><trkpt lat="59.3222537544" lon="34.6078840178"><ele>193.84</ele><time>2026-08-16T13:10:13Z</time></trkpt><trkpt lat="59.3222822528" lon="34.6076307166"><ele>193.36</ele><time>2026-08-16T13:10:28Z</time></trkpt><trkpt lat="59.3222677521" lon="34.6074137930"><ele>193.84</ele><time>2026-08-16T13:10:45Z</time></trkpt><trkpt lat="59.3222984299" lon="34.6071972884"><ele>193.84</ele><time>2026-08-16T13:11:02Z</time></trkpt><trkpt lat="59.3223638926" lon="34.6069488488"><ele>193.84</ele><time>2026-08-16T13:11:17Z</time></trkpt><trkpt lat="59.3223257549" lon="34.6068977192"><ele>194.32</ele><time>2026-08-16T13:11:45Z</time></trkpt><trkpt lat="59.3223601207" lon="34.6068097092"><ele>194.32</ele><time>2026-08-16T13:12:09Z</time></trkpt><trkpt lat="59.3223506492" lon="34.6067739185"><ele>194.80</ele><time>2026-08-16T13:12:24Z</time></trkpt><trkpt lat="59.3222974241" lon="34.6067193523"><ele>194.80</ele><time>2026-08-16T13:12:44Z</time></trkpt><trkpt lat="59.3221877050" lon="34.6066134050"><ele>194.80</ele><time>2026-08-16T13:13:12Z</time></trkpt><trkpt lat="59.3222757149" lon="34.6067233756"><ele>195.28</ele><time>2026-08-16T13:13:37Z</time></trkpt><trkpt lat="59.3222700153" lon="34.6067418158"><ele>195.28</ele><time>2026-08-16T13:13:52Z</time></trkpt><trkpt lat="59.3221680913" lon="34.6068408061"><ele>195.28</ele><time>2026-08-16T13:14:10Z</time></trkpt><trkpt lat="59.3220856134" lon="34.6068249643"><ele>195.28</ele><time>2026-08-16T13:14:26Z</time></trkpt><trkpt lat="59.3220620602" lon="34.6068612579"><ele>195.28</ele><time>2026-08-16T13:14:45Z</time></trkpt><trkpt lat="59.3220135290" lon="34.6068790276"><ele>195.28</ele><time>2026-08-16T13:15:03Z</time></trkpt><trkpt lat="59.3219589628" lon="34.6067934483"><ele>195.77</ele><time>2026-08-16T13:15:20Z</time></trkpt><trkpt lat="59.3219173886" lon="34.6068201028"><ele>195.77</ele><time>2026-08-16T13:15:32Z</time></trkpt><trkpt lat="59.3218198232" lon="34.6068363637"><ele>195.77</ele><time>2026-08-16T13:15:48Z</time></trkpt><trkpt lat="59.3217617366" lon="34.6067362837"><ele>195.77</ele><time>2026-08-16T13:16:05Z</time></trkpt><trkpt lat="59.3217138760" lon="34.6066745091"><ele>195.77</ele><time>2026-08-16T13:16:24Z</time></trkpt><trkpt lat="59.3216921668" lon="34.6066459268"><ele>196.25</ele><time>2026-08-16T13:16:37Z</time></trkpt><trkpt lat="59.3216967769" lon="34.6065978985"><ele>196.25</ele><time>2026-08-16T13:16:51Z</time></trkpt><trkpt lat="59.3216373492" lon="34.6065175999"><ele>196.25</ele><time>2026-08-16T13:17:09Z</time></trkpt><trkpt lat="59.3215923384" lon="34.6064178552"><ele>196.25</ele><time>2026-08-16T13:17:25Z</time></trkpt><trkpt lat="59.3215675279" lon="34.6063536499"><ele>196.25</ele><time>2026-08-16T13:17:39Z</time></trkpt><trkpt lat="59.3215472437" lon="34.6062119119"><ele>196.25</ele><time>2026-08-16T13:17:52Z</time></trkpt><trkpt lat="59.3215024006" lon="34.6061257459"><ele>195.77</ele><time>2026-08-16T13:18:07Z</time></trkpt><trkpt lat="59.3214660231" lon="34.6060406696"><ele>195.77</ele><time>2026-08-16T13:18:21Z</time></trkpt><trkpt lat="59.3214573059" lon="34.6060687490"><ele>196.25</ele><time>2026-08-16T13:18:41Z</time></trkpt><trkpt lat="59.3213863950" lon="34.6058759652"><ele>196.25</ele><time>2026-08-16T13:18:59Z</time></trkpt><trkpt lat="59.3213770073" lon="34.6057032980"><ele>196.25</ele><time>2026-08-16T13:19:18Z</time></trkpt><trkpt lat="59.3213480897" lon="34.6056188084"><ele>196.25</ele><time>2026-08-16T13:19:34Z</time></trkpt><trkpt lat="59.3213159032" lon="34.6055919863"><ele>196.25</ele><time>2026-08-16T13:19:50Z</time></trkpt><trkpt lat="59.3212689646" lon="34.6054687724"><ele>196.73</ele><time>2026-08-16T13:20:19Z</time></trkpt><trkpt lat="59.3212541286" lon="34.6056258492"><ele>196.73</ele><time>2026-08-16T13:20:45Z</time></trkpt><trkpt lat="59.3212172482" lon="34.6056991909"><ele>196.73</ele><time>2026-08-16T13:21:02Z</time></trkpt><trkpt lat="59.3212263845" lon="34.6056702733"><ele>197.21</ele><time>2026-08-16T13:21:05Z</time></trkpt><trkpt lat="59.3212781008" lon="34.6056261845"><ele>197.21</ele><time>2026-08-16T13:21:21Z</time></trkpt><trkpt lat="59.3212993070" lon="34.6055970993"><ele>197.21</ele><time>2026-08-16T13:21:41Z</time></trkpt><trkpt lat="59.3213112094" lon="34.6055136994"><ele>197.21</ele><time>2026-08-16T13:22:05Z</time></trkpt><trkpt lat="59.3212672044" lon="34.6053787507"><ele>197.21</ele><time>2026-08-16T13:22:22Z</time></trkpt><trkpt lat="59.3211904261" lon="34.6053329017"><ele>197.69</ele><time>2026-08-16T13:22:45Z</time></trkpt><trkpt lat="59.3211613409" lon="34.6052816883"><ele>197.21</ele><time>2026-08-16T13:22:59Z</time></trkpt><trkpt lat="59.3211740814" lon="34.6052230150"><ele>197.21</ele><time>2026-08-16T13:23:17Z</time></trkpt><trkpt lat="59.3211748358" lon="34.6051313169"><ele>197.21</ele><time>2026-08-16T13:23:34Z</time></trkpt><trkpt lat="59.3211274780" lon="34.6050101984"><ele>197.69</ele><time>2026-08-16T13:23:50Z</time></trkpt><trkpt lat="59.3210715707" lon="34.6048957855"><ele>197.69</ele><time>2026-08-16T13:24:10Z</time></trkpt><trkpt lat="59.3210020848" lon="34.6048029978"><ele>197.69</ele><time>2026-08-16T13:24:27Z</time></trkpt><trkpt lat="59.3208985683" lon="34.6047318354"><ele>197.69</ele><time>2026-08-16T13:24:42Z</time></trkpt><trkpt lat="59.3208434153" lon="34.6047485992"><ele>197.69</ele><time>2026-08-16T13:24:59Z</time></trkpt><trkpt lat="59.3207911961" lon="34.6047638543"><ele>198.17</ele><time>2026-08-16T13:25:17Z</time></trkpt><trkpt lat="59.3207262363" lon="34.6046933625"><ele>198.17</ele><time>2026-08-16T13:25:31Z</time></trkpt><trkpt lat="59.3206225522" lon="34.6046753414"><ele>198.17</ele><time>2026-08-16T13:25:47Z</time></trkpt><trkpt lat="59.3206089735" lon="34.6047491021"><ele>198.65</ele><time>2026-08-16T13:26:04Z</time></trkpt><trkpt lat="59.3205527309" lon="34.6047391277"><ele>198.65</ele><time>2026-08-16T13:26:16Z</time></trkpt><trkpt lat="59.3204127531" lon="34.6046615951"><ele>199.13</ele><time>2026-08-16T13:26:35Z</time></trkpt><trkpt lat="59.3203068897" lon="34.6046951227"><ele>199.61</ele><time>2026-08-16T13:26:52Z</time></trkpt><trkpt lat="59.3202390801" lon="34.6046894230"><ele>199.61</ele><time>2026-08-16T13:27:12Z</time></trkpt><trkpt lat="59.3201909680" lon="34.6046094596"><ele>199.61</ele><time>2026-08-16T13:27:34Z</time></trkpt><trkpt lat="59.3201465439" lon="34.6045816317"><ele>200.57</ele><time>2026-08-16T13:27:54Z</time></trkpt><trkpt lat="59.3200177979" lon="34.6044576634"><ele>200.57</ele><time>2026-08-16T13:28:12Z</time></trkpt><trkpt lat="59.3200037163" lon="34.6043534763"><ele>200.57</ele><time>2026-08-16T13:28:36Z</time></trkpt><trkpt lat="59.3200177141" lon="34.6044569090"><ele>201.05</ele><time>2026-08-16T13:29:06Z</time></trkpt><trkpt lat="59.3200585339" lon="34.6044088807"><ele>202.01</ele><time>2026-08-16T13:29:42Z</time></trkpt><trkpt lat="59.3199799955" lon="34.6042853314"><ele>202.01</ele><time>2026-08-16T13:30:09Z</time></trkpt><trkpt lat="59.3198708631" lon="34.6043962240"><ele>202.01</ele><time>2026-08-16T13:30:27Z</time></trkpt><trkpt lat="59.3197411951" lon="34.6044212021"><ele>202.49</ele><time>2026-08-16T13:30:44Z</time></trkpt><trkpt lat="59.3196407799" lon="34.6044596750"><ele>202.49</ele><time>2026-08-16T13:31:02Z</time></trkpt><trkpt lat="59.3195676897" lon="34.6043960564"><ele>202.98</ele><time>2026-08-16T13:31:22Z</time></trkpt><trkpt lat="59.3194718007" lon="34.6044025104"><ele>202.98</ele><time>2026-08-16T13:31:40Z</time></trkpt><trkpt lat="59.3193619978" lon="34.6044204477"><ele>202.49</ele><time>2026-08-16T13:31:55Z</time></trkpt><trkpt lat="59.3192639295" lon="34.6044579148"><ele>203.46</ele><time>2026-08-16T13:32:11Z</time></trkpt><trkpt lat="59.3191470858" lon="34.6044433303"><ele>202.98</ele><time>2026-08-16T13:32:27Z</time></trkpt><trkpt lat="59.3191128038" lon="34.6043984871"><ele>202.98</ele><time>2026-08-16T13:32:32Z</time></trkpt><trkpt lat="59.3190574832" lon="34.6045965515"><ele>202.98</ele><time>2026-08-16T13:32:48Z</time></trkpt><trkpt lat="59.3190192617" lon="34.6046198532"><ele>203.46</ele><time>2026-08-16T13:33:09Z</time></trkpt><trkpt lat="59.3189416453" lon="34.6046132315"><ele>203.94</ele><time>2026-08-16T13:33:28Z</time></trkpt><trkpt lat="59.3188835587" lon="34.6046206076"><ele>203.94</ele><time>2026-08-16T13:33:45Z</time></trkpt><trkpt lat="59.3187451735" lon="34.6046281513"><ele>204.42</ele><time>2026-08-16T13:34:01Z</time></trkpt><trkpt lat="59.3186861649" lon="34.6046412271"><ele>204.42</ele><time>2026-08-16T13:34:20Z</time></trkpt><trkpt lat="59.3186479434" lon="34.6046703961"><ele>204.42</ele><time>2026-08-16T13:34:44Z</time></trkpt><trkpt lat="59.3185250647" lon="34.6045996528"><ele>204.42</ele><time>2026-08-16T13:35:02Z</time></trkpt><trkpt lat="59.3184485380" lon="34.6046276484"><ele>204.42</ele><time>2026-08-16T13:35:21Z</time></trkpt><trkpt lat="59.3183537386" lon="34.6045792848"><ele>203.94</ele><time>2026-08-16T13:35:38Z</time></trkpt><trkpt lat="59.3182456121" lon="34.6045119781"><ele>204.42</ele><time>2026-08-16T13:35:56Z</time></trkpt><trkpt lat="59.3181798141" lon="34.6044012532"><ele>204.42</ele><time>2026-08-16T13:36:17Z</time></trkpt><trkpt lat="59.3181157764" lon="34.6043814719"><ele>204.90</ele><time>2026-08-16T13:36:42Z</time></trkpt><trkpt lat="59.3180630542" lon="34.6043217089"><ele>204.42</ele><time>2026-08-16T13:37:09Z</time></trkpt><trkpt lat="59.3180945702" lon="34.6043768618"><ele>204.42</ele><time>2026-08-16T13:37:39Z</time></trkpt><trkpt lat="59.3181146029" lon="34.6043932065"><ele>204.42</ele><time>2026-08-16T13:38:01Z</time></trkpt><trkpt lat="59.3180715200" lon="34.6044129878"><ele>204.42</ele><time>2026-08-16T13:38:20Z</time></trkpt><trkpt lat="59.3179923948" lon="34.6043383889"><ele>204.42</ele><time>2026-08-16T13:38:34Z</time></trkpt><trkpt lat="59.3179574423" lon="34.6042751893"><ele>203.94</ele><time>2026-08-16T13:38:54Z</time></trkpt><trkpt lat="59.3179149460" lon="34.6043203678"><ele>203.94</ele><time>2026-08-16T13:39:16Z</time></trkpt><trkpt lat="59.3178827595" lon="34.6042637061"><ele>203.94</ele><time>2026-08-16T13:39:51Z</time></trkpt><trkpt lat="59.3178759702" lon="34.6041278355"><ele>203.46</ele><time>2026-08-16T13:40:06Z</time></trkpt><trkpt lat="59.3178608827" lon="34.6040262468"><ele>203.46</ele><time>2026-08-16T13:40:20Z</time></trkpt><trkpt lat="59.3178564403" lon="34.6039564256"><ele>203.46</ele><time>2026-08-16T13:40:36Z</time></trkpt><trkpt lat="59.3178425264" lon="34.6037129313"><ele>203.46</ele><time>2026-08-16T13:40:52Z</time></trkpt><trkpt lat="59.3178380001" lon="34.6036742069"><ele>202.98</ele><time>2026-08-16T13:41:07Z</time></trkpt><trkpt lat="59.3178436998" lon="34.6036190540"><ele>202.98</ele><time>2026-08-16T13:41:13Z</time></trkpt><trkpt lat="59.3178771436" lon="34.6034805849"><ele>202.49</ele><time>2026-08-16T13:41:29Z</time></trkpt><trkpt lat="59.3178589549" lon="34.6033248492"><ele>202.49</ele><time>2026-08-16T13:41:49Z</time></trkpt><trkpt lat="59.3178579491" lon="34.6032514237"><ele>202.49</ele><time>2026-08-16T13:41:53Z</time></trkpt><trkpt lat="59.3178339768" lon="34.6030054148"><ele>202.01</ele><time>2026-08-16T13:42:09Z</time></trkpt><trkpt lat="59.3178155366" lon="34.6028478350"><ele>202.01</ele><time>2026-08-16T13:42:23Z</time></trkpt><trkpt lat="59.3178094178" lon="34.6027348470"><ele>201.53</ele><time>2026-08-16T13:42:38Z</time></trkpt><trkpt lat="59.3177929055" lon="34.6026308276"><ele>201.53</ele><time>2026-08-16T13:42:52Z</time></trkpt><trkpt lat="59.3177866191" lon="34.6024988126"><ele>201.05</ele><time>2026-08-16T13:43:06Z</time></trkpt><trkpt lat="59.3177836854" lon="34.6023800410"><ele>201.05</ele><time>2026-08-16T13:43:21Z</time></trkpt><trkpt lat="59.3177903909" lon="34.6022394765"><ele>201.05</ele><time>2026-08-16T13:43:35Z</time></trkpt><trkpt lat="59.3177447096" lon="34.6019825712"><ele>201.05</ele><time>2026-08-16T13:43:51Z</time></trkpt><trkpt lat="59.3177265208" lon="34.6016602870"><ele>200.57</ele><time>2026-08-16T13:44:08Z</time></trkpt><trkpt lat="59.3177400995" lon="34.6014999412"><ele>200.57</ele><time>2026-08-16T13:44:25Z</time></trkpt><trkpt lat="59.3177366629" lon="34.6014210675"><ele>200.57</ele><time>2026-08-16T13:44:43Z</time></trkpt><trkpt lat="59.3177143671" lon="34.6013697702"><ele>200.57</ele><time>2026-08-16T13:45:01Z</time></trkpt><trkpt lat="59.3177222461" lon="34.6013614722"><ele>200.57</ele><time>2026-08-16T13:45:24Z</time></trkpt><trkpt lat="59.3176458869" lon="34.6014872007"><ele>200.09</ele><time>2026-08-16T13:45:59Z</time></trkpt><trkpt lat="59.3175417837" lon="34.6014243364"><ele>200.09</ele><time>2026-08-16T13:46:29Z</time></trkpt><trkpt lat="59.3177011237" lon="34.6014415193"><ele>199.13</ele><time>2026-08-16T13:47:08Z</time></trkpt><trkpt lat="59.3177102599" lon="34.6012889687"><ele>198.65</ele><time>2026-08-16T13:47:33Z</time></trkpt><trkpt lat="59.3177796621" lon="34.6012665890"><ele>199.13</ele><time>2026-08-16T13:48:04Z</time></trkpt><trkpt lat="59.3177614734" lon="34.6013282798"><ele>198.17</ele><time>2026-08-16T13:48:43Z</time></trkpt><trkpt lat="59.3177384231" lon="34.6012525912"><ele>197.21</ele><time>2026-08-16T13:49:06Z</time></trkpt><trkpt lat="59.3176680151" lon="34.6012379229"><ele>193.36</ele><time>2026-08-16T13:49:38Z</time></trkpt><trkpt lat="59.3176632375" lon="34.6012389287"><ele>193.36</ele><time>2026-08-16T13:49:39Z</time></trkpt><trkpt lat="59.3176683504" lon="34.6012961771"><ele>193.84</ele><time>2026-08-16T13:50:04Z</time></trkpt><trkpt lat="59.3176844437" lon="34.6012998652"><ele>190.96</ele><time>2026-08-16T13:50:16Z</time></trkpt><trkpt lat="59.3176855333" lon="34.6012850292"><ele>194.32</ele><time>2026-08-16T13:50:25Z</time></trkpt><trkpt lat="59.3176932447" lon="34.6012816764"><ele>193.84</ele><time>2026-08-16T13:50:26Z</time></trkpt><trkpt lat="59.3177269399" lon="34.6012348216"><ele>192.40</ele><time>2026-08-16T13:50:51Z</time></trkpt><trkpt lat="59.3177223299" lon="34.6012295410"><ele>187.59</ele><time>2026-08-16T13:50:55Z</time></trkpt><trkpt lat="59.3177224137" lon="34.6012289543"><ele>187.59</ele><time>2026-08-16T13:50:56Z</time></trkpt><trkpt lat="59.3176903948" lon="34.6013035532"><ele>189.52</ele><time>2026-08-16T13:51:11Z</time></trkpt><trkpt lat="59.3176831864" lon="34.6013199817"><ele>186.15</ele><time>2026-08-16T13:51:14Z</time></trkpt><trkpt lat="59.3176820967" lon="34.6013224963"><ele>186.15</ele><time>2026-08-16T13:51:15Z</time></trkpt><trkpt lat="59.3176841084" lon="34.6013174672"><ele>185.67</ele><time>2026-08-16T13:51:35Z</time></trkpt><trkpt lat="59.3176848628" lon="34.6013147850"><ele>181.83</ele><time>2026-08-16T13:51:36Z</time></trkpt><trkpt lat="59.3176846951" lon="34.6013119351"><ele>187.59</ele><time>2026-08-16T13:51:37Z</time></trkpt><trkpt lat="59.3176847789" lon="34.6013092529"><ele>187.59</ele><time>2026-08-16T13:51:38Z</time></trkpt><trkpt lat="59.3176322244" lon="34.6012774017"><ele>189.04</ele><time>2026-08-16T13:52:21Z</time></trkpt><trkpt lat="59.3175526801" lon="34.6012881305"><ele>190.48</ele><time>2026-08-16T13:52:53Z</time></trkpt><trkpt lat="59.3175375927" lon="34.6012388449"><ele>192.40</ele><time>2026-08-16T13:53:30Z</time></trkpt><trkpt lat="59.3175127823" lon="34.6011724602"><ele>193.84</ele><time>2026-08-16T13:54:00Z</time></trkpt><trkpt lat="59.3176738825" lon="34.6012945008"><ele>196.25</ele><time>2026-08-16T13:54:40Z</time></trkpt><trkpt lat="59.3177496549" lon="34.6013051458"><ele>198.17</ele><time>2026-08-16T13:55:24Z</time></trkpt><trkpt lat="59.3176183943" lon="34.6011287067"><ele>200.09</ele><time>2026-08-16T13:56:02Z</time></trkpt><trkpt lat="59.3175821006" lon="34.6011124458"><ele>201.53</ele><time>2026-08-16T13:56:34Z</time></trkpt><trkpt lat="59.3176223338" lon="34.6012209915"><ele>202.49</ele><time>2026-08-16T13:57:13Z</time></trkpt><trkpt lat="59.3176560290" lon="34.6012632363"><ele>204.42</ele><time>2026-08-16T13:57:54Z</time></trkpt><trkpt lat="59.3176191486" lon="34.6012679301"><ele>205.86</ele><time>2026-08-16T13:58:27Z</time></trkpt><trkpt lat="59.3176774867" lon="34.6012039762"><ele>207.30</ele><time>2026-08-16T13:59:01Z</time></trkpt><trkpt lat="59.3176788278" lon="34.6012181416"><ele>208.26</ele><time>2026-08-16T13:59:32Z</time></trkpt><trkpt lat="59.3175631575" lon="34.6014297009"><ele>207.30</ele><time>2026-08-16T14:00:08Z</time></trkpt><trkpt lat="59.3177120201" lon="34.6013623103"><ele>209.22</ele><time>2026-08-16T14:00:45Z</time></trkpt><trkpt lat="59.3177064881" lon="34.6013291180"><ele>209.70</ele><time>2026-08-16T14:01:16Z</time></trkpt><trkpt lat="59.3177514989" lon="34.6012687683"><ele>210.19</ele><time>2026-08-16T14:01:56Z</time></trkpt><trkpt lat="59.3177001178" lon="34.6012904774"><ele>209.70</ele><time>2026-08-16T14:02:21Z</time></trkpt><trkpt lat="59.3176671769" lon="34.6013707761"><ele>210.19</ele><time>2026-08-16T14:02:49Z</time></trkpt><trkpt lat="59.3177102599" lon="34.6012842748"><ele>210.67</ele><time>2026-08-16T14:03:08Z</time></trkpt><trkpt lat="59.3177466374" lon="34.6012731269"><ele>210.67</ele><time>2026-08-16T14:03:36Z</time></trkpt><trkpt lat="59.3177276105" lon="34.6012433711"><ele>210.67</ele><time>2026-08-16T14:04:01Z</time></trkpt><trkpt lat="59.3176507484" lon="34.6012670919"><ele>210.67</ele><time>2026-08-16T14:04:21Z</time></trkpt><trkpt lat="59.3175805919" lon="34.6013297886"><ele>211.15</ele><time>2026-08-16T14:04:40Z</time></trkpt><trkpt lat="59.3175038975" lon="34.6013968438"><ele>211.15</ele><time>2026-08-16T14:05:09Z</time></trkpt><trkpt lat="59.3175582122" lon="34.6013913956"><ele>211.63</ele><time>2026-08-16T14:05:36Z</time></trkpt><trkpt lat="59.3175161351" lon="34.6014428604"><ele>212.11</ele><time>2026-08-16T14:05:41Z</time></trkpt><trkpt lat="59.3174754828" lon="34.6013109293"><ele>203.46</ele><time>2026-08-16T14:06:01Z</time></trkpt><trkpt lat="59.3174748123" lon="34.6013018768"><ele>203.46</ele><time>2026-08-16T14:06:02Z</time></trkpt><trkpt lat="59.3174831942" lon="34.6012656670"><ele>214.51</ele><time>2026-08-16T14:06:06Z</time></trkpt><trkpt lat="59.3174846191" lon="34.6012585424"><ele>214.03</ele><time>2026-08-16T14:06:07Z</time></trkpt><trkpt lat="59.3174722977" lon="34.6009178180"><ele>214.03</ele><time>2026-08-16T14:06:40Z</time></trkpt><trkpt lat="59.3174489960" lon="34.6009805147"><ele>214.03</ele><time>2026-08-16T14:07:13Z</time></trkpt><trkpt lat="59.3174067512" lon="34.6011685207"><ele>214.03</ele><time>2026-08-16T14:07:48Z</time></trkpt><trkpt lat="59.3173926696" lon="34.6011470631"><ele>208.74</ele><time>2026-08-16T14:08:03Z</time></trkpt><trkpt lat="59.3173839524" lon="34.6011497453"><ele>212.11</ele><time>2026-08-16T14:08:05Z</time></trkpt><trkpt lat="59.3173762411" lon="34.6011502482"><ele>208.26</ele><time>2026-08-16T14:08:07Z</time></trkpt><trkpt lat="59.3173722178" lon="34.6011497453"><ele>209.70</ele><time>2026-08-16T14:08:08Z</time></trkpt><trkpt lat="59.3173689488" lon="34.6011502482"><ele>206.82</ele><time>2026-08-16T14:08:10Z</time></trkpt><trkpt lat="59.3173676915" lon="34.6011536010"><ele>211.15</ele><time>2026-08-16T14:08:11Z</time></trkpt><trkpt lat="59.3173175678" lon="34.6011995338"><ele>211.63</ele><time>2026-08-16T14:08:45Z</time></trkpt><trkpt lat="59.3172256183" lon="34.6012149565"><ele>212.11</ele><time>2026-08-16T14:09:19Z</time></trkpt><trkpt lat="59.3173826113" lon="34.6011981927"><ele>212.59</ele><time>2026-08-16T14:09:52Z</time></trkpt><trkpt lat="59.3174459785" lon="34.6012597997"><ele>212.59</ele><time>2026-08-16T14:10:18Z</time></trkpt><trkpt lat="59.3174378481" lon="34.6012570336"><ele>213.07</ele><time>2026-08-16T14:10:47Z</time></trkpt><trkpt lat="59.3174836971" lon="34.6012479812"><ele>209.70</ele><time>2026-08-16T14:11:30Z</time></trkpt><trkpt lat="59.3174826913" lon="34.6012519207"><ele>209.70</ele><time>2026-08-16T14:11:31Z</time></trkpt><trkpt lat="59.3174849544" lon="34.6012572851"><ele>206.34</ele><time>2026-08-16T14:11:42Z</time></trkpt><trkpt lat="59.3174896482" lon="34.6012548544"><ele>207.30</ele><time>2026-08-16T14:11:46Z</time></trkpt><trkpt lat="59.3174958508" lon="34.6012416109"><ele>204.42</ele><time>2026-08-16T14:11:53Z</time></trkpt><trkpt lat="59.3174986169" lon="34.6012394316"><ele>207.30</ele><time>2026-08-16T14:11:56Z</time></trkpt><trkpt lat="59.3175076693" lon="34.6012418624"><ele>205.86</ele><time>2026-08-16T14:12:04Z</time></trkpt><trkpt lat="59.3175086752" lon="34.6012308821"><ele>204.42</ele><time>2026-08-16T14:12:06Z</time></trkpt><trkpt lat="59.3175362516" lon="34.6012005396"><ele>207.78</ele><time>2026-08-16T14:12:13Z</time></trkpt><trkpt lat="59.3175864592" lon="34.6011596359"><ele>206.34</ele><time>2026-08-16T14:12:19Z</time></trkpt><trkpt lat="59.3175960984" lon="34.6011483204"><ele>207.78</ele><time>2026-08-16T14:12:21Z</time></trkpt><trkpt lat="59.3176026363" lon="34.6011389326"><ele>205.86</ele><time>2026-08-16T14:12:23Z</time></trkpt><trkpt lat="59.3176093418" lon="34.6010939218"><ele>207.78</ele><time>2026-08-16T14:12:26Z</time></trkpt><trkpt lat="59.3176522572" lon="34.6010156348"><ele>206.82</ele><time>2026-08-16T14:12:39Z</time></trkpt><trkpt lat="59.3176566996" lon="34.6009942610"><ele>208.74</ele><time>2026-08-16T14:12:41Z</time></trkpt><trkpt lat="59.3176908139" lon="34.6008988749"><ele>207.30</ele><time>2026-08-16T14:12:54Z</time></trkpt><trkpt lat="59.3176888023" lon="34.6008593123"><ele>209.22</ele><time>2026-08-16T14:12:58Z</time></trkpt><trkpt lat="59.3177677598" lon="34.6006274689"><ele>209.22</ele><time>2026-08-16T14:13:15Z</time></trkpt><trkpt lat="59.3178392574" lon="34.6003420651"><ele>209.70</ele><time>2026-08-16T14:13:32Z</time></trkpt><trkpt lat="59.3179063126" lon="34.6001817193"><ele>209.70</ele><time>2026-08-16T14:13:58Z</time></trkpt><trkpt lat="59.3179111741" lon="34.6001592558"><ele>207.30</ele><time>2026-08-16T14:14:00Z</time></trkpt><trkpt lat="59.3179388344" lon="34.6000502072"><ele>210.19</ele><time>2026-08-16T14:14:10Z</time></trkpt><trkpt lat="59.3179817498" lon="34.5999747701"><ele>206.82</ele><time>2026-08-16T14:14:16Z</time></trkpt><trkpt lat="59.3179882038" lon="34.5999597665"><ele>209.70</ele><time>2026-08-16T14:14:19Z</time></trkpt><trkpt lat="59.3180146068" lon="34.5998984110"><ele>210.67</ele><time>2026-08-16T14:14:38Z</time></trkpt><trkpt lat="59.3180545047" lon="34.5997978281"><ele>212.11</ele><time>2026-08-16T14:15:05Z</time></trkpt><trkpt lat="59.3180601206" lon="34.5997507218"><ele>209.22</ele><time>2026-08-16T14:15:20Z</time></trkpt><trkpt lat="59.3180553429" lon="34.5997661445"><ele>212.11</ele><time>2026-08-16T14:15:23Z</time></trkpt><trkpt lat="59.3180835061" lon="34.5998400729"><ele>212.11</ele><time>2026-08-16T14:15:48Z</time></trkpt><trkpt lat="59.3179944064" lon="34.5999196172"><ele>212.59</ele><time>2026-08-16T14:16:05Z</time></trkpt><trkpt lat="59.3179168738" lon="34.6002199408"><ele>212.59</ele><time>2026-08-16T14:16:25Z</time></trkpt><trkpt lat="59.3178169616" lon="34.6005398780"><ele>214.51</ele><time>2026-08-16T14:16:44Z</time></trkpt><trkpt lat="59.3177779019" lon="34.6006080229"><ele>211.63</ele><time>2026-08-16T14:16:58Z</time></trkpt><trkpt lat="59.3177764770" lon="34.6006106213"><ele>211.63</ele><time>2026-08-16T14:16:59Z</time></trkpt><trkpt lat="59.3176960945" lon="34.6007052530"><ele>214.03</ele><time>2026-08-16T14:17:16Z</time></trkpt><trkpt lat="59.3176287878" lon="34.6007946040"><ele>213.07</ele><time>2026-08-16T14:17:27Z</time></trkpt><trkpt lat="59.3175906502" lon="34.6008344181"><ele>214.51</ele><time>2026-08-16T14:17:32Z</time></trkpt><trkpt lat="59.3174937554" lon="34.6009587217"><ele>214.51</ele><time>2026-08-16T14:17:48Z</time></trkpt><trkpt lat="59.3174266163" lon="34.6012138668"><ele>214.03</ele><time>2026-08-16T14:18:06Z</time></trkpt><trkpt lat="59.3172941823" lon="34.6013698541"><ele>215.47</ele><time>2026-08-16T14:18:23Z</time></trkpt><trkpt lat="59.3172192480" lon="34.6014792379"><ele>214.99</ele><time>2026-08-16T14:18:42Z</time></trkpt><trkpt lat="59.3171769194" lon="34.6016079001"><ele>215.47</ele><time>2026-08-16T14:18:57Z</time></trkpt><trkpt lat="59.3169488478" lon="34.6016780566"><ele>215.95</ele><time>2026-08-16T14:19:15Z</time></trkpt><trkpt lat="59.3167968001" lon="34.6017098241"><ele>216.43</ele><time>2026-08-16T14:19:31Z</time></trkpt><trkpt lat="59.3167030066" lon="34.6016824991"><ele>215.95</ele><time>2026-08-16T14:19:43Z</time></trkpt><trkpt lat="59.3166274857" lon="34.6016823314"><ele>217.40</ele><time>2026-08-16T14:19:55Z</time></trkpt><trkpt lat="59.3165475223" lon="34.6016734466"><ele>216.91</ele><time>2026-08-16T14:20:09Z</time></trkpt><trkpt lat="59.3164803833" lon="34.6017541643"><ele>217.40</ele><time>2026-08-16T14:20:23Z</time></trkpt><trkpt lat="59.3164324388" lon="34.6018140111"><ele>216.43</ele><time>2026-08-16T14:20:32Z</time></trkpt><trkpt lat="59.3164110649" lon="34.6018164419"><ele>217.40</ele><time>2026-08-16T14:20:34Z</time></trkpt><trkpt lat="59.3164092209" lon="34.6018173639"><ele>216.43</ele><time>2026-08-16T14:20:38Z</time></trkpt><trkpt lat="59.3163816445" lon="34.6019256581"><ele>215.95</ele><time>2026-08-16T14:20:51Z</time></trkpt><trkpt lat="59.3163114041" lon="34.6019673161"><ele>217.40</ele><time>2026-08-16T14:21:03Z</time></trkpt><trkpt lat="59.3162169401" lon="34.6019332018"><ele>217.40</ele><time>2026-08-16T14:21:16Z</time></trkpt><trkpt lat="59.3161983322" lon="34.6019388177"><ele>216.91</ele><time>2026-08-16T14:21:18Z</time></trkpt><trkpt lat="59.3161332887" lon="34.6019547433"><ele>217.40</ele><time>2026-08-16T14:21:31Z</time></trkpt><trkpt lat="59.3160878588" lon="34.6019728482"><ele>217.88</ele><time>2026-08-16T14:21:47Z</time></trkpt><trkpt lat="59.3161052931" lon="34.6020024363"><ele>217.88</ele><time>2026-08-16T14:22:13Z</time></trkpt><trkpt lat="59.3160641380" lon="34.6020158473"><ele>218.36</ele><time>2026-08-16T14:22:25Z</time></trkpt><trkpt lat="59.3160580192" lon="34.6020147577"><ele>216.43</ele><time>2026-08-16T14:22:28Z</time></trkpt><trkpt lat="59.3160223961" lon="34.6019574255"><ele>217.88</ele><time>2026-08-16T14:22:57Z</time></trkpt><trkpt lat="59.3160309456" lon="34.6019005124"><ele>216.91</ele><time>2026-08-16T14:23:20Z</time></trkpt><trkpt lat="59.3160434347" lon="34.6019622032"><ele>217.88</ele><time>2026-08-16T14:23:44Z</time></trkpt><trkpt lat="59.3160459492" lon="34.6019387338"><ele>216.43</ele><time>2026-08-16T14:24:25Z</time></trkpt><trkpt lat="59.3160441890" lon="34.6019499656"><ele>216.43</ele><time>2026-08-16T14:24:49Z</time></trkpt><trkpt lat="59.3160331249" lon="34.6018687449"><ele>217.88</ele><time>2026-08-16T14:24:56Z</time></trkpt><trkpt lat="59.3159829173" lon="34.6017934754"><ele>216.43</ele><time>2026-08-16T14:25:08Z</time></trkpt><trkpt lat="59.3159542512" lon="34.6016824152"><ele>217.88</ele><time>2026-08-16T14:25:21Z</time></trkpt><trkpt lat="59.3158987630" lon="34.6015774738"><ele>216.91</ele><time>2026-08-16T14:25:33Z</time></trkpt><trkpt lat="59.3158373237" lon="34.6015063114"><ele>216.91</ele><time>2026-08-16T14:25:46Z</time></trkpt><trkpt lat="59.3158024549" lon="34.6014660783"><ele>213.55</ele><time>2026-08-16T14:25:57Z</time></trkpt><trkpt lat="59.3157944083" lon="34.6014394239"><ele>215.47</ele><time>2026-08-16T14:26:00Z</time></trkpt><trkpt lat="59.3157449551" lon="34.6013510786"><ele>217.88</ele><time>2026-08-16T14:26:17Z</time></trkpt><trkpt lat="59.3156929873" lon="34.6012768988"><ele>217.40</ele><time>2026-08-16T14:26:32Z</time></trkpt><trkpt lat="59.3156322185" lon="34.6011095960"><ele>217.88</ele><time>2026-08-16T14:26:46Z</time></trkpt><trkpt lat="59.3156133592" lon="34.6009636670"><ele>217.88</ele><time>2026-08-16T14:26:59Z</time></trkpt><trkpt lat="59.3155557755" lon="34.6007001400"><ele>217.88</ele><time>2026-08-16T14:27:16Z</time></trkpt><trkpt lat="59.3155653309" lon="34.6005326696"><ele>218.36</ele><time>2026-08-16T14:27:32Z</time></trkpt><trkpt lat="59.3155484833" lon="34.6003207751"><ele>217.88</ele><time>2026-08-16T14:27:49Z</time></trkpt><trkpt lat="59.3154128641" lon="34.6002227068"><ele>217.88</ele><time>2026-08-16T14:28:09Z</time></trkpt><trkpt lat="59.3153602257" lon="34.6001942921"><ele>218.36</ele><time>2026-08-16T14:28:42Z</time></trkpt><trkpt lat="59.3152819388" lon="34.6000910271"><ele>218.36</ele><time>2026-08-16T14:29:01Z</time></trkpt><trkpt lat="59.3151664361" lon="34.6000631154"><ele>217.88</ele><time>2026-08-16T14:29:18Z</time></trkpt><trkpt lat="59.3150791805" lon="34.6000377182"><ele>218.36</ele><time>2026-08-16T14:29:38Z</time></trkpt><trkpt lat="59.3150704633" lon="34.5998738520"><ele>216.91</ele><time>2026-08-16T14:30:01Z</time></trkpt><trkpt lat="59.3150331639" lon="34.5999067929"><ele>217.88</ele><time>2026-08-16T14:30:26Z</time></trkpt><trkpt lat="59.3150288053" lon="34.5999823138"><ele>218.84</ele><time>2026-08-16T14:30:58Z</time></trkpt><trkpt lat="59.3149854708" lon="34.5999190304"><ele>218.36</ele><time>2026-08-16T14:31:17Z</time></trkpt><trkpt lat="59.3149435613" lon="34.5999447629"><ele>215.95</ele><time>2026-08-16T14:31:26Z</time></trkpt><trkpt lat="59.3149329163" lon="34.5999421645"><ele>213.55</ele><time>2026-08-16T14:31:29Z</time></trkpt><trkpt lat="59.3149262108" lon="34.5999433380"><ele>216.91</ele><time>2026-08-16T14:31:35Z</time></trkpt><trkpt lat="59.3149257917" lon="34.5999435894"><ele>216.91</ele><time>2026-08-16T14:31:36Z</time></trkpt><trkpt lat="59.3149110395" lon="34.5999707468"><ele>214.03</ele><time>2026-08-16T14:31:43Z</time></trkpt><trkpt lat="59.3148795236" lon="34.6000116505"><ele>217.88</ele><time>2026-08-16T14:31:58Z</time></trkpt><trkpt lat="59.3148262147" lon="34.6000053640"><ele>218.36</ele><time>2026-08-16T14:32:16Z</time></trkpt><trkpt lat="59.3147200160" lon="34.6000349522"><ele>218.36</ele><time>2026-08-16T14:32:37Z</time></trkpt><trkpt lat="59.3145931978" lon="34.5998749416"><ele>218.36</ele><time>2026-08-16T14:32:55Z</time></trkpt><trkpt lat="59.3145284057" lon="34.5996399969"><ele>218.84</ele><time>2026-08-16T14:33:14Z</time></trkpt><trkpt lat="59.3145047687" lon="34.5994472131"><ele>218.36</ele><time>2026-08-16T14:33:31Z</time></trkpt><trkpt lat="59.3143854104" lon="34.5992545970"><ele>218.36</ele><time>2026-08-16T14:33:45Z</time></trkpt><trkpt lat="59.3142182752" lon="34.5990392659"><ele>219.32</ele><time>2026-08-16T14:34:02Z</time></trkpt><trkpt lat="59.3141624518" lon="34.5989463944"><ele>218.84</ele><time>2026-08-16T14:34:14Z</time></trkpt><trkpt lat="59.3141319416" lon="34.5988623239"><ele>218.36</ele><time>2026-08-16T14:34:23Z</time></trkpt><trkpt lat="59.3141207099" lon="34.5987477433"><ele>218.36</ele><time>2026-08-16T14:34:37Z</time></trkpt><trkpt lat="59.3141371384" lon="34.5986252837"><ele>219.80</ele><time>2026-08-16T14:34:53Z</time></trkpt><trkpt lat="59.3141021021" lon="34.5984070189"><ele>219.32</ele><time>2026-08-16T14:35:08Z</time></trkpt><trkpt lat="59.3140642159" lon="34.5983489323"><ele>219.80</ele><time>2026-08-16T14:35:24Z</time></trkpt><trkpt lat="59.3140283413" lon="34.5983585715"><ele>217.88</ele><time>2026-08-16T14:35:31Z</time></trkpt><trkpt lat="59.3139854260" lon="34.5983340964"><ele>215.95</ele><time>2026-08-16T14:35:57Z</time></trkpt><trkpt lat="59.3139733560" lon="34.5983077772"><ele>218.84</ele><time>2026-08-16T14:36:01Z</time></trkpt><trkpt lat="59.3139328714" lon="34.5982656162"><ele>218.84</ele><time>2026-08-16T14:36:27Z</time></trkpt><trkpt lat="59.3138483819" lon="34.5983173326"><ele>220.28</ele><time>2026-08-16T14:36:57Z</time></trkpt><trkpt lat="59.3138926383" lon="34.5982681308"><ele>220.28</ele><time>2026-08-16T14:37:28Z</time></trkpt><trkpt lat="59.3139523175" lon="34.5983137283"><ele>220.76</ele><time>2026-08-16T14:37:49Z</time></trkpt><trkpt lat="59.3139615376" lon="34.5983077772"><ele>219.32</ele><time>2026-08-16T14:37:57Z</time></trkpt><trkpt lat="59.3139172811" lon="34.5982550550"><ele>220.28</ele><time>2026-08-16T14:38:27Z</time></trkpt><trkpt lat="59.3139037862" lon="34.5981539693"><ele>221.24</ele><time>2026-08-16T14:39:04Z</time></trkpt><trkpt lat="59.3139695842" lon="34.5981830545"><ele>221.24</ele><time>2026-08-16T14:39:23Z</time></trkpt><trkpt lat="59.3139623757" lon="34.5981475152"><ele>221.24</ele><time>2026-08-16T14:40:01Z</time></trkpt><trkpt lat="59.3140101526" lon="34.5982251316"><ele>221.72</ele><time>2026-08-16T14:40:25Z</time></trkpt><trkpt lat="59.3140368909" lon="34.5983616728"><ele>218.84</ele><time>2026-08-16T14:40:38Z</time></trkpt><trkpt lat="59.3140394054" lon="34.5984118804"><ele>221.24</ele><time>2026-08-16T14:40:44Z</time></trkpt><trkpt lat="59.3140464462" lon="34.5985043328"><ele>217.40</ele><time>2026-08-16T14:40:55Z</time></trkpt><trkpt lat="59.3140468653" lon="34.5985002257"><ele>217.88</ele><time>2026-08-16T14:40:56Z</time></trkpt><trkpt lat="59.3140488770" lon="34.5985078532"><ele>217.88</ele><time>2026-08-16T14:40:57Z</time></trkpt><trkpt lat="59.3141023535" lon="34.5986505970"><ele>221.24</ele><time>2026-08-16T14:41:12Z</time></trkpt><trkpt lat="59.3141087238" lon="34.5986589789"><ele>221.24</ele><time>2026-08-16T14:41:13Z</time></trkpt><trkpt lat="59.3141507171" lon="34.5987558737"><ele>221.24</ele><time>2026-08-16T14:41:31Z</time></trkpt><trkpt lat="59.3141704146" lon="34.5988202468"><ele>220.76</ele><time>2026-08-16T14:41:48Z</time></trkpt><trkpt lat="59.3141630385" lon="34.5989206620"><ele>220.76</ele><time>2026-08-16T14:41:57Z</time></trkpt><trkpt lat="59.3142041937" lon="34.5991785731"><ele>220.76</ele><time>2026-08-16T14:42:15Z</time></trkpt><trkpt lat="59.3142475281" lon="34.5994110871"><ele>220.76</ele><time>2026-08-16T14:42:32Z</time></trkpt><trkpt lat="59.3142183591" lon="34.5995435212"><ele>220.76</ele><time>2026-08-16T14:42:50Z</time></trkpt><trkpt lat="59.3141893577" lon="34.5997296833"><ele>220.76</ele><time>2026-08-16T14:43:06Z</time></trkpt><trkpt lat="59.3141740188" lon="34.6000295877"><ele>220.76</ele><time>2026-08-16T14:43:24Z</time></trkpt><trkpt lat="59.3141829036" lon="34.6003482677"><ele>221.24</ele><time>2026-08-16T14:43:43Z</time></trkpt><trkpt lat="59.3142017629" lon="34.6004313324"><ele>219.80</ele><time>2026-08-16T14:43:47Z</time></trkpt><trkpt lat="59.3142088875" lon="34.6004628483"><ele>221.24</ele><time>2026-08-16T14:43:49Z</time></trkpt><trkpt lat="59.3142738473" lon="34.6007195860"><ele>221.72</ele><time>2026-08-16T14:44:06Z</time></trkpt><trkpt lat="59.3143841531" lon="34.6009239368"><ele>221.72</ele><time>2026-08-16T14:44:21Z</time></trkpt><trkpt lat="59.3144507892" lon="34.6010437980"><ele>221.72</ele><time>2026-08-16T14:44:30Z</time></trkpt><trkpt lat="59.3145092111" lon="34.6011444647"><ele>221.24</ele><time>2026-08-16T14:44:49Z</time></trkpt><trkpt lat="59.3145021703" lon="34.6011358313"><ele>221.72</ele><time>2026-08-16T14:45:16Z</time></trkpt><trkpt lat="59.3145042658" lon="34.6012439579"><ele>222.20</ele><time>2026-08-16T14:45:48Z</time></trkpt><trkpt lat="59.3145550601" lon="34.6012215782"><ele>221.24</ele><time>2026-08-16T14:46:12Z</time></trkpt><trkpt lat="59.3145939521" lon="34.6014012862"><ele>221.72</ele><time>2026-08-16T14:46:28Z</time></trkpt><trkpt lat="59.3146435730" lon="34.6015802398"><ele>222.20</ele><time>2026-08-16T14:46:43Z</time></trkpt><trkpt lat="59.3147172499" lon="34.6019125823"><ele>221.72</ele><time>2026-08-16T14:47:00Z</time></trkpt><trkpt lat="59.3147776835" lon="34.6021235548"><ele>221.72</ele><time>2026-08-16T14:47:18Z</time></trkpt><trkpt lat="59.3147598300" lon="34.6022528876"><ele>221.72</ele><time>2026-08-16T14:47:32Z</time></trkpt><trkpt lat="59.3147106282" lon="34.6024064440"><ele>221.72</ele><time>2026-08-16T14:47:48Z</time></trkpt><trkpt lat="59.3146501109" lon="34.6026422270"><ele>222.20</ele><time>2026-08-16T14:48:03Z</time></trkpt><trkpt lat="59.3146288209" lon="34.6028133854"><ele>222.68</ele><time>2026-08-16T14:48:19Z</time></trkpt><trkpt lat="59.3146289047" lon="34.6029438078"><ele>221.72</ele><time>2026-08-16T14:48:33Z</time></trkpt><trkpt lat="59.3146043457" lon="34.6030712966"><ele>222.20</ele><time>2026-08-16T14:48:49Z</time></trkpt><trkpt lat="59.3145793676" lon="34.6031449735"><ele>222.20</ele><time>2026-08-16T14:49:00Z</time></trkpt><trkpt lat="59.3145966344" lon="34.6031865478"><ele>222.20</ele><time>2026-08-16T14:49:12Z</time></trkpt><trkpt lat="59.3145992327" lon="34.6031804290"><ele>222.20</ele><time>2026-08-16T14:49:19Z</time></trkpt><trkpt lat="59.3145550601" lon="34.6031836141"><ele>221.72</ele><time>2026-08-16T14:49:46Z</time></trkpt><trkpt lat="59.3145613465" lon="34.6032044850"><ele>221.72</ele><time>2026-08-16T14:50:08Z</time></trkpt><trkpt lat="59.3145473488" lon="34.6032155491"><ele>221.72</ele><time>2026-08-16T14:50:25Z</time></trkpt><trkpt lat="59.3145489413" lon="34.6032722946"><ele>220.76</ele><time>2026-08-16T14:50:37Z</time></trkpt><trkpt lat="59.3145722430" lon="34.6034188941"><ele>221.24</ele><time>2026-08-16T14:50:50Z</time></trkpt><trkpt lat="59.3145258073" lon="34.6034921519"><ele>220.28</ele><time>2026-08-16T14:51:03Z</time></trkpt><trkpt lat="59.3145076185" lon="34.6036325488"><ele>220.76</ele><time>2026-08-16T14:51:14Z</time></trkpt><trkpt lat="59.3144705705" lon="34.6037534159"><ele>220.76</ele><time>2026-08-16T14:51:29Z</time></trkpt><trkpt lat="59.3144576624" lon="34.6038876940"><ele>220.28</ele><time>2026-08-16T14:51:41Z</time></trkpt><trkpt lat="59.3144655414" lon="34.6039819904"><ele>219.80</ele><time>2026-08-16T14:51:48Z</time></trkpt><trkpt lat="59.3144742586" lon="34.6041269135"><ele>219.32</ele><time>2026-08-16T14:52:00Z</time></trkpt><trkpt lat="59.3144354504" lon="34.6042571682"><ele>220.76</ele><time>2026-08-16T14:52:12Z</time></trkpt><trkpt lat="59.3143982347" lon="34.6043520514"><ele>220.28</ele><time>2026-08-16T14:52:24Z</time></trkpt><trkpt lat="59.3143685628" lon="34.6044823900"><ele>220.76</ele><time>2026-08-16T14:52:36Z</time></trkpt><trkpt lat="59.3143834826" lon="34.6045307536"><ele>220.28</ele><time>2026-08-16T14:52:49Z</time></trkpt><trkpt lat="59.3143813033" lon="34.6045274846"><ele>218.84</ele><time>2026-08-16T14:52:59Z</time></trkpt><trkpt lat="59.3143429980" lon="34.6045986470"><ele>219.80</ele><time>2026-08-16T14:53:08Z</time></trkpt><trkpt lat="59.3143455125" lon="34.6046732459"><ele>219.32</ele><time>2026-08-16T14:53:20Z</time></trkpt><trkpt lat="59.3143375497" lon="34.6046836395"><ele>219.32</ele><time>2026-08-16T14:53:35Z</time></trkpt><trkpt lat="59.3143281620" lon="34.6046885010"><ele>219.32</ele><time>2026-08-16T14:53:52Z</time></trkpt><trkpt lat="59.3143445905" lon="34.6046791971"><ele>218.36</ele><time>2026-08-16T14:54:16Z</time></trkpt><trkpt lat="59.3143301737" lon="34.6046932787"><ele>218.36</ele><time>2026-08-16T14:54:41Z</time></trkpt><trkpt lat="59.3143323530" lon="34.6046916861"><ele>216.43</ele><time>2026-08-16T14:54:43Z</time></trkpt><trkpt lat="59.3143791240" lon="34.6046738327"><ele>216.91</ele><time>2026-08-16T14:55:09Z</time></trkpt><trkpt lat="59.3143953010" lon="34.6046004072"><ele>217.88</ele><time>2026-08-16T14:55:21Z</time></trkpt><trkpt lat="59.3144016713" lon="34.6046070289"><ele>217.40</ele><time>2026-08-16T14:55:42Z</time></trkpt><trkpt lat="59.3144050241" lon="34.6046034247"><ele>216.91</ele><time>2026-08-16T14:56:23Z</time></trkpt><trkpt lat="59.3143575825" lon="34.6046525426"><ele>216.91</ele><time>2026-08-16T14:56:35Z</time></trkpt><trkpt lat="59.3143599294" lon="34.6048206836"><ele>214.99</ele><time>2026-08-16T14:56:48Z</time></trkpt><trkpt lat="59.3143637013" lon="34.6048218571"><ele>216.91</ele><time>2026-08-16T14:56:50Z</time></trkpt><trkpt lat="59.3143463507" lon="34.6048676223"><ele>215.47</ele><time>2026-08-16T14:57:03Z</time></trkpt><trkpt lat="59.3143380526" lon="34.6048957016"><ele>216.43</ele><time>2026-08-16T14:57:05Z</time></trkpt><trkpt lat="59.3143017590" lon="34.6049707197"><ele>216.43</ele><time>2026-08-16T14:57:17Z</time></trkpt><trkpt lat="59.3143058661" lon="34.6050894912"><ele>216.43</ele><time>2026-08-16T14:57:28Z</time></trkpt><trkpt lat="59.3143348675" lon="34.6051709633"><ele>216.43</ele><time>2026-08-16T14:57:34Z</time></trkpt><trkpt lat="59.3143715803" lon="34.6052989550"><ele>216.43</ele><time>2026-08-16T14:57:46Z</time></trkpt><trkpt lat="59.3143736757" lon="34.6052990388"><ele>216.43</ele><time>2026-08-16T14:57:47Z</time></trkpt><trkpt lat="59.3143766094" lon="34.6053139586"><ele>215.47</ele><time>2026-08-16T14:58:07Z</time></trkpt><trkpt lat="59.3143440876" lon="34.6053389367"><ele>215.47</ele><time>2026-08-16T14:58:35Z</time></trkpt><trkpt lat="59.3143155891" lon="34.6053691953"><ele>214.99</ele><time>2026-08-16T14:58:47Z</time></trkpt><trkpt lat="59.3142826483" lon="34.6054909006"><ele>214.51</ele><time>2026-08-16T14:59:02Z</time></trkpt><trkpt lat="59.3142393138" lon="34.6055842750"><ele>215.47</ele><time>2026-08-16T14:59:15Z</time></trkpt><trkpt lat="59.3142183591" lon="34.6057044715"><ele>215.47</ele><time>2026-08-16T14:59:26Z</time></trkpt><trkpt lat="59.3142012600" lon="34.6057532541"><ele>215.47</ele><time>2026-08-16T14:59:40Z</time></trkpt><trkpt lat="59.3142241426" lon="34.6058460418"><ele>211.63</ele><time>2026-08-16T14:59:48Z</time></trkpt><trkpt lat="59.3142288364" lon="34.6058664937"><ele>212.11</ele><time>2026-08-16T14:59:49Z</time></trkpt><trkpt lat="59.3142322730" lon="34.6058859397"><ele>214.99</ele><time>2026-08-16T14:59:52Z</time></trkpt><trkpt lat="59.3142271601" lon="34.6059242450"><ele>211.63</ele><time>2026-08-16T14:59:59Z</time></trkpt><trkpt lat="59.3142297585" lon="34.6059343871"><ele>212.11</ele><time>2026-08-16T15:00:00Z</time></trkpt><trkpt lat="59.3142318539" lon="34.6059857681"><ele>215.47</ele><time>2026-08-16T15:00:04Z</time></trkpt><trkpt lat="59.3142279983" lon="34.6060673241"><ele>212.59</ele><time>2026-08-16T15:00:10Z</time></trkpt><trkpt lat="59.3142165150" lon="34.6061078086"><ele>214.99</ele><time>2026-08-16T15:00:14Z</time></trkpt><trkpt lat="59.3141948059" lon="34.6063782088"><ele>214.51</ele><time>2026-08-16T15:00:32Z</time></trkpt><trkpt lat="59.3141456041" lon="34.6066662949"><ele>214.51</ele><time>2026-08-16T15:00:49Z</time></trkpt><trkpt lat="59.3141030241" lon="34.6067665424"><ele>213.55</ele><time>2026-08-16T15:01:05Z</time></trkpt><trkpt lat="59.3140872661" lon="34.6068886667"><ele>214.51</ele><time>2026-08-16T15:01:21Z</time></trkpt><trkpt lat="59.3140581809" lon="34.6068699751"><ele>214.51</ele><time>2026-08-16T15:01:34Z</time></trkpt><trkpt lat="59.3140753638" lon="34.6068705618"><ele>212.59</ele><time>2026-08-16T15:01:55Z</time></trkpt><trkpt lat="59.3140442669" lon="34.6068544686"><ele>214.03</ele><time>2026-08-16T15:02:17Z</time></trkpt><trkpt lat="59.3140599411" lon="34.6068501938"><ele>214.51</ele><time>2026-08-16T15:02:48Z</time></trkpt><trkpt lat="59.3140335381" lon="34.6069801133"><ele>214.51</ele><time>2026-08-16T15:03:01Z</time></trkpt><trkpt lat="59.3139897846" lon="34.6071322449"><ele>214.99</ele><time>2026-08-16T15:03:15Z</time></trkpt><trkpt lat="59.3139410019" lon="34.6072184108"><ele>214.99</ele><time>2026-08-16T15:03:28Z</time></trkpt><trkpt lat="59.3139366433" lon="34.6072296426"><ele>214.99</ele><time>2026-08-16T15:03:29Z</time></trkpt><trkpt lat="59.3138980865" lon="34.6072985418"><ele>214.03</ele><time>2026-08-16T15:03:41Z</time></trkpt><trkpt lat="59.3138589431" lon="34.6073429659"><ele>214.51</ele><time>2026-08-16T15:03:47Z</time></trkpt><trkpt lat="59.3137893733" lon="34.6075049881"><ele>214.99</ele><time>2026-08-16T15:04:02Z</time></trkpt><trkpt lat="59.3137546722" lon="34.6076104324"><ele>214.03</ele><time>2026-08-16T15:04:15Z</time></trkpt><trkpt lat="59.3136802409" lon="34.6078107599"><ele>214.03</ele><time>2026-08-16T15:04:29Z</time></trkpt><trkpt lat="59.3136288598" lon="34.6080103330"><ele>213.55</ele><time>2026-08-16T15:04:43Z</time></trkpt><trkpt lat="59.3135872856" lon="34.6081622969"><ele>214.03</ele><time>2026-08-16T15:04:57Z</time></trkpt><trkpt lat="59.3135240860" lon="34.6082773805"><ele>214.51</ele><time>2026-08-16T15:05:11Z</time></trkpt><trkpt lat="59.3134672567" lon="34.6084851678"><ele>213.55</ele><time>2026-08-16T15:05:26Z</time></trkpt><trkpt lat="59.3134076614" lon="34.6086186916"><ele>214.03</ele><time>2026-08-16T15:05:41Z</time></trkpt><trkpt lat="59.3134135287" lon="34.6086207032"><ele>213.07</ele><time>2026-08-16T15:06:02Z</time></trkpt><trkpt lat="59.3134197313" lon="34.6085549053"><ele>213.07</ele><time>2026-08-16T15:06:32Z</time></trkpt><trkpt lat="59.3133806717" lon="34.6086196974"><ele>212.59</ele><time>2026-08-16T15:06:53Z</time></trkpt><trkpt lat="59.3133446295" lon="34.6087923646"><ele>213.07</ele><time>2026-08-16T15:07:07Z</time></trkpt><trkpt lat="59.3132924102" lon="34.6089579910"><ele>213.07</ele><time>2026-08-16T15:07:23Z</time></trkpt><trkpt lat="59.3132372573" lon="34.6090217773"><ele>212.59</ele><time>2026-08-16T15:07:42Z</time></trkpt><trkpt lat="59.3131974433" lon="34.6092575602"><ele>213.07</ele><time>2026-08-16T15:07:56Z</time></trkpt><trkpt lat="59.3131912407" lon="34.6094141342"><ele>209.22</ele><time>2026-08-16T15:08:11Z</time></trkpt><trkpt lat="59.3131926656" lon="34.6094189957"><ele>209.70</ele><time>2026-08-16T15:08:12Z</time></trkpt><trkpt lat="59.3132100999" lon="34.6094852127"><ele>211.15</ele><time>2026-08-16T15:08:28Z</time></trkpt><trkpt lat="59.3132160511" lon="34.6095087659"><ele>209.70</ele><time>2026-08-16T15:08:31Z</time></trkpt><trkpt lat="59.3132155482" lon="34.6095282119"><ele>212.11</ele><time>2026-08-16T15:08:34Z</time></trkpt><trkpt lat="59.3132180627" lon="34.6095585544"><ele>208.74</ele><time>2026-08-16T15:08:36Z</time></trkpt><trkpt lat="59.3132164702" lon="34.6095697861"><ele>212.59</ele><time>2026-08-16T15:08:38Z</time></trkpt><trkpt lat="59.3132167216" lon="34.6095754858"><ele>212.11</ele><time>2026-08-16T15:08:39Z</time></trkpt><trkpt lat="59.3132320605" lon="34.6096732188"><ele>212.11</ele><time>2026-08-16T15:08:56Z</time></trkpt><trkpt lat="59.3132126145" lon="34.6098051500"><ele>212.59</ele><time>2026-08-16T15:09:12Z</time></trkpt><trkpt lat="59.3132292945" lon="34.6098443773"><ele>211.15</ele><time>2026-08-16T15:09:30Z</time></trkpt><trkpt lat="59.3132371735" lon="34.6098409407"><ele>212.59</ele><time>2026-08-16T15:09:33Z</time></trkpt><trkpt lat="59.3132179789" lon="34.6098354924"><ele>212.11</ele><time>2026-08-16T15:10:07Z</time></trkpt><trkpt lat="59.3131908216" lon="34.6099239215"><ele>210.67</ele><time>2026-08-16T15:10:27Z</time></trkpt><trkpt lat="59.3131527677" lon="34.6100204811"><ele>210.67</ele><time>2026-08-16T15:10:41Z</time></trkpt><trkpt lat="59.3131202459" lon="34.6101628058"><ele>211.63</ele><time>2026-08-16T15:10:57Z</time></trkpt><trkpt lat="59.3130551185" lon="34.6103059687"><ele>212.11</ele><time>2026-08-16T15:11:11Z</time></trkpt><trkpt lat="59.3129988760" lon="34.6103658993"><ele>208.26</ele><time>2026-08-16T15:11:21Z</time></trkpt><trkpt lat="59.3129926734" lon="34.6103762090"><ele>208.74</ele><time>2026-08-16T15:11:22Z</time></trkpt><trkpt lat="59.3129661027" lon="34.6104434319"><ele>212.11</ele><time>2026-08-16T15:11:30Z</time></trkpt><trkpt lat="59.3129050825" lon="34.6105482895"><ele>211.15</ele><time>2026-08-16T15:11:43Z</time></trkpt><trkpt lat="59.3128370214" lon="34.6106816456"><ele>211.63</ele><time>2026-08-16T15:11:57Z</time></trkpt><trkpt lat="59.3128209282" lon="34.6108736750"><ele>211.63</ele><time>2026-08-16T15:12:13Z</time></trkpt><trkpt lat="59.3127444852" lon="34.6109926980"><ele>210.67</ele><time>2026-08-16T15:12:27Z</time></trkpt><trkpt lat="59.3127058446" lon="34.6110730805"><ele>211.63</ele><time>2026-08-16T15:12:36Z</time></trkpt><trkpt lat="59.3126413040" lon="34.6111419797"><ele>211.15</ele><time>2026-08-16T15:12:47Z</time></trkpt><trkpt lat="59.3125827145" lon="34.6112683788"><ele>209.22</ele><time>2026-08-16T15:12:59Z</time></trkpt><trkpt lat="59.3125443254" lon="34.6113431454"><ele>210.67</ele><time>2026-08-16T15:13:12Z</time></trkpt><trkpt lat="59.3124855682" lon="34.6113366913"><ele>210.67</ele><time>2026-08-16T15:13:24Z</time></trkpt><trkpt lat="59.3124211952" lon="34.6114027407"><ele>211.15</ele><time>2026-08-16T15:13:38Z</time></trkpt><trkpt lat="59.3124109693" lon="34.6113909222"><ele>209.22</ele><time>2026-08-16T15:13:46Z</time></trkpt><trkpt lat="59.3124010786" lon="34.6113545448"><ele>210.67</ele><time>2026-08-16T15:14:05Z</time></trkpt><trkpt lat="59.3124047667" lon="34.6113849711"><ele>209.70</ele><time>2026-08-16T15:14:14Z</time></trkpt><trkpt lat="59.3124017492" lon="34.6113687940"><ele>209.22</ele><time>2026-08-16T15:14:35Z</time></trkpt><trkpt lat="59.3124100473" lon="34.6113957837"><ele>209.70</ele><time>2026-08-16T15:14:53Z</time></trkpt><trkpt lat="59.3123529665" lon="34.6114467457"><ele>210.19</ele><time>2026-08-16T15:15:06Z</time></trkpt><trkpt lat="59.3122900184" lon="34.6114117932"><ele>210.67</ele><time>2026-08-16T15:15:19Z</time></trkpt><trkpt lat="59.3122553173" lon="34.6114624199"><ele>209.70</ele><time>2026-08-16T15:15:33Z</time></trkpt><trkpt lat="59.3122018408" lon="34.6114357654"><ele>210.19</ele><time>2026-08-16T15:15:47Z</time></trkpt><trkpt lat="59.3121092208" lon="34.6114042494"><ele>208.74</ele><time>2026-08-16T15:16:02Z</time></trkpt><trkpt lat="59.3119849171" lon="34.6114882361"><ele>209.70</ele><time>2026-08-16T15:16:19Z</time></trkpt><trkpt lat="59.3118895311" lon="34.6117183194"><ele>210.19</ele><time>2026-08-16T15:16:38Z</time></trkpt><trkpt lat="59.3118516449" lon="34.6118439641"><ele>210.19</ele><time>2026-08-16T15:16:54Z</time></trkpt><trkpt lat="59.3117135111" lon="34.6119405236"><ele>209.70</ele><time>2026-08-16T15:17:12Z</time></trkpt><trkpt lat="59.3116966635" lon="34.6119746380"><ele>210.19</ele><time>2026-08-16T15:17:19Z</time></trkpt><trkpt lat="59.3115094956" lon="34.6121075749"><ele>210.19</ele><time>2026-08-16T15:17:39Z</time></trkpt><trkpt lat="59.3114659097" lon="34.6121479757"><ele>210.19</ele><time>2026-08-16T15:17:56Z</time></trkpt><trkpt lat="59.3114194740" lon="34.6121825092"><ele>210.67</ele><time>2026-08-16T15:18:19Z</time></trkpt><trkpt lat="59.3113712780" lon="34.6121576149"><ele>211.15</ele><time>2026-08-16T15:18:47Z</time></trkpt><trkpt lat="59.3113674223" lon="34.6121788211"><ele>211.63</ele><time>2026-08-16T15:19:06Z</time></trkpt><trkpt lat="59.3112683482" lon="34.6122058108"><ele>211.15</ele><time>2026-08-16T15:19:30Z</time></trkpt><trkpt lat="59.3111447152" lon="34.6122930665"><ele>210.67</ele><time>2026-08-16T15:19:51Z</time></trkpt><trkpt lat="59.3109933380" lon="34.6125175338"><ele>211.63</ele><time>2026-08-16T15:20:13Z</time></trkpt><trkpt lat="59.3108445592" lon="34.6126502194"><ele>211.63</ele><time>2026-08-16T15:20:36Z</time></trkpt><trkpt lat="59.3107222673" lon="34.6127371397"><ele>211.63</ele><time>2026-08-16T15:20:55Z</time></trkpt><trkpt lat="59.3105615024" lon="34.6129212901"><ele>211.15</ele><time>2026-08-16T15:21:13Z</time></trkpt><trkpt lat="59.3104656134" lon="34.6130915266"><ele>211.63</ele><time>2026-08-16T15:21:31Z</time></trkpt><trkpt lat="59.3104114663" lon="34.6130958851"><ele>211.63</ele><time>2026-08-16T15:21:51Z</time></trkpt><trkpt lat="59.3103232887" lon="34.6130667999"><ele>212.59</ele><time>2026-08-16T15:22:10Z</time></trkpt><trkpt lat="59.3101388030" lon="34.6131590009"><ele>212.11</ele><time>2026-08-16T15:22:37Z</time></trkpt><trkpt lat="59.3101305887" lon="34.6131510381"><ele>210.67</ele><time>2026-08-16T15:22:39Z</time></trkpt><trkpt lat="59.3100955524" lon="34.6131094638"><ele>213.07</ele><time>2026-08-16T15:23:09Z</time></trkpt><trkpt lat="59.3100444227" lon="34.6132395510"><ele>213.07</ele><time>2026-08-16T15:23:29Z</time></trkpt><trkpt lat="59.3099388946" lon="34.6134237852"><ele>213.07</ele><time>2026-08-16T15:23:48Z</time></trkpt><trkpt lat="59.3097929657" lon="34.6136485878"><ele>212.59</ele><time>2026-08-16T15:24:12Z</time></trkpt><trkpt lat="59.3096947297" lon="34.6137988754"><ele>214.03</ele><time>2026-08-16T15:24:30Z</time></trkpt><trkpt lat="59.3096700031" lon="34.6138761565"><ele>212.11</ele><time>2026-08-16T15:24:36Z</time></trkpt><trkpt lat="59.3096639682" lon="34.6138992906"><ele>213.55</ele><time>2026-08-16T15:24:38Z</time></trkpt><trkpt lat="59.3095959071" lon="34.6140344907"><ele>214.03</ele><time>2026-08-16T15:24:56Z</time></trkpt><trkpt lat="59.3094975036" lon="34.6141579561"><ele>212.11</ele><time>2026-08-16T15:25:16Z</time></trkpt><trkpt lat="59.3094307836" lon="34.6141992789"><ele>213.55</ele><time>2026-08-16T15:25:33Z</time></trkpt><trkpt lat="59.3093983456" lon="34.6142150369"><ele>211.15</ele><time>2026-08-16T15:25:41Z</time></trkpt><trkpt lat="59.3093693443" lon="34.6142494865"><ele>213.55</ele><time>2026-08-16T15:25:44Z</time></trkpt><trkpt lat="59.3092931528" lon="34.6143300366"><ele>214.51</ele><time>2026-08-16T15:26:03Z</time></trkpt><trkpt lat="59.3092319649" lon="34.6144098323"><ele>212.11</ele><time>2026-08-16T15:26:23Z</time></trkpt><trkpt lat="59.3092253432" lon="34.6144483052"><ele>214.51</ele><time>2026-08-16T15:26:42Z</time></trkpt><trkpt lat="59.3092262652" lon="34.6144707687"><ele>213.07</ele><time>2026-08-16T15:26:46Z</time></trkpt><trkpt lat="59.3092168774" lon="34.6145199705"><ele>214.03</ele><time>2026-08-16T15:27:20Z</time></trkpt><trkpt lat="59.3091839366" lon="34.6144649014"><ele>214.51</ele><time>2026-08-16T15:27:43Z</time></trkpt><trkpt lat="59.3091701064" lon="34.6144894604"><ele>214.03</ele><time>2026-08-16T15:27:58Z</time></trkpt><trkpt lat="59.3091034703" lon="34.6145289391"><ele>214.51</ele><time>2026-08-16T15:28:19Z</time></trkpt><trkpt lat="59.3090537656" lon="34.6145061404"><ele>214.99</ele><time>2026-08-16T15:28:35Z</time></trkpt><trkpt lat="59.3089730479" lon="34.6144344751"><ele>214.51</ele><time>2026-08-16T15:28:55Z</time></trkpt><trkpt lat="59.3088702019" lon="34.6144050546"><ele>214.99</ele><time>2026-08-16T15:29:13Z</time></trkpt><trkpt lat="59.3086880632" lon="34.6143438667"><ele>215.47</ele><time>2026-08-16T15:29:33Z</time></trkpt><trkpt lat="59.3085801043" lon="34.6144047193"><ele>215.47</ele><time>2026-08-16T15:29:51Z</time></trkpt><trkpt lat="59.3085205089" lon="34.6144216508"><ele>214.99</ele><time>2026-08-16T15:30:20Z</time></trkpt><trkpt lat="59.3083722331" lon="34.6146341320"><ele>215.47</ele><time>2026-08-16T15:30:38Z</time></trkpt><trkpt lat="59.3082870729" lon="34.6147421747"><ele>214.03</ele><time>2026-08-16T15:30:58Z</time></trkpt><trkpt lat="59.3082977179" lon="34.6147801448"><ele>213.07</ele><time>2026-08-16T15:31:00Z</time></trkpt><trkpt lat="59.3083045073" lon="34.6147730201"><ele>215.95</ele><time>2026-08-16T15:31:14Z</time></trkpt><trkpt lat="59.3081874959" lon="34.6147999261"><ele>215.47</ele><time>2026-08-16T15:31:32Z</time></trkpt><trkpt lat="59.3081088737" lon="34.6149189491"><ele>213.55</ele><time>2026-08-16T15:31:52Z</time></trkpt><trkpt lat="59.3080972228" lon="34.6149254870"><ele>215.47</ele><time>2026-08-16T15:31:55Z</time></trkpt><trkpt lat="59.3079924490" lon="34.6149884351"><ele>214.51</ele><time>2026-08-16T15:32:14Z</time></trkpt><trkpt lat="59.3079955503" lon="34.6150198672"><ele>217.40</ele><time>2026-08-16T15:32:25Z</time></trkpt><trkpt lat="59.3079924490" lon="34.6150211245"><ele>218.36</ele><time>2026-08-16T15:32:27Z</time></trkpt><trkpt lat="59.3080232106" lon="34.6150028519"><ele>219.32</ele><time>2026-08-16T15:32:36Z</time></trkpt><trkpt lat="59.3080276530" lon="34.6150495391"><ele>219.32</ele><time>2026-08-16T15:33:19Z</time></trkpt><trkpt lat="59.3080134038" lon="34.6149748564"><ele>219.32</ele><time>2026-08-16T15:34:02Z</time></trkpt><trkpt lat="59.3080055248" lon="34.6150524728"><ele>219.32</ele><time>2026-08-16T15:34:43Z</time></trkpt><trkpt lat="59.3080003280" lon="34.6150492877"><ele>218.84</ele><time>2026-08-16T15:35:28Z</time></trkpt><trkpt lat="59.3079906050" lon="34.6149431728"><ele>218.84</ele><time>2026-08-16T15:36:07Z</time></trkpt><trkpt lat="59.3080283236" lon="34.6150413249"><ele>218.36</ele><time>2026-08-16T15:36:45Z</time></trkpt><trkpt lat="59.3080035970" lon="34.6150189452"><ele>217.88</ele><time>2026-08-16T15:37:22Z</time></trkpt><trkpt lat="59.3079787027" lon="34.6150851622"><ele>217.88</ele><time>2026-08-16T15:38:06Z</time></trkpt><trkpt lat="59.3080421537" lon="34.6150958072"><ele>217.88</ele><time>2026-08-16T15:38:44Z</time></trkpt><trkpt lat="59.3080114760" lon="34.6150038578"><ele>217.88</ele><time>2026-08-16T15:39:28Z</time></trkpt><trkpt lat="59.3080419861" lon="34.6150458511"><ele>217.40</ele><time>2026-08-16T15:40:06Z</time></trkpt><trkpt lat="59.3079476897" lon="34.6151486132"><ele>217.40</ele><time>2026-08-16T15:40:45Z</time></trkpt><trkpt lat="59.3079833128" lon="34.6152209491"><ele>217.40</ele><time>2026-08-16T15:41:26Z</time></trkpt><trkpt lat="59.3080149963" lon="34.6150736790"><ele>216.91</ele><time>2026-08-16T15:42:05Z</time></trkpt><trkpt lat="59.3080173433" lon="34.6151941270"><ele>216.91</ele><time>2026-08-16T15:42:37Z</time></trkpt><trkpt lat="59.3080010824" lon="34.6150544006"><ele>216.91</ele><time>2026-08-16T15:43:16Z</time></trkpt><trkpt lat="59.3080189358" lon="34.6151201148"><ele>216.91</ele><time>2026-08-16T15:44:00Z</time></trkpt><trkpt lat="59.3080193549" lon="34.6151433326"><ele>216.43</ele><time>2026-08-16T15:44:33Z</time></trkpt><trkpt lat="59.3080476858" lon="34.6151584201"><ele>216.91</ele><time>2026-08-16T15:45:12Z</time></trkpt><trkpt lat="59.3080569059" lon="34.6151632816"><ele>216.43</ele><time>2026-08-16T15:45:47Z</time></trkpt><trkpt lat="59.3080145773" lon="34.6152431611"><ele>215.95</ele><time>2026-08-16T15:46:26Z</time></trkpt><trkpt lat="59.3080096319" lon="34.6151367947"><ele>215.47</ele><time>2026-08-16T15:47:04Z</time></trkpt><trkpt lat="59.3080356997" lon="34.6150891017"><ele>214.99</ele><time>2026-08-16T15:47:45Z</time></trkpt><trkpt lat="59.3080342747" lon="34.6150538977"><ele>212.11</ele><time>2026-08-16T15:47:56Z</time></trkpt><trkpt lat="59.3080353644" lon="34.6150556579"><ele>212.11</ele><time>2026-08-16T15:47:57Z</time></trkpt><trkpt lat="59.3080382142" lon="34.6150821447"><ele>210.67</ele><time>2026-08-16T15:48:01Z</time></trkpt><trkpt lat="59.3080683053" lon="34.6151975635"><ele>210.67</ele><time>2026-08-16T15:48:38Z</time></trkpt><trkpt lat="59.3080091290" lon="34.6151868347"><ele>210.19</ele><time>2026-08-16T15:49:21Z</time></trkpt><trkpt lat="59.3080243003" lon="34.6152277384"><ele>211.63</ele><time>2026-08-16T15:49:53Z</time></trkpt><trkpt lat="59.3080708198" lon="34.6151845716"><ele>211.63</ele><time>2026-08-16T15:50:16Z</time></trkpt><trkpt lat="59.3081324268" lon="34.6151821408"><ele>208.26</ele><time>2026-08-16T15:50:39Z</time></trkpt><trkpt lat="59.3081429880" lon="34.6151942108"><ele>210.67</ele><time>2026-08-16T15:50:42Z</time></trkpt><trkpt lat="59.3080849014" lon="34.6152110584"><ele>210.19</ele><time>2026-08-16T15:51:10Z</time></trkpt><trkpt lat="59.3080294132" lon="34.6153791994"><ele>206.82</ele><time>2026-08-16T15:51:24Z</time></trkpt><trkpt lat="59.3080013338" lon="34.6154175885"><ele>209.70</ele><time>2026-08-16T15:51:28Z</time></trkpt><trkpt lat="59.3079968914" lon="34.6154511999"><ele>208.26</ele><time>2026-08-16T15:51:31Z</time></trkpt><trkpt lat="59.3079972267" lon="34.6154997312"><ele>206.82</ele><time>2026-08-16T15:51:35Z</time></trkpt><trkpt lat="59.3079818878" lon="34.6155315824"><ele>210.19</ele><time>2026-08-16T15:51:53Z</time></trkpt><trkpt lat="59.3079007510" lon="34.6156535391"><ele>209.70</ele><time>2026-08-16T15:52:13Z</time></trkpt><trkpt lat="59.3077177741" lon="34.6158382762"><ele>210.67</ele><time>2026-08-16T15:52:30Z</time></trkpt><trkpt lat="59.3075554166" lon="34.6161545254"><ele>209.70</ele><time>2026-08-16T15:52:50Z</time></trkpt><trkpt lat="59.3075180333" lon="34.6162133664"><ele>206.82</ele><time>2026-08-16T15:52:57Z</time></trkpt><trkpt lat="59.3075009342" lon="34.6162329800"><ele>209.70</ele><time>2026-08-16T15:53:00Z</time></trkpt><trkpt lat="59.3074794766" lon="34.6164317150"><ele>208.74</ele><time>2026-08-16T15:53:17Z</time></trkpt><trkpt lat="59.3074864335" lon="34.6164846048"><ele>210.19</ele><time>2026-08-16T15:53:21Z</time></trkpt><trkpt lat="59.3074120022" lon="34.6165537555"><ele>209.70</ele><time>2026-08-16T15:53:38Z</time></trkpt><trkpt lat="59.3074054644" lon="34.6166214813"><ele>206.34</ele><time>2026-08-16T15:53:50Z</time></trkpt><trkpt lat="59.3073901255" lon="34.6166676655"><ele>208.74</ele><time>2026-08-16T15:53:57Z</time></trkpt><trkpt lat="59.3073407561" lon="34.6168908756"><ele>209.22</ele><time>2026-08-16T15:54:11Z</time></trkpt><trkpt lat="59.3072861061" lon="34.6170345414"><ele>208.74</ele><time>2026-08-16T15:54:25Z</time></trkpt><trkpt lat="59.3072198890" lon="34.6171240602"><ele>209.22</ele><time>2026-08-16T15:54:41Z</time></trkpt><trkpt lat="59.3072570208" lon="34.6172670554"><ele>210.67</ele><time>2026-08-16T15:55:03Z</time></trkpt><trkpt lat="59.3072555959" lon="34.6172759403"><ele>208.74</ele><time>2026-08-16T15:55:08Z</time></trkpt><trkpt lat="59.3072526623" lon="34.6172924526"><ele>209.70</ele><time>2026-08-16T15:55:10Z</time></trkpt><trkpt lat="59.3071447872" lon="34.6172274090"><ele>210.67</ele><time>2026-08-16T15:55:43Z</time></trkpt><trkpt lat="59.3071241677" lon="34.6171554085"><ele>208.26</ele><time>2026-08-16T15:56:06Z</time></trkpt><trkpt lat="59.3071043864" lon="34.6172662172"><ele>210.67</ele><time>2026-08-16T15:56:14Z</time></trkpt><trkpt lat="59.3071725313" lon="34.6175786108"><ele>211.63</ele><time>2026-08-16T15:56:30Z</time></trkpt><trkpt lat="59.3071465474" lon="34.6177589055"><ele>206.82</ele><time>2026-08-16T15:56:42Z</time></trkpt><trkpt lat="59.3071384169" lon="34.6177688800"><ele>210.19</ele><time>2026-08-16T15:56:43Z</time></trkpt><trkpt lat="59.3071390036" lon="34.6178802755"><ele>210.67</ele><time>2026-08-16T15:56:59Z</time></trkpt><trkpt lat="59.3071324658" lon="34.6178951114"><ele>211.15</ele><time>2026-08-16T15:57:19Z</time></trkpt><trkpt lat="59.3071512412" lon="34.6179744881"><ele>211.15</ele><time>2026-08-16T15:57:42Z</time></trkpt><trkpt lat="59.3072148599" lon="34.6179763321"><ele>210.67</ele><time>2026-08-16T15:58:03Z</time></trkpt><trkpt lat="59.3072615471" lon="34.6180611569"><ele>211.63</ele><time>2026-08-16T15:58:12Z</time></trkpt><trkpt lat="59.3072844297" lon="34.6180883981"><ele>210.19</ele><time>2026-08-16T15:58:15Z</time></trkpt><trkpt lat="59.3073829170" lon="34.6182378475"><ele>210.19</ele><time>2026-08-16T15:58:30Z</time></trkpt><trkpt lat="59.3074656464" lon="34.6183687728"><ele>211.15</ele><time>2026-08-16T15:58:43Z</time></trkpt><trkpt lat="59.3075180333" lon="34.6184684336"><ele>210.67</ele><time>2026-08-16T15:58:57Z</time></trkpt><trkpt lat="59.3075969908" lon="34.6185394283"><ele>208.74</ele><time>2026-08-16T15:59:07Z</time></trkpt><trkpt lat="59.3076186161" lon="34.6185828466"><ele>210.67</ele><time>2026-08-16T15:59:09Z</time></trkpt><trkpt lat="59.3078036886" lon="34.6187541727"><ele>210.19</ele><time>2026-08-16T15:59:28Z</time></trkpt><trkpt lat="59.3079281598" lon="34.6190026961"><ele>209.70</ele><time>2026-08-16T15:59:45Z</time></trkpt><trkpt lat="59.3080462608" lon="34.6191151813"><ele>210.67</ele><time>2026-08-16T16:00:00Z</time></trkpt><trkpt lat="59.3081026711" lon="34.6192008443"><ele>208.26</ele><time>2026-08-16T16:00:09Z</time></trkpt><trkpt lat="59.3082092050" lon="34.6193522215"><ele>209.70</ele><time>2026-08-16T16:00:24Z</time></trkpt><trkpt lat="59.3082240410" lon="34.6193629503"><ele>211.15</ele><time>2026-08-16T16:00:27Z</time></trkpt><trkpt lat="59.3083010707" lon="34.6195310913"><ele>210.67</ele><time>2026-08-16T16:00:42Z</time></trkpt><trkpt lat="59.3083269708" lon="34.6195657086"><ele>211.15</ele><time>2026-08-16T16:00:47Z</time></trkpt><trkpt lat="59.3084789347" lon="34.6197672095"><ele>210.67</ele><time>2026-08-16T16:01:04Z</time></trkpt><trkpt lat="59.3086329941" lon="34.6200350113"><ele>210.19</ele><time>2026-08-16T16:01:24Z</time></trkpt><trkpt lat="59.3087191600" lon="34.6201744024"><ele>211.15</ele><time>2026-08-16T16:01:40Z</time></trkpt><trkpt lat="59.3087930884" lon="34.6203057468"><ele>211.15</ele><time>2026-08-16T16:01:59Z</time></trkpt><trkpt lat="59.3088577967" lon="34.6204739716"><ele>210.19</ele><time>2026-08-16T16:02:14Z</time></trkpt><trkpt lat="59.3089352455" lon="34.6204980277"><ele>211.15</ele><time>2026-08-16T16:02:40Z</time></trkpt><trkpt lat="59.3089424539" lon="34.6205408592"><ele>210.67</ele><time>2026-08-16T16:03:06Z</time></trkpt><trkpt lat="59.3089601398" lon="34.6205645800"><ele>206.82</ele><time>2026-08-16T16:03:10Z</time></trkpt><trkpt lat="59.3089598045" lon="34.6205687709"><ele>206.82</ele><time>2026-08-16T16:03:11Z</time></trkpt><trkpt lat="59.3089482374" lon="34.6206026338"><ele>210.19</ele><time>2026-08-16T16:03:19Z</time></trkpt><trkpt lat="59.3089452200" lon="34.6206188947"><ele>208.74</ele><time>2026-08-16T16:03:23Z</time></trkpt><trkpt lat="59.3089565355" lon="34.6206644084"><ele>212.11</ele><time>2026-08-16T16:03:31Z</time></trkpt><trkpt lat="59.3090124428" lon="34.6208048891"><ele>208.74</ele><time>2026-08-16T16:03:47Z</time></trkpt><trkpt lat="59.3090104312" lon="34.6208099183"><ele>208.74</ele><time>2026-08-16T16:03:48Z</time></trkpt><trkpt lat="59.3090162985" lon="34.6208326332"><ele>210.67</ele><time>2026-08-16T16:03:51Z</time></trkpt><trkpt lat="59.3090210762" lon="34.6208425239"><ele>207.78</ele><time>2026-08-16T16:03:52Z</time></trkpt><trkpt lat="59.3090388458" lon="34.6208688430"><ele>209.70</ele><time>2026-08-16T16:03:56Z</time></trkpt><trkpt lat="59.3090587948" lon="34.6209366526"><ele>210.67</ele><time>2026-08-16T16:03:59Z</time></trkpt><trkpt lat="59.3090949208" lon="34.6210091561"><ele>208.74</ele><time>2026-08-16T16:04:03Z</time></trkpt><trkpt lat="59.3091083318" lon="34.6210355591"><ele>210.67</ele><time>2026-08-16T16:04:06Z</time></trkpt><trkpt lat="59.3092068192" lon="34.6211441886"><ele>208.26</ele><time>2026-08-16T16:04:20Z</time></trkpt><trkpt lat="59.3092343118" lon="34.6211740281"><ele>210.67</ele><time>2026-08-16T16:04:24Z</time></trkpt><trkpt lat="59.3092466332" lon="34.6212573443"><ele>212.11</ele><time>2026-08-16T16:04:38Z</time></trkpt><trkpt lat="59.3093678355" lon="34.6214284189"><ele>211.63</ele><time>2026-08-16T16:04:55Z</time></trkpt><trkpt lat="59.3094436917" lon="34.6214603540"><ele>210.67</ele><time>2026-08-16T16:05:11Z</time></trkpt><trkpt lat="59.3094688375" lon="34.6214851644"><ele>211.63</ele><time>2026-08-16T16:05:15Z</time></trkpt><trkpt lat="59.3094873615" lon="34.6214888524"><ele>208.74</ele><time>2026-08-16T16:05:19Z</time></trkpt><trkpt lat="59.3094892055" lon="34.6214889362"><ele>207.30</ele><time>2026-08-16T16:05:21Z</time></trkpt><trkpt lat="59.3095015269" lon="34.6214716695"><ele>209.70</ele><time>2026-08-16T16:05:26Z</time></trkpt><trkpt lat="59.3095102441" lon="34.6214852482"><ele>206.34</ele><time>2026-08-16T16:05:34Z</time></trkpt><trkpt lat="59.3095172010" lon="34.6214924566"><ele>206.34</ele><time>2026-08-16T16:05:35Z</time></trkpt><trkpt lat="59.3095438555" lon="34.6214730106"><ele>209.70</ele><time>2026-08-16T16:05:46Z</time></trkpt><trkpt lat="59.3095570151" lon="34.6215708274"><ele>210.67</ele><time>2026-08-16T16:06:04Z</time></trkpt><trkpt lat="59.3095454480" lon="34.6215992421"><ele>207.78</ele><time>2026-08-16T16:06:15Z</time></trkpt><trkpt lat="59.3095357250" lon="34.6216140781"><ele>210.67</ele><time>2026-08-16T16:06:26Z</time></trkpt><trkpt lat="59.3095447775" lon="34.6216023434"><ele>212.11</ele><time>2026-08-16T16:06:28Z</time></trkpt><trkpt lat="59.3095563445" lon="34.6216072049"><ele>209.22</ele><time>2026-08-16T16:06:34Z</time></trkpt><trkpt lat="59.3095582724" lon="34.6216108929"><ele>211.63</ele><time>2026-08-16T16:06:37Z</time></trkpt><trkpt lat="59.3095879443" lon="34.6215922013"><ele>212.59</ele><time>2026-08-16T16:06:46Z</time></trkpt><trkpt lat="59.3096449412" lon="34.6215933748"><ele>212.11</ele><time>2026-08-16T16:06:55Z</time></trkpt><trkpt lat="59.3097554985" lon="34.6216515452"><ele>211.63</ele><time>2026-08-16T16:07:12Z</time></trkpt><trkpt lat="59.3098295946" lon="34.6215914469"><ele>210.19</ele><time>2026-08-16T16:07:38Z</time></trkpt><trkpt lat="59.3098285887" lon="34.6215947159"><ele>209.22</ele><time>2026-08-16T16:07:42Z</time></trkpt><trkpt lat="59.3098331150" lon="34.6216196939"><ele>207.78</ele><time>2026-08-16T16:08:08Z</time></trkpt><trkpt lat="59.3098218832" lon="34.6216139942"><ele>211.63</ele><time>2026-08-16T16:08:11Z</time></trkpt><trkpt lat="59.3098204583" lon="34.6216083784"><ele>211.63</ele><time>2026-08-16T16:08:12Z</time></trkpt><trkpt lat="59.3098011799" lon="34.6215906087"><ele>213.07</ele><time>2026-08-16T16:08:18Z</time></trkpt><trkpt lat="59.3098166026" lon="34.6216679737"><ele>213.07</ele><time>2026-08-16T16:08:32Z</time></trkpt><trkpt lat="59.3099364638" lon="34.6217364538"><ele>213.07</ele><time>2026-08-16T16:08:48Z</time></trkpt><trkpt lat="59.3099874258" lon="34.6217714064"><ele>213.07</ele><time>2026-08-16T16:09:03Z</time></trkpt><trkpt lat="59.3100331072" lon="34.6217375435"><ele>211.63</ele><time>2026-08-16T16:09:25Z</time></trkpt><trkpt lat="59.3100303411" lon="34.6217522118"><ele>210.67</ele><time>2026-08-16T16:09:32Z</time></trkpt><trkpt lat="59.3100853264" lon="34.6218697261"><ele>211.63</ele><time>2026-08-16T16:09:51Z</time></trkpt><trkpt lat="59.3101011682" lon="34.6218650322"><ele>209.70</ele><time>2026-08-16T16:10:12Z</time></trkpt><trkpt lat="59.3100884277" lon="34.6218185127"><ele>206.82</ele><time>2026-08-16T16:10:20Z</time></trkpt><trkpt lat="59.3100963067" lon="34.6218071133"><ele>211.63</ele><time>2026-08-16T16:10:36Z</time></trkpt><trkpt lat="59.3100994080" lon="34.6218051855"><ele>210.67</ele><time>2026-08-16T16:10:37Z</time></trkpt><trkpt lat="59.3101292476" lon="34.6218209434"><ele>213.07</ele><time>2026-08-16T16:10:43Z</time></trkpt><trkpt lat="59.3101787847" lon="34.6218364500"><ele>211.15</ele><time>2026-08-16T16:10:50Z</time></trkpt><trkpt lat="59.3102606758" lon="34.6219384577"><ele>210.19</ele><time>2026-08-16T16:11:02Z</time></trkpt><trkpt lat="59.3103577383" lon="34.6220057644"><ele>213.07</ele><time>2026-08-16T16:11:16Z</time></trkpt><trkpt lat="59.3104568124" lon="34.6220428124"><ele>211.63</ele><time>2026-08-16T16:11:30Z</time></trkpt><trkpt lat="59.3105429783" lon="34.6220694669"><ele>212.59</ele><time>2026-08-16T16:11:45Z</time></trkpt><trkpt lat="59.3107068446" lon="34.6221569739"><ele>213.07</ele><time>2026-08-16T16:12:01Z</time></trkpt><trkpt lat="59.3107350916" lon="34.6221850533"><ele>209.70</ele><time>2026-08-16T16:12:04Z</time></trkpt><trkpt lat="59.3107505981" lon="34.6222008113"><ele>211.63</ele><time>2026-08-16T16:12:05Z</time></trkpt><trkpt lat="59.3107805215" lon="34.6222164016"><ele>213.07</ele><time>2026-08-16T16:12:07Z</time></trkpt><trkpt lat="59.3108484987" lon="34.6223075129"><ele>209.70</ele><time>2026-08-16T16:12:13Z</time></trkpt><trkpt lat="59.3108768295" lon="34.6224207524"><ele>213.55</ele><time>2026-08-16T16:12:19Z</time></trkpt><trkpt lat="59.3108822778" lon="34.6224266198"><ele>213.55</ele><time>2026-08-16T16:12:20Z</time></trkpt><trkpt lat="59.3109805975" lon="34.6224856284"><ele>213.07</ele><time>2026-08-16T16:12:37Z</time></trkpt><trkpt lat="59.3110430427" lon="34.6226187330"><ele>213.07</ele><time>2026-08-16T16:12:47Z</time></trkpt><trkpt lat="59.3110792525" lon="34.6226094291"><ele>213.07</ele><time>2026-08-16T16:13:01Z</time></trkpt><trkpt lat="59.3111497443" lon="34.6226781607"><ele>213.55</ele><time>2026-08-16T16:13:19Z</time></trkpt><trkpt lat="59.3112324737" lon="34.6228722017"><ele>213.55</ele><time>2026-08-16T16:13:36Z</time></trkpt><trkpt lat="59.3112812564" lon="34.6230377443"><ele>214.51</ele><time>2026-08-16T16:13:52Z</time></trkpt><trkpt lat="59.3114420213" lon="34.6233313624"><ele>213.55</ele><time>2026-08-16T16:14:12Z</time></trkpt><trkpt lat="59.3114607129" lon="34.6233585197"><ele>209.70</ele><time>2026-08-16T16:14:19Z</time></trkpt><trkpt lat="59.3114638142" lon="34.6233643871"><ele>210.19</ele><time>2026-08-16T16:14:20Z</time></trkpt><trkpt lat="59.3114666641" lon="34.6233668178"><ele>213.07</ele><time>2026-08-16T16:14:22Z</time></trkpt><trkpt lat="59.3114683405" lon="34.6233671531"><ele>213.07</ele><time>2026-08-16T16:14:23Z</time></trkpt><trkpt lat="59.3114508223" lon="34.6233530715"><ele>213.07</ele><time>2026-08-16T16:15:06Z</time></trkpt><trkpt lat="59.3114393391" lon="34.6234545764"><ele>213.55</ele><time>2026-08-16T16:15:38Z</time></trkpt><trkpt lat="59.3114883732" lon="34.6235435922"><ele>213.07</ele><time>2026-08-16T16:15:52Z</time></trkpt><trkpt lat="59.3115475494" lon="34.6236945502"><ele>213.07</ele><time>2026-08-16T16:16:09Z</time></trkpt><trkpt lat="59.3116380740" lon="34.6239223704"><ele>213.07</ele><time>2026-08-16T16:16:27Z</time></trkpt><trkpt lat="59.3116866052" lon="34.6240771841"><ele>213.55</ele><time>2026-08-16T16:16:46Z</time></trkpt><trkpt lat="59.3117348012" lon="34.6243260428"><ele>213.07</ele><time>2026-08-16T16:17:07Z</time></trkpt><trkpt lat="59.3117696699" lon="34.6244346723"><ele>213.07</ele><time>2026-08-16T16:17:22Z</time></trkpt><trkpt lat="59.3117911275" lon="34.6246389393"><ele>211.63</ele><time>2026-08-16T16:17:36Z</time></trkpt><trkpt lat="59.3117892835" lon="34.6247360855"><ele>213.07</ele><time>2026-08-16T16:17:48Z</time></trkpt><trkpt lat="59.3118405808" lon="34.6250646561"><ele>213.07</ele><time>2026-08-16T16:18:05Z</time></trkpt><trkpt lat="59.3118643854" lon="34.6252560988"><ele>213.55</ele><time>2026-08-16T16:18:23Z</time></trkpt><trkpt lat="59.3119361345" lon="34.6253984235"><ele>213.55</ele><time>2026-08-16T16:18:38Z</time></trkpt><trkpt lat="59.3119865935" lon="34.6254824102"><ele>212.59</ele><time>2026-08-16T16:18:58Z</time></trkpt><trkpt lat="59.3119813967" lon="34.6254994255"><ele>214.03</ele><time>2026-08-16T16:19:00Z</time></trkpt><trkpt lat="59.3119104020" lon="34.6255496331"><ele>214.51</ele><time>2026-08-16T16:19:39Z</time></trkpt><trkpt lat="59.3118888605" lon="34.6256099828"><ele>214.99</ele><time>2026-08-16T16:19:55Z</time></trkpt><trkpt lat="59.3119151797" lon="34.6258600149"><ele>214.99</ele><time>2026-08-16T16:20:10Z</time></trkpt><trkpt lat="59.3119879346" lon="34.6260319278"><ele>214.99</ele><time>2026-08-16T16:20:27Z</time></trkpt><trkpt lat="59.3120347895" lon="34.6261754259"><ele>213.07</ele><time>2026-08-16T16:20:40Z</time></trkpt><trkpt lat="59.3120397348" lon="34.6262226999"><ele>214.99</ele><time>2026-08-16T16:20:44Z</time></trkpt><trkpt lat="59.3121203687" lon="34.6265944373"><ele>215.47</ele><time>2026-08-16T16:21:05Z</time></trkpt><trkpt lat="59.3121541478" lon="34.6268451400"><ele>215.47</ele><time>2026-08-16T16:21:20Z</time></trkpt><trkpt lat="59.3121827301" lon="34.6270992793"><ele>215.47</ele><time>2026-08-16T16:21:34Z</time></trkpt><trkpt lat="59.3122314289" lon="34.6273577772"><ele>214.51</ele><time>2026-08-16T16:21:50Z</time></trkpt><trkpt lat="59.3122340273" lon="34.6277046204"><ele>215.47</ele><time>2026-08-16T16:22:07Z</time></trkpt><trkpt lat="59.3122586701" lon="34.6279313508"><ele>216.43</ele><time>2026-08-16T16:22:22Z</time></trkpt><trkpt lat="59.3122650404" lon="34.6279832348"><ele>214.99</ele><time>2026-08-16T16:22:25Z</time></trkpt><trkpt lat="59.3123307545" lon="34.6283134818"><ele>214.51</ele><time>2026-08-16T16:22:42Z</time></trkpt><trkpt lat="59.3123605102" lon="34.6285193413"><ele>214.51</ele><time>2026-08-16T16:22:58Z</time></trkpt><trkpt lat="59.3123686407" lon="34.6285245381"><ele>214.03</ele><time>2026-08-16T16:22:59Z</time></trkpt><trkpt lat="59.3123883381" lon="34.6285621729"><ele>215.47</ele><time>2026-08-16T16:23:06Z</time></trkpt><trkpt lat="59.3124623504" lon="34.6286340058"><ele>214.99</ele><time>2026-08-16T16:23:21Z</time></trkpt><trkpt lat="59.3124644458" lon="34.6286478359"><ele>212.59</ele><time>2026-08-16T16:23:24Z</time></trkpt><trkpt lat="59.3124964647" lon="34.6286844648"><ele>214.03</ele><time>2026-08-16T16:23:52Z</time></trkpt><trkpt lat="59.3124989793" lon="34.6286716405"><ele>214.99</ele><time>2026-08-16T16:24:24Z</time></trkpt><trkpt lat="59.3124894239" lon="34.6288164798"><ele>214.51</ele><time>2026-08-16T16:24:37Z</time></trkpt><trkpt lat="59.3125750031" lon="34.6289345808"><ele>214.51</ele><time>2026-08-16T16:24:52Z</time></trkpt><trkpt lat="59.3126416393" lon="34.6290971898"><ele>214.51</ele><time>2026-08-16T16:25:06Z</time></trkpt><trkpt lat="59.3126765918" lon="34.6292564459"><ele>211.15</ele><time>2026-08-16T16:25:20Z</time></trkpt><trkpt lat="59.3126793578" lon="34.6292647440"><ele>214.03</ele><time>2026-08-16T16:25:31Z</time></trkpt><trkpt lat="59.3127449043" lon="34.6294772252"><ele>214.03</ele><time>2026-08-16T16:25:43Z</time></trkpt><trkpt lat="59.3127850536" lon="34.6295516565"><ele>214.99</ele><time>2026-08-16T16:25:50Z</time></trkpt><trkpt lat="59.3128465768" lon="34.6297853440"><ele>214.51</ele><time>2026-08-16T16:26:06Z</time></trkpt><trkpt lat="59.3128623348" lon="34.6298762877"><ele>214.51</ele><time>2026-08-16T16:26:20Z</time></trkpt><trkpt lat="59.3129094411" lon="34.6300516371"><ele>213.55</ele><time>2026-08-16T16:26:34Z</time></trkpt><trkpt lat="59.3129205890" lon="34.6301423293"><ele>214.03</ele><time>2026-08-16T16:26:46Z</time></trkpt><trkpt lat="59.3129914161" lon="34.6303258929"><ele>214.03</ele><time>2026-08-16T16:26:58Z</time></trkpt><trkpt lat="59.3130153883" lon="34.6304611769"><ele>212.59</ele><time>2026-08-16T16:27:05Z</time></trkpt><trkpt lat="59.3130282126" lon="34.6306459978"><ele>213.07</ele><time>2026-08-16T16:27:18Z</time></trkpt><trkpt lat="59.3130473234" lon="34.6306730714"><ele>214.03</ele><time>2026-08-16T16:27:35Z</time></trkpt><trkpt lat="59.3130889814" lon="34.6307347622"><ele>213.07</ele><time>2026-08-16T16:27:55Z</time></trkpt><trkpt lat="59.3130223453" lon="34.6308012307"><ele>214.03</ele><time>2026-08-16T16:28:28Z</time></trkpt><trkpt lat="59.3129920866" lon="34.6307648532"><ele>213.07</ele><time>2026-08-16T16:28:47Z</time></trkpt><trkpt lat="59.3130467366" lon="34.6308865584"><ele>211.63</ele><time>2026-08-16T16:28:58Z</time></trkpt><trkpt lat="59.3130687810" lon="34.6310310625"><ele>211.15</ele><time>2026-08-16T16:29:12Z</time></trkpt><trkpt lat="59.3130870536" lon="34.6311383508"><ele>212.11</ele><time>2026-08-16T16:29:25Z</time></trkpt><trkpt lat="59.3130807672" lon="34.6311817691"><ele>213.55</ele><time>2026-08-16T16:29:30Z</time></trkpt><trkpt lat="59.3130897358" lon="34.6313798334"><ele>212.59</ele><time>2026-08-16T16:29:43Z</time></trkpt><trkpt lat="59.3131131213" lon="34.6314535942"><ele>208.74</ele><time>2026-08-16T16:29:47Z</time></trkpt><trkpt lat="59.3131241854" lon="34.6314836852"><ele>212.59</ele><time>2026-08-16T16:29:49Z</time></trkpt><trkpt lat="59.3131400272" lon="34.6315000299"><ele>210.19</ele><time>2026-08-16T16:29:53Z</time></trkpt><trkpt lat="59.3131471518" lon="34.6315320488"><ele>212.11</ele><time>2026-08-16T16:29:59Z</time></trkpt><trkpt lat="59.3132782448" lon="34.6318726055"><ele>212.59</ele><time>2026-08-16T16:30:19Z</time></trkpt><trkpt lat="59.3134401832" lon="34.6319840010"><ele>212.59</ele><time>2026-08-16T16:30:35Z</time></trkpt><trkpt lat="59.3134524208" lon="34.6319772955"><ele>208.74</ele><time>2026-08-16T16:30:37Z</time></trkpt><trkpt lat="59.3134759739" lon="34.6319732722"><ele>211.63</ele><time>2026-08-16T16:30:42Z</time></trkpt><trkpt lat="59.3134841044" lon="34.6319842525"><ele>211.63</ele><time>2026-08-16T16:30:43Z</time></trkpt><trkpt lat="59.3136092462" lon="34.6320694126"><ele>211.63</ele><time>2026-08-16T16:30:58Z</time></trkpt><trkpt lat="59.3137806561" lon="34.6321887709"><ele>212.11</ele><time>2026-08-16T16:31:18Z</time></trkpt><trkpt lat="59.3138837535" lon="34.6322881803"><ele>212.59</ele><time>2026-08-16T16:31:32Z</time></trkpt><trkpt lat="59.3139938917" lon="34.6324095502"><ele>212.11</ele><time>2026-08-16T16:31:47Z</time></trkpt><trkpt lat="59.3140455242" lon="34.6324584167"><ele>211.63</ele><time>2026-08-16T16:31:57Z</time></trkpt><trkpt lat="59.3141215481" lon="34.6324983984"><ele>210.67</ele><time>2026-08-16T16:32:10Z</time></trkpt><trkpt lat="59.3141368032" lon="34.6324681398"><ele>211.63</ele><time>2026-08-16T16:32:14Z</time></trkpt><trkpt lat="59.3141390663" lon="34.6324594226"><ele>211.63</ele><time>2026-08-16T16:32:15Z</time></trkpt><trkpt lat="59.3142098933" lon="34.6324929502"><ele>209.70</ele><time>2026-08-16T16:32:29Z</time></trkpt><trkpt lat="59.3142191973" lon="34.6324856579"><ele>209.22</ele><time>2026-08-16T16:32:33Z</time></trkpt><trkpt lat="59.3142635375" lon="34.6325220354"><ele>210.19</ele><time>2026-08-16T16:32:52Z</time></trkpt><trkpt lat="59.3142568320" lon="34.6325036790"><ele>209.22</ele><time>2026-08-16T16:32:58Z</time></trkpt><trkpt lat="59.3142548203" lon="34.6324996557"><ele>207.30</ele><time>2026-08-16T16:33:02Z</time></trkpt><trkpt lat="59.3142759427" lon="34.6325030085"><ele>210.67</ele><time>2026-08-16T16:33:27Z</time></trkpt><trkpt lat="59.3142597657" lon="34.6324916091"><ele>208.74</ele><time>2026-08-16T16:33:39Z</time></trkpt><trkpt lat="59.3143051118" lon="34.6324804612"><ele>211.63</ele><time>2026-08-16T16:33:45Z</time></trkpt><trkpt lat="59.3144007493" lon="34.6324294992"><ele>210.19</ele><time>2026-08-16T16:34:02Z</time></trkpt><trkpt lat="59.3144341093" lon="34.6325030085"><ele>209.70</ele><time>2026-08-16T16:34:16Z</time></trkpt><trkpt lat="59.3144480232" lon="34.6325359493"><ele>210.19</ele><time>2026-08-16T16:34:32Z</time></trkpt><trkpt lat="59.3145362008" lon="34.6325634420"><ele>210.67</ele><time>2026-08-16T16:34:50Z</time></trkpt><trkpt lat="59.3146182597" lon="34.6325803734"><ele>210.19</ele><time>2026-08-16T16:35:07Z</time></trkpt><trkpt lat="59.3148095347" lon="34.6327138972"><ele>209.70</ele><time>2026-08-16T16:35:24Z</time></trkpt><trkpt lat="59.3149167392" lon="34.6328486782"><ele>210.67</ele><time>2026-08-16T16:35:40Z</time></trkpt><trkpt lat="59.3150142208" lon="34.6330275480"><ele>209.22</ele><time>2026-08-16T16:35:56Z</time></trkpt><trkpt lat="59.3150377739" lon="34.6330568008"><ele>210.67</ele><time>2026-08-16T16:35:59Z</time></trkpt><trkpt lat="59.3150931783" lon="34.6331576351"><ele>211.15</ele><time>2026-08-16T16:36:12Z</time></trkpt><trkpt lat="59.3150957767" lon="34.6330992132"><ele>211.63</ele><time>2026-08-16T16:36:26Z</time></trkpt><trkpt lat="59.3150972854" lon="34.6331117861"><ele>210.67</ele><time>2026-08-16T16:36:49Z</time></trkpt><trkpt lat="59.3151196651" lon="34.6331271250"><ele>209.22</ele><time>2026-08-16T16:37:10Z</time></trkpt><trkpt lat="59.3151382729" lon="34.6331940964"><ele>209.22</ele><time>2026-08-16T16:37:25Z</time></trkpt><trkpt lat="59.3151603173" lon="34.6332783345"><ele>206.34</ele><time>2026-08-16T16:37:31Z</time></trkpt><trkpt lat="59.3151677772" lon="34.6332972776"><ele>205.38</ele><time>2026-08-16T16:37:33Z</time></trkpt><trkpt lat="59.3151759915" lon="34.6333383489"><ele>208.74</ele><time>2026-08-16T16:37:36Z</time></trkpt><trkpt lat="59.3152283784" lon="34.6334522590"><ele>209.22</ele><time>2026-08-16T16:37:50Z</time></trkpt><trkpt lat="59.3152341619" lon="34.6334694419"><ele>209.70</ele><time>2026-08-16T16:38:00Z</time></trkpt><trkpt lat="59.3153398577" lon="34.6336747985"><ele>207.78</ele><time>2026-08-16T16:38:16Z</time></trkpt><trkpt lat="59.3154243473" lon="34.6336681768"><ele>208.74</ele><time>2026-08-16T16:38:35Z</time></trkpt><trkpt lat="59.3155759759" lon="34.6335706115"><ele>209.22</ele><time>2026-08-16T16:38:52Z</time></trkpt><trkpt lat="59.3157209828" lon="34.6334623173"><ele>209.22</ele><time>2026-08-16T16:39:11Z</time></trkpt><trkpt lat="59.3158799037" lon="34.6333869640"><ele>208.26</ele><time>2026-08-16T16:39:29Z</time></trkpt><trkpt lat="59.3159125093" lon="34.6333946753"><ele>207.30</ele><time>2026-08-16T16:39:31Z</time></trkpt><trkpt lat="59.3159778044" lon="34.6333004627"><ele>203.94</ele><time>2026-08-16T16:39:44Z</time></trkpt><trkpt lat="59.3159884494" lon="34.6332974453"><ele>208.26</ele><time>2026-08-16T16:39:51Z</time></trkpt><trkpt lat="59.3159876950" lon="34.6332931705"><ele>208.26</ele><time>2026-08-16T16:39:52Z</time></trkpt><trkpt lat="59.3160265870" lon="34.6332771610"><ele>208.74</ele><time>2026-08-16T16:40:08Z</time></trkpt><trkpt lat="59.3161451910" lon="34.6331800986"><ele>208.26</ele><time>2026-08-16T16:40:24Z</time></trkpt><trkpt lat="59.3163114879" lon="34.6330697089"><ele>207.78</ele><time>2026-08-16T16:40:40Z</time></trkpt><trkpt lat="59.3163832370" lon="34.6329890750"><ele>208.26</ele><time>2026-08-16T16:40:56Z</time></trkpt><trkpt lat="59.3164931238" lon="34.6328930184"><ele>207.78</ele><time>2026-08-16T16:41:14Z</time></trkpt><trkpt lat="59.3165904377" lon="34.6328265499"><ele>207.30</ele><time>2026-08-16T16:41:32Z</time></trkpt><trkpt lat="59.3166121468" lon="34.6328121331"><ele>208.26</ele><time>2026-08-16T16:41:40Z</time></trkpt><trkpt lat="59.3166336045" lon="34.6328690462"><ele>208.26</ele><time>2026-08-16T16:42:04Z</time></trkpt><trkpt lat="59.3166632764" lon="34.6328399610"><ele>207.78</ele><time>2026-08-16T16:42:27Z</time></trkpt><trkpt lat="59.3166981451" lon="34.6328024939"><ele>208.74</ele><time>2026-08-16T16:42:34Z</time></trkpt><trkpt lat="59.3167724926" lon="34.6328082774"><ele>207.78</ele><time>2026-08-16T16:42:46Z</time></trkpt><trkpt lat="59.3168743327" lon="34.6328330040"><ele>206.82</ele><time>2026-08-16T16:43:04Z</time></trkpt><trkpt lat="59.3168993946" lon="34.6328582335"><ele>205.38</ele><time>2026-08-16T16:43:08Z</time></trkpt><trkpt lat="59.3169069383" lon="34.6329444833"><ele>206.82</ele><time>2026-08-16T16:43:34Z</time></trkpt><trkpt lat="59.3170105387" lon="34.6329962835"><ele>207.30</ele><time>2026-08-16T16:43:50Z</time></trkpt><trkpt lat="59.3171149772" lon="34.6329053398"><ele>206.34</ele><time>2026-08-16T16:44:08Z</time></trkpt><trkpt lat="59.3172014784" lon="34.6328171622"><ele>206.82</ele><time>2026-08-16T16:44:29Z</time></trkpt><trkpt lat="59.3173076771" lon="34.6327857301"><ele>206.82</ele><time>2026-08-16T16:44:44Z</time></trkpt><trkpt lat="59.3174561206" lon="34.6327693854"><ele>206.34</ele><time>2026-08-16T16:45:03Z</time></trkpt><trkpt lat="59.3175285403" lon="34.6327822935"><ele>205.38</ele><time>2026-08-16T16:45:17Z</time></trkpt><trkpt lat="59.3176644947" lon="34.6328722313"><ele>206.82</ele><time>2026-08-16T16:45:35Z</time></trkpt><trkpt lat="59.3178325519" lon="34.6329632588"><ele>206.34</ele><time>2026-08-16T16:45:51Z</time></trkpt><trkpt lat="59.3179473002" lon="34.6331608202"><ele>206.82</ele><time>2026-08-16T16:46:08Z</time></trkpt><trkpt lat="59.3180115893" lon="34.6333278716"><ele>206.82</ele><time>2026-08-16T16:46:22Z</time></trkpt><trkpt lat="59.3181151897" lon="34.6335128602"><ele>206.34</ele><time>2026-08-16T16:46:38Z</time></trkpt><trkpt lat="59.3181684986" lon="34.6336209029"><ele>203.46</ele><time>2026-08-16T16:46:55Z</time></trkpt><trkpt lat="59.3182286806" lon="34.6337198094"><ele>206.82</ele><time>2026-08-16T16:47:12Z</time></trkpt><trkpt lat="59.3183099851" lon="34.6339364816"><ele>205.38</ele><time>2026-08-16T16:47:30Z</time></trkpt><trkpt lat="59.3183522299" lon="34.6340057999"><ele>206.34</ele><time>2026-08-16T16:47:53Z</time></trkpt><trkpt lat="59.3183980789" lon="34.6339876950"><ele>206.34</ele><time>2026-08-16T16:48:09Z</time></trkpt><trkpt lat="59.3183767051" lon="34.6340888645"><ele>204.90</ele><time>2026-08-16T16:48:39Z</time></trkpt><trkpt lat="59.3183788843" lon="34.6339136828"><ele>202.01</ele><time>2026-08-16T16:49:06Z</time></trkpt><trkpt lat="59.3184211291" lon="34.6339037921"><ele>202.01</ele><time>2026-08-16T16:49:07Z</time></trkpt><trkpt lat="59.3184321932" lon="34.6338705160"><ele>205.38</ele><time>2026-08-16T16:49:27Z</time></trkpt><trkpt lat="59.3184294272" lon="34.6338728629"><ele>205.38</ele><time>2026-08-16T16:49:28Z</time></trkpt><trkpt lat="59.3184231408" lon="34.6338721085"><ele>201.05</ele><time>2026-08-16T16:49:30Z</time></trkpt><trkpt lat="59.3184210453" lon="34.6338745393"><ele>201.05</ele><time>2026-08-16T16:49:31Z</time></trkpt><trkpt lat="59.3183690775" lon="34.6339080669"><ele>205.86</ele><time>2026-08-16T16:49:51Z</time></trkpt><trkpt lat="59.3183689937" lon="34.6339131799"><ele>205.86</ele><time>2026-08-16T16:49:52Z</time></trkpt><trkpt lat="59.3184041139" lon="34.6339517366"><ele>206.34</ele><time>2026-08-16T16:50:10Z</time></trkpt><trkpt lat="59.3184202909" lon="34.6339280996"><ele>205.86</ele><time>2026-08-16T16:50:29Z</time></trkpt><trkpt lat="59.3184648827" lon="34.6339502279"><ele>207.30</ele><time>2026-08-16T16:50:37Z</time></trkpt><trkpt lat="59.3186130747" lon="34.6341021080"><ele>205.86</ele><time>2026-08-16T16:50:53Z</time></trkpt><trkpt lat="59.3188280705" lon="34.6342328656"><ele>204.90</ele><time>2026-08-16T16:51:12Z</time></trkpt><trkpt lat="59.3189648632" lon="34.6343013458"><ele>206.34</ele><time>2026-08-16T16:51:28Z</time></trkpt><trkpt lat="59.3190682121" lon="34.6343430877"><ele>205.38</ele><time>2026-08-16T16:51:41Z</time></trkpt><trkpt lat="59.3191126361" lon="34.6343464404"><ele>205.86</ele><time>2026-08-16T16:51:47Z</time></trkpt><trkpt lat="59.3192059267" lon="34.6344326064"><ele>204.90</ele><time>2026-08-16T16:51:58Z</time></trkpt><trkpt lat="59.3193376064" lon="34.6346502844"><ele>207.30</ele><time>2026-08-16T16:52:16Z</time></trkpt><trkpt lat="59.3194777519" lon="34.6348921861"><ele>204.90</ele><time>2026-08-16T16:52:32Z</time></trkpt><trkpt lat="59.3194826972" lon="34.6349057648"><ele>205.86</ele><time>2026-08-16T16:52:33Z</time></trkpt><trkpt lat="59.3195769936" lon="34.6351267956"><ele>205.86</ele><time>2026-08-16T16:52:47Z</time></trkpt><trkpt lat="59.3196987826" lon="34.6354408655"><ele>205.38</ele><time>2026-08-16T16:53:04Z</time></trkpt><trkpt lat="59.3198078312" lon="34.6357920673"><ele>205.86</ele><time>2026-08-16T16:53:23Z</time></trkpt><trkpt lat="59.3198504113" lon="34.6360462066"><ele>204.90</ele><time>2026-08-16T16:53:40Z</time></trkpt><trkpt lat="59.3199081626" lon="34.6362586040"><ele>205.86</ele><time>2026-08-16T16:53:55Z</time></trkpt><trkpt lat="59.3199710269" lon="34.6363109071"><ele>203.94</ele><time>2026-08-16T16:54:09Z</time></trkpt><trkpt lat="59.3200233299" lon="34.6363708377"><ele>200.57</ele><time>2026-08-16T16:54:22Z</time></trkpt><trkpt lat="59.3200391717" lon="34.6363543253"><ele>203.94</ele><time>2026-08-16T16:54:29Z</time></trkpt><trkpt lat="59.3200333044" lon="34.6363571752"><ele>205.38</ele><time>2026-08-16T16:54:35Z</time></trkpt><trkpt lat="59.3200234976" lon="34.6364299301"><ele>205.86</ele><time>2026-08-16T16:54:46Z</time></trkpt><trkpt lat="59.3200497329" lon="34.6365467738"><ele>206.34</ele><time>2026-08-16T16:55:12Z</time></trkpt><trkpt lat="59.3201090768" lon="34.6368514560"><ele>206.34</ele><time>2026-08-16T16:55:30Z</time></trkpt><trkpt lat="59.3200935703" lon="34.6370063536"><ele>207.30</ele><time>2026-08-16T16:55:39Z</time></trkpt><trkpt lat="59.3201226555" lon="34.6373601537"><ele>207.30</ele><time>2026-08-16T16:55:55Z</time></trkpt><trkpt lat="59.3201815803" lon="34.6376518440"><ele>205.86</ele><time>2026-08-16T16:56:13Z</time></trkpt><trkpt lat="59.3201803230" lon="34.6377234254"><ele>206.34</ele><time>2026-08-16T16:56:43Z</time></trkpt><trkpt lat="59.3201990984" lon="34.6376663446"><ele>205.86</ele><time>2026-08-16T16:57:11Z</time></trkpt><trkpt lat="59.3202196341" lon="34.6377413627"><ele>206.82</ele><time>2026-08-16T16:57:51Z</time></trkpt><trkpt lat="59.3201350607" lon="34.6378675103"><ele>207.78</ele><time>2026-08-16T16:58:11Z</time></trkpt><trkpt lat="59.3201189674" lon="34.6380573604"><ele>207.78</ele><time>2026-08-16T16:58:27Z</time></trkpt><trkpt lat="59.3201453704" lon="34.6382563468"><ele>207.30</ele><time>2026-08-16T16:58:46Z</time></trkpt><trkpt lat="59.3202080671" lon="34.6384663973"><ele>207.78</ele><time>2026-08-16T16:58:54Z</time></trkpt><trkpt lat="59.3203202169" lon="34.6387158427"><ele>207.78</ele><time>2026-08-16T16:59:10Z</time></trkpt><trkpt lat="59.3204446044" lon="34.6389599238"><ele>206.82</ele><time>2026-08-16T16:59:25Z</time></trkpt><trkpt lat="59.3204643857" lon="34.6390760131"><ele>206.34</ele><time>2026-08-16T16:59:32Z</time></trkpt><trkpt lat="59.3204843346" lon="34.6392532066"><ele>206.82</ele><time>2026-08-16T16:59:48Z</time></trkpt><trkpt lat="59.3204579316" lon="34.6394153126"><ele>207.30</ele><time>2026-08-16T16:59:57Z</time></trkpt><trkpt lat="59.3204606976" lon="34.6396400314"><ele>206.34</ele><time>2026-08-16T17:00:12Z</time></trkpt><trkpt lat="59.3204715941" lon="34.6397761535"><ele>205.86</ele><time>2026-08-16T17:00:27Z</time></trkpt><trkpt lat="59.3204411678" lon="34.6398870461"><ele>206.34</ele><time>2026-08-16T17:00:43Z</time></trkpt><trkpt lat="59.3204003479" lon="34.6399594657"><ele>204.42</ele><time>2026-08-16T17:01:01Z</time></trkpt><trkpt lat="59.3203666527" lon="34.6400094219"><ele>207.78</ele><time>2026-08-16T17:01:08Z</time></trkpt><trkpt lat="59.3203611206" lon="34.6400201507"><ele>208.26</ele><time>2026-08-16T17:01:09Z</time></trkpt><trkpt lat="59.3202937301" lon="34.6400941629"><ele>204.90</ele><time>2026-08-16T17:01:17Z</time></trkpt><trkpt lat="59.3202814087" lon="34.6401635651"><ele>207.78</ele><time>2026-08-16T17:01:35Z</time></trkpt><trkpt lat="59.3202799000" lon="34.6401651576"><ele>207.78</ele><time>2026-08-16T17:01:36Z</time></trkpt><trkpt lat="59.3202491384" lon="34.6402101684"><ele>203.94</ele><time>2026-08-16T17:01:47Z</time></trkpt><trkpt lat="59.3202575203" lon="34.6402103361"><ele>206.82</ele><time>2026-08-16T17:01:52Z</time></trkpt><trkpt lat="59.3202278484" lon="34.6402680874"><ele>207.78</ele><time>2026-08-16T17:02:08Z</time></trkpt><trkpt lat="59.3202316202" lon="34.6403177083"><ele>205.86</ele><time>2026-08-16T17:02:16Z</time></trkpt><trkpt lat="59.3201495614" lon="34.6404843405"><ele>204.90</ele><time>2026-08-16T17:02:48Z</time></trkpt><trkpt lat="59.3201491423" lon="34.6404375695"><ele>203.94</ele><time>2026-08-16T17:03:16Z</time></trkpt><trkpt lat="59.3201807421" lon="34.6404441074"><ele>202.49</ele><time>2026-08-16T17:03:43Z</time></trkpt><trkpt lat="59.3201758806" lon="34.6404351387"><ele>207.78</ele><time>2026-08-16T17:03:54Z</time></trkpt><trkpt lat="59.3201766349" lon="34.6404246613"><ele>208.26</ele><time>2026-08-16T17:03:56Z</time></trkpt><trkpt lat="59.3201598711" lon="34.6405515634"><ele>208.74</ele><time>2026-08-16T17:04:11Z</time></trkpt><trkpt lat="59.3200907204" lon="34.6407331154"><ele>208.74</ele><time>2026-08-16T17:04:27Z</time></trkpt><trkpt lat="59.3200965878" lon="34.6408134978"><ele>207.30</ele><time>2026-08-16T17:04:34Z</time></trkpt><trkpt lat="59.3200891279" lon="34.6408486180"><ele>208.26</ele><time>2026-08-16T17:04:44Z</time></trkpt><trkpt lat="59.3200508226" lon="34.6410084609"><ele>208.74</ele><time>2026-08-16T17:04:57Z</time></trkpt><trkpt lat="59.3200753815" lon="34.6411727462"><ele>205.86</ele><time>2026-08-16T17:05:14Z</time></trkpt><trkpt lat="59.3200799916" lon="34.6412465069"><ele>209.22</ele><time>2026-08-16T17:05:21Z</time></trkpt><trkpt lat="59.3200400937" lon="34.6412914339"><ele>208.74</ele><time>2026-08-16T17:05:26Z</time></trkpt><trkpt lat="59.3199437018" lon="34.6415268816"><ele>208.74</ele><time>2026-08-16T17:05:44Z</time></trkpt><trkpt lat="59.3198604695" lon="34.6416914184"><ele>208.74</ele><time>2026-08-16T17:05:59Z</time></trkpt><trkpt lat="59.3197038956" lon="34.6418373473"><ele>209.22</ele><time>2026-08-16T17:06:18Z</time></trkpt><trkpt lat="59.3196151312" lon="34.6419525985"><ele>208.26</ele><time>2026-08-16T17:06:32Z</time></trkpt><trkpt lat="59.3195624091" lon="34.6421365812"><ele>209.22</ele><time>2026-08-16T17:06:46Z</time></trkpt><trkpt lat="59.3195393588" lon="34.6423043869"><ele>206.82</ele><time>2026-08-16T17:06:57Z</time></trkpt><trkpt lat="59.3195290491" lon="34.6423610486"><ele>209.22</ele><time>2026-08-16T17:07:00Z</time></trkpt><trkpt lat="59.3194972817" lon="34.6425996814"><ele>209.70</ele><time>2026-08-16T17:07:15Z</time></trkpt><trkpt lat="59.3194429670" lon="34.6430428326"><ele>209.70</ele><time>2026-08-16T17:07:33Z</time></trkpt><trkpt lat="59.3193171546" lon="34.6434180904"><ele>209.22</ele><time>2026-08-16T17:07:53Z</time></trkpt><trkpt lat="59.3192203436" lon="34.6436421387"><ele>209.70</ele><time>2026-08-16T17:08:11Z</time></trkpt><trkpt lat="59.3192370236" lon="34.6436306555"><ele>209.22</ele><time>2026-08-16T17:08:27Z</time></trkpt><trkpt lat="59.3192485906" lon="34.6436133888"><ele>209.70</ele><time>2026-08-16T17:08:36Z</time></trkpt><trkpt lat="59.3191790208" lon="34.6437932644"><ele>209.22</ele><time>2026-08-16T17:08:54Z</time></trkpt><trkpt lat="59.3190731574" lon="34.6440796740"><ele>208.74</ele><time>2026-08-16T17:09:11Z</time></trkpt><trkpt lat="59.3190103769" lon="34.6442146227"><ele>209.22</ele><time>2026-08-16T17:09:24Z</time></trkpt><trkpt lat="59.3189476803" lon="34.6444293670"><ele>208.74</ele><time>2026-08-16T17:09:38Z</time></trkpt><trkpt lat="59.3189016636" lon="34.6447167825"><ele>208.74</ele><time>2026-08-16T17:09:55Z</time></trkpt><trkpt lat="59.3188715726" lon="34.6449329518"><ele>209.70</ele><time>2026-08-16T17:10:08Z</time></trkpt><trkpt lat="59.3188066967" lon="34.6452958882"><ele>208.74</ele><time>2026-08-16T17:10:26Z</time></trkpt><trkpt lat="59.3187892623" lon="34.6453234646"><ele>207.78</ele><time>2026-08-16T17:10:33Z</time></trkpt><trkpt lat="59.3187724147" lon="34.6453350317"><ele>209.22</ele><time>2026-08-16T17:10:37Z</time></trkpt><trkpt lat="59.3187536392" lon="34.6453776117"><ele>206.34</ele><time>2026-08-16T17:10:55Z</time></trkpt><trkpt lat="59.3187559023" lon="34.6453849878"><ele>207.30</ele><time>2026-08-16T17:10:57Z</time></trkpt><trkpt lat="59.3187552318" lon="34.6453999914"><ele>209.22</ele><time>2026-08-16T17:10:59Z</time></trkpt><trkpt lat="59.3188009132" lon="34.6454280708"><ele>209.70</ele><time>2026-08-16T17:11:21Z</time></trkpt><trkpt lat="59.3187242188" lon="34.6455697250"><ele>209.22</ele><time>2026-08-16T17:11:37Z</time></trkpt><trkpt lat="59.3185098097" lon="34.6458522789"><ele>209.22</ele><time>2026-08-16T17:11:59Z</time></trkpt><trkpt lat="59.3183205463" lon="34.6460802667"><ele>209.22</ele><time>2026-08-16T17:12:19Z</time></trkpt><trkpt lat="59.3182632141" lon="34.6461790055"><ele>209.22</ele><time>2026-08-16T17:12:26Z</time></trkpt><trkpt lat="59.3181740306" lon="34.6465006191"><ele>209.70</ele><time>2026-08-16T17:12:44Z</time></trkpt><trkpt lat="59.3181321211" lon="34.6466903016"><ele>209.70</ele><time>2026-08-16T17:12:54Z</time></trkpt><trkpt lat="59.3180907983" lon="34.6469841711"><ele>208.26</ele><time>2026-08-16T17:13:07Z</time></trkpt><trkpt lat="59.3180052191" lon="34.6473023482"><ele>209.70</ele><time>2026-08-16T17:13:23Z</time></trkpt><trkpt lat="59.3178996909" lon="34.6476957109"><ele>208.26</ele><time>2026-08-16T17:13:43Z</time></trkpt><trkpt lat="59.3178478070" lon="34.6481226850"><ele>208.26</ele><time>2026-08-16T17:14:03Z</time></trkpt><trkpt lat="59.3177588750" lon="34.6484976076"><ele>210.19</ele><time>2026-08-16T17:14:22Z</time></trkpt><trkpt lat="59.3176737148" lon="34.6488529164"><ele>210.19</ele><time>2026-08-16T17:14:38Z</time></trkpt><trkpt lat="59.3175243493" lon="34.6490976680"><ele>209.70</ele><time>2026-08-16T17:14:58Z</time></trkpt><trkpt lat="59.3174697831" lon="34.6493202075"><ele>210.19</ele><time>2026-08-16T17:15:11Z</time></trkpt><trkpt lat="59.3174272869" lon="34.6495652106"><ele>210.67</ele><time>2026-08-16T17:15:21Z</time></trkpt><trkpt lat="59.3173645902" lon="34.6499002352"><ele>208.74</ele><time>2026-08-16T17:15:37Z</time></trkpt><trkpt lat="59.3173578009" lon="34.6499496046"><ele>210.19</ele><time>2026-08-16T17:15:39Z</time></trkpt><trkpt lat="59.3173770793" lon="34.6502313204"><ele>211.15</ele><time>2026-08-16T17:15:52Z</time></trkpt><trkpt lat="59.3173749838" lon="34.6502562147"><ele>210.67</ele><time>2026-08-16T17:15:53Z</time></trkpt><trkpt lat="59.3173787557" lon="34.6506736334"><ele>210.67</ele><time>2026-08-16T17:16:10Z</time></trkpt><trkpt lat="59.3173577171" lon="34.6507605538"><ele>211.15</ele><time>2026-08-16T17:16:13Z</time></trkpt><trkpt lat="59.3173515983" lon="34.6509530861"><ele>210.19</ele><time>2026-08-16T17:16:23Z</time></trkpt><trkpt lat="59.3173471559" lon="34.6513582673"><ele>210.19</ele><time>2026-08-16T17:16:41Z</time></trkpt><trkpt lat="59.3173291348" lon="34.6516938787"><ele>211.63</ele><time>2026-08-16T17:16:56Z</time></trkpt><trkpt lat="59.3173460662" lon="34.6520413924"><ele>211.15</ele><time>2026-08-16T17:17:12Z</time></trkpt><trkpt lat="59.3174004648" lon="34.6524422150"><ele>210.67</ele><time>2026-08-16T17:17:30Z</time></trkpt><trkpt lat="59.3174887262" lon="34.6528754756"><ele>211.15</ele><time>2026-08-16T17:17:45Z</time></trkpt><trkpt lat="59.3175040651" lon="34.6530352347"><ele>210.67</ele><time>2026-08-16T17:17:53Z</time></trkpt><trkpt lat="59.3175049871" lon="34.6530603804"><ele>211.63</ele><time>2026-08-16T17:17:54Z</time></trkpt><trkpt lat="59.3175199907" lon="34.6534533240"><ele>211.63</ele><time>2026-08-16T17:18:10Z</time></trkpt><trkpt lat="59.3175208289" lon="34.6534987539"><ele>212.11</ele><time>2026-08-16T17:18:12Z</time></trkpt><trkpt lat="59.3175494112" lon="34.6539024264"><ele>212.11</ele><time>2026-08-16T17:18:29Z</time></trkpt><trkpt lat="59.3176108506" lon="34.6542478446"><ele>212.59</ele><time>2026-08-16T17:18:45Z</time></trkpt><trkpt lat="59.3176061567" lon="34.6547769941"><ele>212.59</ele><time>2026-08-16T17:19:03Z</time></trkpt><trkpt lat="59.3176126946" lon="34.6550818440"><ele>212.11</ele><time>2026-08-16T17:19:19Z</time></trkpt><trkpt lat="59.3176396005" lon="34.6553711873"><ele>212.11</ele><time>2026-08-16T17:19:35Z</time></trkpt><trkpt lat="59.3176493235" lon="34.6554466244"><ele>212.11</ele><time>2026-08-16T17:19:40Z</time></trkpt><trkpt lat="59.3176605552" lon="34.6557663102"><ele>211.15</ele><time>2026-08-16T17:19:54Z</time></trkpt><trkpt lat="59.3177090865" lon="34.6561186016"><ele>212.11</ele><time>2026-08-16T17:20:10Z</time></trkpt><trkpt lat="59.3177842721" lon="34.6563856490"><ele>212.11</ele><time>2026-08-16T17:20:26Z</time></trkpt><trkpt lat="59.3178109266" lon="34.6564765926"><ele>210.19</ele><time>2026-08-16T17:20:39Z</time></trkpt><trkpt lat="59.3179070670" lon="34.6568675246"><ele>210.67</ele><time>2026-08-16T17:20:57Z</time></trkpt><trkpt lat="59.3179771397" lon="34.6571988612"><ele>210.67</ele><time>2026-08-16T17:21:13Z</time></trkpt><trkpt lat="59.3180013634" lon="34.6573497355"><ele>208.74</ele><time>2026-08-16T17:21:25Z</time></trkpt><trkpt lat="59.3180394173" lon="34.6575292759"><ele>210.19</ele><time>2026-08-16T17:21:40Z</time></trkpt><trkpt lat="59.3180511519" lon="34.6575617138"><ele>209.22</ele><time>2026-08-16T17:21:42Z</time></trkpt><trkpt lat="59.3180558458" lon="34.6575949062"><ele>208.26</ele><time>2026-08-16T17:21:44Z</time></trkpt><trkpt lat="59.3181082327" lon="34.6579342056"><ele>209.70</ele><time>2026-08-16T17:22:00Z</time></trkpt><trkpt lat="59.3181142677" lon="34.6580469422"><ele>208.74</ele><time>2026-08-16T17:22:05Z</time></trkpt><trkpt lat="59.3181690015" lon="34.6583611798"><ele>210.19</ele><time>2026-08-16T17:22:20Z</time></trkpt><trkpt lat="59.3181881122" lon="34.6587074362"><ele>209.70</ele><time>2026-08-16T17:22:36Z</time></trkpt><trkpt lat="59.3182287645" lon="34.6590268705"><ele>209.70</ele><time>2026-08-16T17:22:49Z</time></trkpt><trkpt lat="59.3182696681" lon="34.6592712030"><ele>208.74</ele><time>2026-08-16T17:23:01Z</time></trkpt><trkpt lat="59.3183259107" lon="34.6591989510"><ele>209.70</ele><time>2026-08-16T17:23:07Z</time></trkpt><trkpt lat="59.3183700833" lon="34.6591195744"><ele>207.78</ele><time>2026-08-16T17:23:16Z</time></trkpt><trkpt lat="59.3183886912" lon="34.6590466518"><ele>208.74</ele><time>2026-08-16T17:23:29Z</time></trkpt><trkpt lat="59.3183791358" lon="34.6589911636"><ele>208.26</ele><time>2026-08-16T17:23:45Z</time></trkpt><trkpt lat="59.3183792196" lon="34.6589610726"><ele>208.74</ele><time>2026-08-16T17:24:01Z</time></trkpt><trkpt lat="59.3183911219" lon="34.6590014733"><ele>210.19</ele><time>2026-08-16T17:24:11Z</time></trkpt><trkpt lat="59.3183984142" lon="34.6590056643"><ele>210.19</ele><time>2026-08-16T17:24:50Z</time></trkpt><trkpt lat="59.3184080534" lon="34.6590324026"><ele>209.70</ele><time>2026-08-16T17:25:26Z</time></trkpt><trkpt lat="59.3183987495" lon="34.6589929238"><ele>209.22</ele><time>2026-08-16T17:26:06Z</time></trkpt><trkpt lat="59.3183990009" lon="34.6590157226"><ele>208.74</ele><time>2026-08-16T17:26:42Z</time></trkpt><trkpt lat="59.3184005935" lon="34.6590379346"><ele>208.26</ele><time>2026-08-16T17:27:20Z</time></trkpt><trkpt lat="59.3184108194" lon="34.6590191592"><ele>207.78</ele><time>2026-08-16T17:27:53Z</time></trkpt><trkpt lat="59.3184094783" lon="34.6590263676"><ele>207.78</ele><time>2026-08-16T17:28:35Z</time></trkpt><trkpt lat="59.3183984980" lon="34.6590176504"><ele>206.82</ele><time>2026-08-16T17:29:02Z</time></trkpt><trkpt lat="59.3183772080" lon="34.6590113640"><ele>206.34</ele><time>2026-08-16T17:29:38Z</time></trkpt><trkpt lat="59.3184028566" lon="34.6590225119"><ele>206.34</ele><time>2026-08-16T17:30:24Z</time></trkpt><trkpt lat="59.3183831591" lon="34.6589928400"><ele>206.82</ele><time>2026-08-16T17:30:55Z</time></trkpt><trkpt lat="59.3183647189" lon="34.6589825302"><ele>204.90</ele><time>2026-08-16T17:31:05Z</time></trkpt><trkpt lat="59.3183520623" lon="34.6589780040"><ele>203.94</ele><time>2026-08-16T17:31:10Z</time></trkpt><trkpt lat="59.3183504697" lon="34.6589585580"><ele>204.42</ele><time>2026-08-16T17:31:17Z</time></trkpt><trkpt lat="59.3183477875" lon="34.6589540318"><ele>201.05</ele><time>2026-08-16T17:31:20Z</time></trkpt><trkpt lat="59.3183478713" lon="34.6589527745"><ele>201.05</ele><time>2026-08-16T17:31:21Z</time></trkpt><trkpt lat="59.3183617853" lon="34.6589473262"><ele>204.42</ele><time>2026-08-16T17:31:27Z</time></trkpt><trkpt lat="59.3183656409" lon="34.6589538641"><ele>205.38</ele><time>2026-08-16T17:31:29Z</time></trkpt><trkpt lat="59.3183659762" lon="34.6589925885"><ele>206.34</ele><time>2026-08-16T17:31:39Z</time></trkpt><trkpt lat="59.3183603603" lon="34.6589855477"><ele>202.01</ele><time>2026-08-16T17:31:41Z</time></trkpt><trkpt lat="59.3183592707" lon="34.6589800995"><ele>206.82</ele><time>2026-08-16T17:31:42Z</time></trkpt><trkpt lat="59.3183519784" lon="34.6589744836"><ele>206.34</ele><time>2026-08-16T17:32:19Z</time></trkpt><trkpt lat="59.3183707539" lon="34.6589787584"><ele>205.86</ele><time>2026-08-16T17:32:59Z</time></trkpt><trkpt lat="59.3183498830" lon="34.6589569654"><ele>205.86</ele><time>2026-08-16T17:33:43Z</time></trkpt><trkpt lat="59.3183411658" lon="34.6589286346"><ele>204.90</ele><time>2026-08-16T17:34:24Z</time></trkpt><trkpt lat="59.3183495477" lon="34.6589486673"><ele>185.19</ele><time>2026-08-16T17:34:37Z</time></trkpt><trkpt lat="59.3183513917" lon="34.6589531098"><ele>187.59</ele><time>2026-08-16T17:34:38Z</time></trkpt><trkpt lat="59.3183524814" lon="34.6589567978"><ele>201.05</ele><time>2026-08-16T17:34:39Z</time></trkpt><trkpt lat="59.3183503859" lon="34.6589602344"><ele>203.46</ele><time>2026-08-16T17:34:41Z</time></trkpt><trkpt lat="59.3183666468" lon="34.6589826141"><ele>203.46</ele><time>2026-08-16T17:35:17Z</time></trkpt><trkpt lat="59.3183566723" lon="34.6589994617"><ele>202.49</ele><time>2026-08-16T17:35:56Z</time></trkpt><trkpt lat="59.3183354661" lon="34.6589758247"><ele>202.01</ele><time>2026-08-16T17:36:41Z</time></trkpt><trkpt lat="59.3183442671" lon="34.6590211708"><ele>201.53</ele><time>2026-08-16T17:37:16Z</time></trkpt><trkpt lat="59.3183389027" lon="34.6589879785"><ele>201.05</ele><time>2026-08-16T17:37:53Z</time></trkpt><trkpt lat="59.3183369748" lon="34.6589883137"><ele>196.73</ele><time>2026-08-16T17:38:27Z</time></trkpt><trkpt lat="59.3183385674" lon="34.6589932591"><ele>200.57</ele><time>2026-08-16T17:38:30Z</time></trkpt><trkpt lat="59.3183389865" lon="34.6589906607"><ele>200.09</ele><time>2026-08-16T17:38:31Z</time></trkpt><trkpt lat="59.3183462787" lon="34.6589483321"><ele>198.65</ele><time>2026-08-16T17:38:41Z</time></trkpt><trkpt lat="59.3183540739" lon="34.6589391120"><ele>201.53</ele><time>2026-08-16T17:38:48Z</time></trkpt><trkpt lat="59.3183570914" lon="34.6589376032"><ele>201.53</ele><time>2026-08-16T17:38:50Z</time></trkpt><trkpt lat="59.3183541577" lon="34.6589747351"><ele>200.57</ele><time>2026-08-16T17:38:52Z</time></trkpt><trkpt lat="59.3183539901" lon="34.6590439696"><ele>200.57</ele><time>2026-08-16T17:38:59Z</time></trkpt></trkseg></trk></gpx>